Darstellungsparameter: Aktuell verwendete Einstellungen:
Skalierung der Graphiken ... ?
xyx+y,   Skalierungsfaktor:      Skalierung: Modus: x, Faktor: 1
Darstellungszeitraum ... ?
Vom - - bis: - -   Zeitraum: 21.05.2010 - 19.06.2010
Min/Max/Avg-Anzeige ... ?
Zeige MMA aktuell
Zeige MMA Monat
Zeige MMA alles
Zeige --A aktuell
Zeige --A Monat
Zeige --A alles
Keine MMA-Anzeige
MMA:
Average (ber die Originaldaten)
MMA-Basis: 21.05.2010 - 19.06.2010
Quicknavigation für Darstellung... ?
Tage:      1T, 2T, 3T, 5T -1T -2T -3T -5T +1T +2T +3T +5T
Wochen: 1W, 2W, 3W -1W -2W -3W +1W +2W +3W
Monate: 1M, 3M, 6M -1M -3M -6M +1M +3M +6M
Jahre:    1J, 3J, 5J, 10J -1J -3J -5J -10J +1J +3J +5J +10J
Nutze für die Darstellung ... ?
Originaldaten oder Mittelwerte auf ...
Stundenbasis Tagesbasis Wochenbasis
Monatsbasis Jahresbasis      Datenbasis: Original-Daten
Darstellen als:
Statistik (Auto) Statistik J:M      Darstellung:
Zur Graphik,    zurück zur Übersicht aller Sensoren.
 
Tabellarische Datenbersicht: ?
 
Sensor: Nr:Datum:Temp:Abs-Feuchte:Windchill:Wind:
Aussen-T/F 1 21-05-2010 00:01:03 11.1 C 7.45 g/m*3 11.1 C 0 km/h
2 21-05-2010 00:13:03 10.7 C 7.27 g/m*3 10.7 C 0 km/h
3 21-05-2010 00:25:03 10.6 C 7.32 g/m*3 10.6 C 0 km/h
4 21-05-2010 00:37:03 10.5 C 7.27 g/m*3 10.5 C 0 km/h
5 21-05-2010 00:49:03 10.3 C 7.18 g/m*3 10.3 C 0 km/h
6 21-05-2010 01:01:03 10.1 C 7.19 g/m*3 10.1 C 0 km/h
7 21-05-2010 01:13:03 10.1 C 7.28 g/m*3 10.1 C 0 km/h
8 21-05-2010 01:25:03 10.2 C 7.33 g/m*3 10.2 C 0 km/h
9 21-05-2010 01:37:03 10.2 C 7.33 g/m*3 10.2 C 0 km/h
10 21-05-2010 01:49:03 10.1 C 7.38 g/m*3 10.1 C 0 km/h
11 21-05-2010 02:01:03 10 C 7.33 g/m*3 10 C 0 km/h
12 21-05-2010 02:13:03 9.7 C 7.28 g/m*3 9.7 C 0 km/h
13 21-05-2010 02:25:03 9.5 C 7.28 g/m*3 9.5 C 0 km/h
14 21-05-2010 02:37:03 9.2 C 7.23 g/m*3 9.2 C 0 km/h
15 21-05-2010 02:49:04 9.1 C 7.19 g/m*3 9.1 C 0 km/h
16 21-05-2010 03:01:04 9 C 7.23 g/m*3 9 C 0 km/h
17 21-05-2010 03:13:04 8.8 C 7.31 g/m*3 8.8 C 0 km/h
18 21-05-2010 03:25:04 8.6 C 7.22 g/m*3 8.6 C 0 km/h
19 21-05-2010 03:37:04 8.5 C 7.34 g/m*3 8.5 C 0 km/h
20 21-05-2010 03:49:04 8.2 C 7.2 g/m*3 8.2 C 0 km/h
21 21-05-2010 04:01:04 8.1 C 7.16 g/m*3 8.1 C 0 km/h
22 21-05-2010 04:13:04 8 C 7.11 g/m*3 8 C 0 km/h
23 21-05-2010 04:25:04 7.9 C 7.15 g/m*3 7.9 C 0 km/h
24 21-05-2010 04:37:04 7.8 C 7.1 g/m*3 7.8 C 0 km/h
25 21-05-2010 04:49:04 7.6 C 7.09 g/m*3 7.6 C 0 km/h
Sensor: Nr:Datum:Temp:Abs-Feuchte:Windchill:Wind:
Aussen-T/F 26 21-05-2010 05:01:04 8.1 C 7.32 g/m*3 8.1 C 0 km/h
27 21-05-2010 05:13:04 8.2 C 7.37 g/m*3 8.2 C 0 km/h
28 21-05-2010 05:25:04 8.2 C 7.37 g/m*3 8.2 C 0 km/h
29 21-05-2010 05:37:04 8.1 C 7.32 g/m*3 8.1 C 0 km/h
30 21-05-2010 05:49:04 7.9 C 7.23 g/m*3 7.9 C 0 km/h
31 21-05-2010 06:01:04 7.8 C 7.26 g/m*3 7.8 C 0 km/h
32 21-05-2010 06:13:04 7.9 C 7.39 g/m*3 7.9 C 0 km/h
33 21-05-2010 06:25:04 8 C 7.36 g/m*3 8 C 0 km/h
34 21-05-2010 06:37:04 8.2 C 7.45 g/m*3 8.2 C 0 km/h
35 21-05-2010 06:49:04 8.5 C 7.68 g/m*3 8.5 C 0 km/h
36 21-05-2010 07:01:02 8.7 C 7.78 g/m*3 8.7 C 0 km/h
37 21-05-2010 07:13:02 8.6 C 7.65 g/m*3 8.6 C 0 km/h
38 21-05-2010 07:25:03 8.4 C 7.47 g/m*3 8.4 C 0 km/h
39 21-05-2010 07:37:02 8.4 C 7.47 g/m*3 8.4 C 0 km/h
40 21-05-2010 07:49:02 8.5 C 7.51 g/m*3 8.5 C 0 km/h
41 21-05-2010 08:01:02 8.7 C 7.52 g/m*3 8.7 C 0 km/h
42 21-05-2010 08:13:02 8.8 C 7.57 g/m*3 8.8 C 0 km/h
43 21-05-2010 08:25:02 9.2 C 7.5 g/m*3 9.2 C 0 km/h
44 21-05-2010 08:37:03 9.6 C 7.6 g/m*3 9.6 C 0 km/h
45 21-05-2010 08:49:02 9.7 C 7.56 g/m*3 9.7 C 0 km/h
46 21-05-2010 09:01:01 9.9 C 7.66 g/m*3 9.9 C 0 km/h
47 21-05-2010 09:13:01 10.2 C 7.71 g/m*3 10.2 C 0 km/h
48 21-05-2010 09:25:02 10.6 C 7.91 g/m*3 10.6 C 0 km/h
49 21-05-2010 09:37:02 11.4 C 8.11 g/m*3 11.4 C 0 km/h
50 21-05-2010 09:49:02 12 C 8.1 g/m*3 12 C 0 km/h
Sensor: Nr:Datum:Temp:Abs-Feuchte:Windchill:Wind:
Aussen-T/F 51 21-05-2010 10:01:03 12.8 C 8.4 g/m*3 12.8 C 0 km/h
52 21-05-2010 10:13:03 13.6 C 8.47 g/m*3 13.6 C 0 km/h
53 21-05-2010 10:25:02 14.5 C 8.46 g/m*3 14.5 C 0 km/h
54 21-05-2010 10:37:03 15.5 C 8.2 g/m*3 15.5 C 0 km/h
55 21-05-2010 10:49:02 16.5 C 7.72 g/m*3 16.5 C 0 km/h
56 21-05-2010 11:01:02 17.2 C 7.47 g/m*3 17.2 C 0 km/h
57 21-05-2010 11:13:02 17.8 C 7.59 g/m*3 17.8 C 0 km/h
58 21-05-2010 11:25:01 18.6 C 7.48 g/m*3 18.6 C 0 km/h
59 21-05-2010 11:37:02 19.2 C 7.42 g/m*3 19.2 C 0 km/h
60 21-05-2010 11:49:02 19.5 C 6.71 g/m*3 19.5 C 0 km/h
61 21-05-2010 12:01:02 19.2 C 6.27 g/m*3 19.2 C 0 km/h
62 21-05-2010 12:13:02 20.6 C 6.62 g/m*3 20.6 C 0 km/h
63 21-05-2010 12:25:02 20.9 C 6.19 g/m*3 20.9 C 0 km/h
64 21-05-2010 12:37:02 20.8 C 5.61 g/m*3 20.8 C 0 km/h
65 21-05-2010 12:49:02 21.2 C 5.37 g/m*3 21.2 C 0 km/h
66 21-05-2010 13:01:02 21.9 C 5.79 g/m*3 21.9 C 0 km/h
67 21-05-2010 13:13:02 23.7 C 5.35 g/m*3 23.7 C 0 km/h
68 21-05-2010 13:25:02 24.8 C 5.01 g/m*3 24.8 C 0 km/h
69 21-05-2010 13:37:02 25.2 C 4.89 g/m*3 25.2 C 0 km/h
70 21-05-2010 13:49:02 23.3 C 4.39 g/m*3 23.3 C 0 km/h
71 21-05-2010 14:01:02 23.1 C 5.17 g/m*3 23.1 C 0 km/h
72 21-05-2010 14:13:02 23.5 C 5.29 g/m*3 23.5 C 0 km/h
73 21-05-2010 14:25:02 24.4 C 5.12 g/m*3 24.4 C 0 km/h
74 21-05-2010 14:37:02 23.8 C 4.95 g/m*3 23.8 C 0 km/h
75 21-05-2010 14:49:02 24.6 C 5.63 g/m*3 24.6 C 0 km/h
Sensor: Nr:Datum:Temp:Abs-Feuchte:Windchill:Wind:
Aussen-T/F 76 21-05-2010 15:01:02 23.9 C 4.98 g/m*3 23.9 C 0 km/h
77 21-05-2010 15:13:02 25.2 C 5.12 g/m*3 25.2 C 0 km/h
78 21-05-2010 15:25:03 25.8 C 5.54 g/m*3 25.8 C 0 km/h
79 21-05-2010 15:37:02 25.7 C 4.79 g/m*3 25.7 C 0 km/h
80 21-05-2010 15:49:02 26.5 C 5.26 g/m*3 26.5 C 0 km/h
81 21-05-2010 16:01:02 26.3 C 4.95 g/m*3 26.3 C 0 km/h
82 21-05-2010 16:13:02 24.4 C 4.9 g/m*3 24.4 C 0 km/h
83 21-05-2010 16:25:02 25.3 C 4.92 g/m*3 25.3 C 0 km/h
84 21-05-2010 16:37:02 25 C 4.83 g/m*3 25 C 0 km/h
85 21-05-2010 16:49:02 25.4 C 4.71 g/m*3 25.4 C 0 km/h
86 21-05-2010 17:01:02 26.4 C 4.98 g/m*3 26.4 C 0 km/h
87 21-05-2010 17:13:02 25.7 C 4.79 g/m*3 25.7 C 0 km/h
88 21-05-2010 17:25:02 26.1 C 4.9 g/m*3 26.1 C 0 km/h
89 21-05-2010 17:37:02 26.7 C 5.06 g/m*3 26.7 C 0 km/h
90 21-05-2010 17:49:02 25.8 C 4.82 g/m*3 25.8 C 0 km/h
91 21-05-2010 18:01:01 26.4 C 4.98 g/m*3 26.4 C 0 km/h
92 21-05-2010 18:13:01 27 C 5.15 g/m*3 27 C 0 km/h
93 21-05-2010 18:25:02 26.2 C 4.92 g/m*3 26.2 C 0 km/h
94 21-05-2010 18:37:02 25.3 C 4.92 g/m*3 25.3 C 0 km/h
95 21-05-2010 18:49:02 24.8 C 5.24 g/m*3 24.8 C 0 km/h
96 21-05-2010 19:01:01 24.9 C 5.72 g/m*3 24.9 C 0 km/h
97 21-05-2010 19:13:01 24.6 C 5.63 g/m*3 24.6 C 0 km/h
98 21-05-2010 19:25:01 24.6 C 5.85 g/m*3 24.6 C 0 km/h
99 21-05-2010 19:37:02 24.1 C 5.69 g/m*3 24.1 C 0 km/h
100 21-05-2010 19:49:02 24 C 6.09 g/m*3 24 C 0 km/h
Sensor: Nr:Datum:Temp:Abs-Feuchte:Windchill:Wind:
Aussen-T/F 101 21-05-2010 20:01:02 23.6 C 5.96 g/m*3 23.6 C 0 km/h
102 21-05-2010 20:13:02 23.3 C 6.27 g/m*3 23.3 C 0 km/h
103 21-05-2010 20:25:02 22.9 C 6.34 g/m*3 22.9 C 0 km/h
104 21-05-2010 20:37:02 22.3 C 6.12 g/m*3 22.3 C 0 km/h
105 21-05-2010 20:49:02 21.2 C 6.49 g/m*3 21.2 C 0 km/h
106 21-05-2010 21:01:03 20.8 C 6.52 g/m*3 20.8 C 0 km/h
107 21-05-2010 21:13:03 20.4 C 6.55 g/m*3 20.4 C 0 km/h
108 21-05-2010 21:25:03 20 C 6.57 g/m*3 20 C 0 km/h
109 21-05-2010 21:37:03 19.8 C 6.66 g/m*3 19.8 C 0 km/h
110 21-05-2010 21:49:02 19.4 C 6.67 g/m*3 19.4 C 0 km/h
111 21-05-2010 22:01:02 18.9 C 6.97 g/m*3 18.9 C 0 km/h
112 21-05-2010 22:13:02 18.4 C 6.92 g/m*3 18.4 C 0 km/h
113 21-05-2010 22:25:02 18.2 C 7.15 g/m*3 18.2 C 0 km/h
114 21-05-2010 22:37:02 17.9 C 7.33 g/m*3 17.9 C 0 km/h
115 21-05-2010 22:49:02 17 C 7.38 g/m*3 17 C 0 km/h
116 21-05-2010 23:01:02 17 C 7.23 g/m*3 17 C 0 km/h
117 21-05-2010 23:13:02 16.4 C 7.12 g/m*3 16.4 C 0 km/h
118 21-05-2010 23:25:02 16.2 C 7.17 g/m*3 16.2 C 0 km/h
119 21-05-2010 23:38:04 15.9 C 7.31 g/m*3 15.9 C 0 km/h
120 21-05-2010 23:50:04 15.8 C 7.54 g/m*3 15.8 C 0 km/h
121 22-05-2010 00:02:04 15.6 C 7.58 g/m*3 15.6 C 0 km/h
122 22-05-2010 00:14:04 15.4 C 7.49 g/m*3 15.4 C 0 km/h
123 22-05-2010 00:26:04 15.1 C 7.61 g/m*3 15.1 C 0 km/h
124 22-05-2010 00:38:04 14.8 C 7.73 g/m*3 14.8 C 0 km/h
125 22-05-2010 00:50:04 14.5 C 7.71 g/m*3 14.5 C 0 km/h
Sensor: Nr:Datum:Temp:Abs-Feuchte:Windchill:Wind:
Aussen-T/F 126 22-05-2010 01:02:04 14.4 C 7.79 g/m*3 14.4 C 0 km/h
127 22-05-2010 01:14:04 14.1 C 7.77 g/m*3 14.1 C 0 km/h
128 22-05-2010 01:26:04 13.9 C 7.91 g/m*3 13.9 C 0 km/h
129 22-05-2010 01:38:04 13.6 C 7.77 g/m*3 13.6 C 0 km/h
130 22-05-2010 01:50:04 13.4 C 7.9 g/m*3 13.4 C 0 km/h
131 22-05-2010 02:02:04 13.2 C 7.92 g/m*3 13.2 C 0 km/h
132 22-05-2010 02:14:04 12.9 C 7.89 g/m*3 12.9 C 0 km/h
133 22-05-2010 02:26:04 12.7 C 7.9 g/m*3 12.7 C 0 km/h
134 22-05-2010 02:38:04 12.5 C 7.92 g/m*3 12.5 C 0 km/h
135 22-05-2010 02:50:04 12.4 C 7.98 g/m*3 12.4 C 0 km/h
136 22-05-2010 03:02:04 12.3 C 7.93 g/m*3 12.3 C 0 km/h
137 22-05-2010 03:14:04 12.1 C 7.94 g/m*3 12.1 C 0 km/h
138 22-05-2010 03:26:04 12 C 7.89 g/m*3 12 C 0 km/h
139 22-05-2010 03:38:05 11.9 C 7.94 g/m*3 11.9 C 0 km/h
140 22-05-2010 03:50:05 11.7 C 7.95 g/m*3 11.7 C 0 km/h
141 22-05-2010 04:02:05 11.5 C 7.95 g/m*3 11.5 C 0 km/h
142 22-05-2010 04:14:05 11.2 C 7.91 g/m*3 11.2 C 0 km/h
143 22-05-2010 04:26:05 11 C 7.81 g/m*3 11 C 0 km/h
144 22-05-2010 04:38:05 10.9 C 7.96 g/m*3 10.9 C 0 km/h
145 22-05-2010 04:50:05 10.7 C 7.86 g/m*3 10.7 C 0 km/h
146 22-05-2010 05:02:05 10.7 C 7.86 g/m*3 10.7 C 0 km/h
147 22-05-2010 05:14:05 10.3 C 7.76 g/m*3 10.3 C 0 km/h
148 22-05-2010 05:26:05 10.3 C 7.76 g/m*3 10.3 C 0 km/h
149 22-05-2010 05:38:05 10.2 C 7.8 g/m*3 10.2 C 0 km/h
150 22-05-2010 05:50:05 10 C 7.71 g/m*3 10 C 0 km/h
Sensor: Nr:Datum:Temp:Abs-Feuchte:Windchill:Wind:
Aussen-T/F 151 22-05-2010 06:02:05 9.9 C 7.75 g/m*3 9.9 C 0 km/h
152 22-05-2010 06:14:05 9.9 C 7.75 g/m*3 9.9 C 0 km/h
153 22-05-2010 06:26:05 9.9 C 7.75 g/m*3 9.9 C 0 km/h
154 22-05-2010 06:38:05 10.1 C 7.75 g/m*3 10.1 C 0 km/h
155 22-05-2010 06:50:05 10 C 7.71 g/m*3 10 C 0 km/h
156 22-05-2010 07:02:05 10.2 C 7.8 g/m*3 10.2 C 0 km/h
157 22-05-2010 07:14:05 10.2 C 7.8 g/m*3 10.2 C 0 km/h
158 22-05-2010 07:26:03 10.3 C 7.85 g/m*3 10.3 C 0 km/h
159 22-05-2010 07:38:03 10.7 C 8.05 g/m*3 10.7 C 0 km/h
160 22-05-2010 07:50:02 11.3 C 8.36 g/m*3 11.3 C 0 km/h
161 22-05-2010 08:02:02 11.7 C 8.26 g/m*3 11.7 C 0 km/h
162 22-05-2010 08:14:02 12 C 8.1 g/m*3 12 C 0 km/h
163 22-05-2010 08:26:02 12.3 C 8.04 g/m*3 12.3 C 0 km/h
164 22-05-2010 08:38:03 12.6 C 7.85 g/m*3 12.6 C 0 km/h
165 22-05-2010 08:50:02 13 C 7.48 g/m*3 13 C 0 km/h
166 22-05-2010 09:02:02 13.3 C 7.39 g/m*3 13.3 C 0 km/h
167 22-05-2010 09:14:02 13.7 C 7.46 g/m*3 13.7 C 0 km/h
168 22-05-2010 09:26:02 13.9 C 7.55 g/m*3 13.9 C 0 km/h
169 22-05-2010 09:38:02 14.3 C 7.13 g/m*3 14.3 C 0 km/h
170 22-05-2010 09:50:02 14.8 C 7.09 g/m*3 14.8 C 0 km/h
171 22-05-2010 10:02:02 15.3 C 6.4 g/m*3 15.3 C 0 km/h
172 22-05-2010 10:14:02 15.8 C 6.33 g/m*3 15.8 C 0 km/h
173 22-05-2010 10:26:02 16 C 6.13 g/m*3 16 C 0 km/h
174 22-05-2010 10:38:02 16.7 C 6.4 g/m*3 16.7 C 0 km/h
175 22-05-2010 10:50:01 17 C 6.22 g/m*3 17 C 0 km/h
Sensor: Nr:Datum:Temp:Abs-Feuchte:Windchill:Wind:
Aussen-T/F 176 22-05-2010 11:02:02 17.6 C 6.3 g/m*3 17.6 C 0 km/h
177 22-05-2010 11:14:02 18 C 6.14 g/m*3 18 C 0 km/h
178 22-05-2010 11:26:01 18.1 C 6.03 g/m*3 18.1 C 0 km/h
179 22-05-2010 11:38:02 18.7 C 6.08 g/m*3 18.7 C 0 km/h
180 22-05-2010 11:50:02 19.1 C 5.9 g/m*3 19.1 C 0 km/h
181 22-05-2010 12:02:02 19.3 C 5.81 g/m*3 19.3 C 0 km/h
182 22-05-2010 12:14:02 20.2 C 5.94 g/m*3 20.2 C 0 km/h
183 22-05-2010 12:26:01 21.8 C 5.95 g/m*3 21.8 C 0 km/h
184 22-05-2010 12:38:01 21.3 C 5.59 g/m*3 21.3 C 0 km/h
185 22-05-2010 12:50:01 23.3 C 5.85 g/m*3 23.3 C 0 km/h
186 22-05-2010 13:02:01 23.7 C 5.78 g/m*3 23.7 C 0 km/h
187 22-05-2010 13:14:01 24.2 C 5.72 g/m*3 24.2 C 0 km/h
188 22-05-2010 13:26:01 24.2 C 5.5 g/m*3 24.2 C 0 km/h
189 22-05-2010 13:38:00 24.7 C 5.43 g/m*3 24.7 C 0 km/h
190 22-05-2010 13:50:01 24.4 C 5.56 g/m*3 24.4 C 0 km/h
191 22-05-2010 14:02:01 24 C 5 g/m*3 24 C 0 km/h
192 22-05-2010 14:14:01 23.6 C 5.74 g/m*3 23.6 C 0 km/h
193 22-05-2010 14:26:01 24 C 5.66 g/m*3 24 C 0 km/h
194 22-05-2010 14:38:01 23.9 C 5.84 g/m*3 23.9 C 0 km/h
195 22-05-2010 14:50:01 24.3 C 5.75 g/m*3 24.3 C 0 km/h
196 22-05-2010 15:02:01 24.9 C 5.95 g/m*3 24.9 C 0 km/h
197 22-05-2010 15:14:01 25.4 C 5.89 g/m*3 25.4 C 0 km/h
198 22-05-2010 15:26:02 25.6 C 5.95 g/m*3 25.6 C 0 km/h
199 22-05-2010 15:38:01 25.3 C 6.09 g/m*3 25.3 C 0 km/h
200 22-05-2010 15:50:03 25.5 C 5.92 g/m*3 25.5 C 0 km/h
Sensor: Nr:Datum:Temp:Abs-Feuchte:Windchill:Wind:
Aussen-T/F 201 22-05-2010 16:02:02 25.7 C 6.22 g/m*3 25.7 C 0 km/h
202 22-05-2010 16:14:02 25.8 C 6.02 g/m*3 25.8 C 0 km/h
203 22-05-2010 16:26:03 26.1 C 6.12 g/m*3 26.1 C 0 km/h
204 22-05-2010 16:38:02 25.6 C 6.19 g/m*3 25.6 C 0 km/h
205 22-05-2010 16:50:02 26.3 C 6.19 g/m*3 26.3 C 0 km/h
206 22-05-2010 17:02:01 26.7 C 6.33 g/m*3 26.7 C 0 km/h
207 22-05-2010 17:14:01 27 C 6.18 g/m*3 27 C 0 km/h
208 22-05-2010 17:26:02 27.1 C 6.47 g/m*3 27.1 C 0 km/h
209 22-05-2010 17:38:01 27.2 C 6.51 g/m*3 27.2 C 0 km/h
210 22-05-2010 17:50:02 26.4 C 6.47 g/m*3 26.4 C 0 km/h
211 22-05-2010 18:02:02 26.4 C 6.47 g/m*3 26.4 C 0 km/h
212 22-05-2010 18:14:02 26.9 C 6.65 g/m*3 26.9 C 0 km/h
213 22-05-2010 18:26:02 26.6 C 6.54 g/m*3 26.6 C 0 km/h
214 22-05-2010 18:38:03 26.1 C 6.37 g/m*3 26.1 C 0 km/h
215 22-05-2010 18:50:02 26.8 C 6.62 g/m*3 26.8 C 0 km/h
216 22-05-2010 19:02:02 26.4 C 6.47 g/m*3 26.4 C 0 km/h
217 22-05-2010 19:14:02 26.6 C 6.54 g/m*3 26.6 C 0 km/h
218 22-05-2010 19:26:02 26.4 C 6.72 g/m*3 26.4 C 0 km/h
219 22-05-2010 19:38:02 26.2 C 6.65 g/m*3 26.2 C 0 km/h
220 22-05-2010 19:50:01 25.9 C 7.02 g/m*3 25.9 C 0 km/h
221 22-05-2010 20:02:02 25.4 C 6.83 g/m*3 25.4 C 0 km/h
222 22-05-2010 20:14:02 24.9 C 7.1 g/m*3 24.9 C 0 km/h
223 22-05-2010 20:26:01 24.6 C 7.43 g/m*3 24.6 C 0 km/h
224 22-05-2010 20:38:02 24.2 C 7.48 g/m*3 24.2 C 0 km/h
225 22-05-2010 20:50:02 23.3 C 7.32 g/m*3 23.3 C 0 km/h
Sensor: Nr:Datum:Temp:Abs-Feuchte:Windchill:Wind:
Aussen-T/F 226 22-05-2010 21:02:02 22.7 C 7.48 g/m*3 22.7 C 0 km/h
227 22-05-2010 21:14:02 22 C 7.76 g/m*3 22 C 0 km/h
228 22-05-2010 21:26:02 21.2 C 7.41 g/m*3 21.2 C 0 km/h
229 22-05-2010 21:38:02 20.8 C 7.24 g/m*3 20.8 C 0 km/h
230 22-05-2010 21:50:02 20.3 C 7.03 g/m*3 20.3 C 0 km/h
231 22-05-2010 22:02:03 19.9 C 7.22 g/m*3 19.9 C 0 km/h
232 22-05-2010 22:14:03 19.5 C 6.88 g/m*3 19.5 C 0 km/h
233 22-05-2010 22:26:02 19.4 C 6.84 g/m*3 19.4 C 0 km/h
234 22-05-2010 22:38:02 19.2 C 7.26 g/m*3 19.2 C 0 km/h
235 22-05-2010 22:50:02 18.7 C 7.36 g/m*3 18.7 C 0 km/h
236 22-05-2010 23:02:02 18.4 C 7.39 g/m*3 18.4 C 0 km/h
237 22-05-2010 23:14:02 18.1 C 7.42 g/m*3 18.1 C 0 km/h
238 22-05-2010 23:26:01 17.9 C 7.48 g/m*3 17.9 C 0 km/h
239 22-05-2010 23:38:02 17.6 C 7.5 g/m*3 17.6 C 0 km/h
240 22-05-2010 23:50:02 17.5 C 7.6 g/m*3 17.5 C 0 km/h
241 23-05-2010 00:02:02 17.3 C 7.66 g/m*3 17.3 C 0 km/h
242 23-05-2010 00:14:02 17.1 C 7.71 g/m*3 17.1 C 0 km/h
243 23-05-2010 00:26:02 16.6 C 7.91 g/m*3 16.6 C 0 km/h
244 23-05-2010 00:38:02 16.2 C 7.86 g/m*3 16.2 C 0 km/h
245 23-05-2010 00:50:01 16 C 8.04 g/m*3 16 C 0 km/h
246 23-05-2010 01:02:02 15.7 C 8.16 g/m*3 15.7 C 0 km/h
247 23-05-2010 01:14:02 15.4 C 8.15 g/m*3 15.4 C 0 km/h
248 23-05-2010 01:26:02 15.2 C 8.18 g/m*3 15.2 C 0 km/h
249 23-05-2010 01:38:02 14.9 C 8.28 g/m*3 14.9 C 0 km/h
250 23-05-2010 01:50:02 14.5 C 8.33 g/m*3 14.5 C 0 km/h
Sensor: Nr:Datum:Temp:Abs-Feuchte:Windchill:Wind:
Aussen-T/F 251 23-05-2010 02:02:02 14.4 C 8.41 g/m*3 14.4 C 0 km/h
252 23-05-2010 02:14:02 14.2 C 8.3 g/m*3 14.2 C 0 km/h
253 23-05-2010 02:26:02 14.2 C 8.43 g/m*3 14.2 C 0 km/h
254 23-05-2010 02:38:01 14 C 8.32 g/m*3 14 C 0 km/h
255 23-05-2010 02:50:02 13.9 C 8.51 g/m*3 13.9 C 0 km/h
256 23-05-2010 03:02:02 13.8 C 8.46 g/m*3 13.8 C 0 km/h
257 23-05-2010 03:14:01 13.7 C 8.53 g/m*3 13.7 C 0 km/h
258 23-05-2010 03:26:01 13.5 C 8.54 g/m*3 13.5 C 0 km/h
259 23-05-2010 03:38:01 13.2 C 8.5 g/m*3 13.2 C 0 km/h
260 23-05-2010 03:50:01 12.9 C 8.45 g/m*3 12.9 C 0 km/h
261 23-05-2010 04:02:02 12.8 C 8.51 g/m*3 12.8 C 0 km/h
262 23-05-2010 04:14:02 12.7 C 8.46 g/m*3 12.7 C 0 km/h
263 23-05-2010 04:26:01 12.7 C 8.57 g/m*3 12.7 C 0 km/h
264 23-05-2010 04:38:02 12.4 C 8.41 g/m*3 12.4 C 0 km/h
265 23-05-2010 04:50:01 12.3 C 8.47 g/m*3 12.3 C 0 km/h
266 23-05-2010 05:02:02 12.1 C 8.36 g/m*3 12.1 C 0 km/h
267 23-05-2010 05:14:02 12 C 8.42 g/m*3 12 C 0 km/h
268 23-05-2010 05:26:01 11.9 C 8.37 g/m*3 11.9 C 0 km/h
269 23-05-2010 05:38:01 11.8 C 8.31 g/m*3 11.8 C 0 km/h
270 23-05-2010 05:50:01 11.8 C 8.42 g/m*3 11.8 C 0 km/h
271 23-05-2010 06:02:01 11.6 C 8.32 g/m*3 11.6 C 0 km/h
272 23-05-2010 06:14:02 11.5 C 8.26 g/m*3 11.5 C 0 km/h
273 23-05-2010 06:26:01 11.5 C 8.37 g/m*3 11.5 C 0 km/h
274 23-05-2010 06:38:01 11.5 C 8.37 g/m*3 11.5 C 0 km/h
275 23-05-2010 06:50:01 11.5 C 8.37 g/m*3 11.5 C 0 km/h
Sensor: Nr:Datum:Temp:Abs-Feuchte:Windchill:Wind:
Aussen-T/F 276 23-05-2010 07:02:01 11.5 C 8.47 g/m*3 11.5 C 0 km/h
277 23-05-2010 07:14:01 11.8 C 8.63 g/m*3 11.8 C 0 km/h
278 23-05-2010 07:26:02 11.9 C 8.68 g/m*3 11.9 C 0 km/h
279 23-05-2010 07:38:01 12.1 C 8.69 g/m*3 12.1 C 0 km/h
280 23-05-2010 07:50:01 12.4 C 8.85 g/m*3 12.4 C 0 km/h
281 23-05-2010 08:02:01 12.7 C 8.91 g/m*3 12.7 C 0 km/h
282 23-05-2010 08:14:01 13.3 C 9.24 g/m*3 13.3 C 0 km/h
283 23-05-2010 08:26:02 14 C 9.41 g/m*3 14 C 0 km/h
284 23-05-2010 08:38:01 14.4 C 9.27 g/m*3 14.4 C 0 km/h
285 23-05-2010 08:50:01 14.8 C 9.37 g/m*3 14.8 C 0 km/h
286 23-05-2010 09:02:01 15.2 C 9.22 g/m*3 15.2 C 0 km/h
287 23-05-2010 09:14:01 15.7 C 9.37 g/m*3 15.7 C 0 km/h
288 23-05-2010 09:26:02 16.1 C 9.32 g/m*3 16.1 C 0 km/h
289 23-05-2010 09:38:01 16.7 C 9.38 g/m*3 16.7 C 0 km/h
290 23-05-2010 09:50:02 17.2 C 9.08 g/m*3 17.2 C 0 km/h
291 23-05-2010 10:02:01 17.8 C 9.41 g/m*3 17.8 C 0 km/h
292 23-05-2010 10:14:01 18.7 C 9.45 g/m*3 18.7 C 0 km/h
293 23-05-2010 10:26:01 19.2 C 9.4 g/m*3 19.2 C 0 km/h
294 23-05-2010 10:38:01 20 C 9.16 g/m*3 20 C 0 km/h
295 23-05-2010 10:50:01 20.3 C 9.15 g/m*3 20.3 C 0 km/h
296 23-05-2010 11:02:01 20.5 C 8.9 g/m*3 20.5 C 0 km/h
297 23-05-2010 11:14:02 21.2 C 8.9 g/m*3 21.2 C 0 km/h
298 23-05-2010 11:26:01 20.4 C 8.49 g/m*3 20.4 C 0 km/h
299 23-05-2010 11:38:02 20.9 C 8.74 g/m*3 20.9 C 0 km/h
300 23-05-2010 11:50:02 21.5 C 8.11 g/m*3 21.5 C 0 km/h
Sensor: Nr:Datum:Temp:Abs-Feuchte:Windchill:Wind:
Aussen-T/F 301 23-05-2010 12:02:01 22.1 C 8 g/m*3 22.1 C 0 km/h
302 23-05-2010 12:14:01 23.1 C 7.65 g/m*3 23.1 C 0 km/h
303 23-05-2010 12:26:01 23.7 C 6.84 g/m*3 23.7 C 0 km/h
304 23-05-2010 12:38:02 24.6 C 6.75 g/m*3 24.6 C 0 km/h
305 23-05-2010 12:50:01 24.7 C 5.66 g/m*3 24.7 C 0 km/h
306 23-05-2010 13:02:01 25.1 C 4.86 g/m*3 25.1 C 0 km/h
307 23-05-2010 13:14:01 25.8 C 4.82 g/m*3 25.8 C 0 km/h
308 23-05-2010 13:26:01 27.2 C 5.2 g/m*3 27.2 C 0 km/h
309 23-05-2010 13:38:02 26.9 C 5.37 g/m*3 26.9 C 0 km/h
310 23-05-2010 13:50:01 26.8 C 5.09 g/m*3 26.8 C 0 km/h
311 23-05-2010 14:02:02 26.2 C 4.92 g/m*3 26.2 C 0 km/h
312 23-05-2010 14:14:02 25.5 C 5.45 g/m*3 25.5 C 0 km/h
313 23-05-2010 14:26:01 25.6 C 5.48 g/m*3 25.6 C 0 km/h
314 23-05-2010 14:38:01 25.8 C 6.02 g/m*3 25.8 C 0 km/h
315 23-05-2010 14:50:01 27.4 C 6.31 g/m*3 27.4 C 0 km/h
316 23-05-2010 15:02:02 27.7 C 5.88 g/m*3 27.7 C 0 km/h
317 23-05-2010 15:14:02 27.2 C 5.99 g/m*3 27.2 C 0 km/h
318 23-05-2010 15:26:01 27.9 C 5.68 g/m*3 27.9 C 0 km/h
319 23-05-2010 15:38:01 28.2 C 5.77 g/m*3 28.2 C 0 km/h
320 23-05-2010 15:50:01 28.4 C 5.56 g/m*3 28.4 C 0 km/h
321 23-05-2010 16:02:01 28.2 C 5.5 g/m*3 28.2 C 0 km/h
322 23-05-2010 16:14:01 28.6 C 5.62 g/m*3 28.6 C 0 km/h
323 23-05-2010 16:26:01 29 C 5.74 g/m*3 29 C 0 km/h
324 23-05-2010 16:38:01 28.9 C 5.71 g/m*3 28.9 C 0 km/h
325 23-05-2010 16:50:01 29 C 5.74 g/m*3 29 C 0 km/h
Sensor: Nr:Datum:Temp:Abs-Feuchte:Windchill:Wind:
Aussen-T/F 326 23-05-2010 17:02:01 30.2 C 6.13 g/m*3 30.2 C 0 km/h
327 23-05-2010 17:14:01 30.1 C 6.1 g/m*3 30.1 C 0 km/h
328 23-05-2010 17:26:01 29.5 C 5.9 g/m*3 29.5 C 0 km/h
329 23-05-2010 17:38:01 29.2 C 6.1 g/m*3 29.2 C 0 km/h
330 23-05-2010 17:50:01 29.2 C 6.1 g/m*3 29.2 C 0 km/h
331 23-05-2010 18:02:01 28.8 C 6.53 g/m*3 28.8 C 0 km/h
332 23-05-2010 18:14:01 29.5 C 6.49 g/m*3 29.5 C 0 km/h
333 23-05-2010 18:26:02 28.6 C 6.74 g/m*3 28.6 C 0 km/h
334 23-05-2010 18:38:01 28.4 C 6.39 g/m*3 28.4 C 0 km/h
335 23-05-2010 18:50:02 28.8 C 6.82 g/m*3 28.8 C 0 km/h
336 23-05-2010 19:02:01 29.8 C 6.6 g/m*3 29.8 C 0 km/h
337 23-05-2010 19:14:01 27.9 C 6.49 g/m*3 27.9 C 0 km/h
338 23-05-2010 19:26:02 28.1 C 6.84 g/m*3 28.1 C 0 km/h
339 23-05-2010 19:38:01 27.4 C 6.84 g/m*3 27.4 C 0 km/h
340 23-05-2010 19:50:02 27.4 C 7.1 g/m*3 27.4 C 0 km/h
341 23-05-2010 20:02:01 27.1 C 7.25 g/m*3 27.1 C 0 km/h
342 23-05-2010 20:14:01 26.4 C 7.47 g/m*3 26.4 C 0 km/h
343 23-05-2010 20:26:01 27.2 C 7.29 g/m*3 27.2 C 0 km/h
344 23-05-2010 20:38:01 26.3 C 7.43 g/m*3 26.3 C 0 km/h
345 23-05-2010 20:50:01 25.4 C 7.3 g/m*3 25.4 C 0 km/h
346 23-05-2010 21:02:01 24.5 C 7.83 g/m*3 24.5 C 0 km/h
347 23-05-2010 21:14:01 24.1 C 7.66 g/m*3 24.1 C 0 km/h
348 23-05-2010 21:26:01 23.4 C 7.57 g/m*3 23.4 C 0 km/h
349 23-05-2010 21:38:02 23.1 C 7.86 g/m*3 23.1 C 0 km/h
350 23-05-2010 21:50:01 22.6 C 8.04 g/m*3 22.6 C 0 km/h
Sensor: Nr:Datum:Temp:Abs-Feuchte:Windchill:Wind:
Aussen-T/F 351 23-05-2010 22:02:02 22.2 C 8.05 g/m*3 22.2 C 0 km/h
352 23-05-2010 22:14:02 21.7 C 8.39 g/m*3 21.7 C 0 km/h
353 23-05-2010 22:26:01 21.3 C 8.57 g/m*3 21.3 C 0 km/h
354 23-05-2010 22:38:02 20.9 C 8.56 g/m*3 20.9 C 0 km/h
355 23-05-2010 22:51:05 20.7 C 8.82 g/m*3 20.7 C 0 km/h
356 23-05-2010 23:03:05 20.4 C 8.85 g/m*3 20.4 C 0 km/h
357 23-05-2010 23:15:05 20 C 8.81 g/m*3 20 C 0 km/h
358 23-05-2010 23:27:05 19.6 C 8.95 g/m*3 19.6 C 0 km/h
359 23-05-2010 23:39:05 19.2 C 8.9 g/m*3 19.2 C 0 km/h
360 23-05-2010 23:51:05 18.8 C 9.18 g/m*3 18.8 C 0 km/h
361 24-05-2010 00:03:05 18.4 C 9.12 g/m*3 18.4 C 0 km/h
362 24-05-2010 00:15:05 18 C 9.06 g/m*3 18 C 0 km/h
363 24-05-2010 00:27:05 17.9 C 9.16 g/m*3 17.9 C 0 km/h
364 24-05-2010 00:39:05 17.6 C 9.3 g/m*3 17.6 C 0 km/h
365 24-05-2010 00:51:05 17.3 C 9.28 g/m*3 17.3 C 0 km/h
366 24-05-2010 01:03:05 17.2 C 9.23 g/m*3 17.2 C 0 km/h
367 24-05-2010 01:15:05 16.8 C 9.44 g/m*3 16.8 C 0 km/h
368 24-05-2010 01:27:05 16.6 C 9.46 g/m*3 16.6 C 0 km/h
369 24-05-2010 01:39:05 16.3 C 9.43 g/m*3 16.3 C 0 km/h
370 24-05-2010 01:51:05 16 C 9.4 g/m*3 16 C 0 km/h
371 24-05-2010 02:03:05 15.8 C 9.56 g/m*3 15.8 C 0 km/h
372 24-05-2010 02:15:05 15.6 C 9.44 g/m*3 15.6 C 0 km/h
373 24-05-2010 02:27:05 15.5 C 9.52 g/m*3 15.5 C 0 km/h
374 24-05-2010 02:39:05 15.3 C 9.4 g/m*3 15.3 C 0 km/h
375 24-05-2010 02:51:05 15.1 C 9.29 g/m*3 15.1 C 0 km/h
Sensor: Nr:Datum:Temp:Abs-Feuchte:Windchill:Wind:
Aussen-T/F 376 24-05-2010 03:03:06 14.9 C 9.43 g/m*3 14.9 C 0 km/h
377 24-05-2010 03:15:06 14.6 C 9.26 g/m*3 14.6 C 0 km/h
378 24-05-2010 03:27:06 14.4 C 9.27 g/m*3 14.4 C 0 km/h
379 24-05-2010 03:39:06 14.4 C 9.27 g/m*3 14.4 C 0 km/h
380 24-05-2010 03:51:06 14.2 C 9.28 g/m*3 14.2 C 0 km/h
381 24-05-2010 04:03:06 14 C 9.17 g/m*3 14 C 0 km/h
382 24-05-2010 04:15:06 13.8 C 9.29 g/m*3 13.8 C 0 km/h
383 24-05-2010 04:27:06 13.8 C 9.17 g/m*3 13.8 C 0 km/h
384 24-05-2010 04:39:06 13.8 C 9.17 g/m*3 13.8 C 0 km/h
385 24-05-2010 04:51:06 13.7 C 9.12 g/m*3 13.7 C 0 km/h
386 24-05-2010 05:03:06 13.5 C 9.01 g/m*3 13.5 C 0 km/h
387 24-05-2010 05:15:06 13.3 C 8.9 g/m*3 13.3 C 0 km/h
388 24-05-2010 05:27:06 13 C 8.73 g/m*3 13 C 0 km/h
389 24-05-2010 05:39:06 13 C 8.85 g/m*3 13 C 0 km/h
390 24-05-2010 05:51:06 12.8 C 8.85 g/m*3 12.8 C 0 km/h
391 24-05-2010 06:03:06 12.9 C 9.02 g/m*3 12.9 C 0 km/h
392 24-05-2010 06:15:06 12.7 C 8.79 g/m*3 12.7 C 0 km/h
393 24-05-2010 06:27:06 12.5 C 8.8 g/m*3 12.5 C 0 km/h
394 24-05-2010 06:39:06 12.6 C 8.96 g/m*3 12.6 C 0 km/h
395 24-05-2010 06:51:06 13 C 9.19 g/m*3 13 C 0 km/h
396 24-05-2010 07:03:06 13.2 C 9.19 g/m*3 13.2 C 0 km/h
397 24-05-2010 07:15:07 13.4 C 9.18 g/m*3 13.4 C 0 km/h
398 24-05-2010 07:27:07 13.7 C 9.35 g/m*3 13.7 C 0 km/h
399 24-05-2010 07:39:07 13.8 C 9.29 g/m*3 13.8 C 0 km/h
400 24-05-2010 07:51:07 13.9 C 9.23 g/m*3 13.9 C 0 km/h
Sensor: Nr:Datum:Temp:Abs-Feuchte:Windchill:Wind:
Aussen-T/F 401 24-05-2010 08:03:07 14.2 C 9.28 g/m*3 14.2 C 0 km/h
402 24-05-2010 08:15:07 14.5 C 9.45 g/m*3 14.5 C 0 km/h
403 24-05-2010 08:27:07 14.8 C 9.5 g/m*3 14.8 C 0 km/h
404 24-05-2010 08:39:05 15.2 C 9.61 g/m*3 15.2 C 0 km/h
405 24-05-2010 08:51:02 15.7 C 9.77 g/m*3 15.7 C 0 km/h
406 24-05-2010 09:03:02 16.3 C 9.71 g/m*3 16.3 C 0 km/h
407 24-05-2010 09:15:02 17 C 9.84 g/m*3 17 C 0 km/h
408 24-05-2010 09:27:02 17.5 C 9.84 g/m*3 17.5 C 0 km/h
409 24-05-2010 09:39:02 18.3 C 9.85 g/m*3 18.3 C 0 km/h
410 24-05-2010 09:51:02 19 C 9.61 g/m*3 19 C 0 km/h
411 24-05-2010 10:03:02 19.7 C 9.85 g/m*3 19.7 C 0 km/h
412 24-05-2010 10:15:02 20.4 C 9.55 g/m*3 20.4 C 0 km/h
413 24-05-2010 10:27:02 21.3 C 9.69 g/m*3 21.3 C 0 km/h
414 24-05-2010 10:39:02 21.7 C 9.16 g/m*3 21.7 C 0 km/h
415 24-05-2010 10:51:02 22.4 C 9.14 g/m*3 22.4 C 0 km/h
416 24-05-2010 11:03:02 22.9 C 9.2 g/m*3 22.9 C 0 km/h
417 24-05-2010 11:15:01 23.3 C 8.57 g/m*3 23.3 C 0 km/h
418 24-05-2010 11:27:01 23.8 C 8.82 g/m*3 23.8 C 0 km/h
419 24-05-2010 11:39:02 24.2 C 8.58 g/m*3 24.2 C 0 km/h
420 24-05-2010 11:51:02 24.9 C 8.7 g/m*3 24.9 C 0 km/h
421 24-05-2010 12:03:02 25.7 C 8.38 g/m*3 25.7 C 0 km/h
422 24-05-2010 12:15:02 25.4 C 7.3 g/m*3 25.4 C 0 km/h
423 24-05-2010 12:27:02 25.8 C 7.22 g/m*3 25.8 C 0 km/h
424 24-05-2010 12:39:02 26.6 C 6.29 g/m*3 26.6 C 0 km/h
425 24-05-2010 12:51:02 27.4 C 6.84 g/m*3 27.4 C 0 km/h
Sensor: Nr:Datum:Temp:Abs-Feuchte:Windchill:Wind:
Aussen-T/F 426 24-05-2010 13:03:02 26.9 C 6.4 g/m*3 26.9 C 0 km/h
427 24-05-2010 13:15:02 27 C 6.43 g/m*3 27 C 0 km/h
428 24-05-2010 13:27:02 27.1 C 6.73 g/m*3 27.1 C 0 km/h
429 24-05-2010 13:39:02 27 C 6.43 g/m*3 27 C 0 km/h
430 24-05-2010 13:51:02 26.5 C 6.51 g/m*3 26.5 C 0 km/h
431 24-05-2010 14:03:02 27 C 6.43 g/m*3 27 C 0 km/h
432 24-05-2010 14:15:02 27.2 C 6.51 g/m*3 27.2 C 0 km/h
433 24-05-2010 14:27:02 28.4 C 6.67 g/m*3 28.4 C 0 km/h
434 24-05-2010 14:39:02 28.8 C 5.97 g/m*3 28.8 C 0 km/h
435 24-05-2010 14:51:01 30 C 6.37 g/m*3 30 C 0 km/h
436 24-05-2010 15:03:02 29.1 C 6.06 g/m*3 29.1 C 0 km/h
437 24-05-2010 15:15:02 28.1 C 6.29 g/m*3 28.1 C 0 km/h
438 24-05-2010 15:27:02 27.6 C 6.65 g/m*3 27.6 C 0 km/h
439 24-05-2010 15:39:02 28.3 C 6.36 g/m*3 28.3 C 0 km/h
440 24-05-2010 15:51:02 27.8 C 6.72 g/m*3 27.8 C 0 km/h
441 24-05-2010 16:03:02 27.3 C 6.8 g/m*3 27.3 C 0 km/h
442 24-05-2010 16:15:02 27.3 C 6.54 g/m*3 27.3 C 0 km/h
443 24-05-2010 16:27:02 27.3 C 6.54 g/m*3 27.3 C 0 km/h
444 24-05-2010 16:39:01 27.7 C 6.42 g/m*3 27.7 C 0 km/h
445 24-05-2010 16:51:02 28.5 C 6.15 g/m*3 28.5 C 0 km/h
446 24-05-2010 17:03:01 28.5 C 6.15 g/m*3 28.5 C 0 km/h
447 24-05-2010 17:15:02 28.1 C 5.47 g/m*3 28.1 C 0 km/h
448 24-05-2010 17:27:02 27.9 C 5.41 g/m*3 27.9 C 0 km/h
449 24-05-2010 17:39:01 27.9 C 5.68 g/m*3 27.9 C 0 km/h
450 24-05-2010 17:51:03 28.6 C 5.62 g/m*3 28.6 C 0 km/h
Sensor: Nr:Datum:Temp:Abs-Feuchte:Windchill:Wind:
Aussen-T/F 451 24-05-2010 18:03:02 27.8 C 5.65 g/m*3 27.8 C 0 km/h
452 24-05-2010 18:15:02 28 C 5.44 g/m*3 28 C 0 km/h
453 24-05-2010 18:27:03 29.2 C 5.81 g/m*3 29.2 C 0 km/h
454 24-05-2010 18:39:02 28.8 C 5.68 g/m*3 28.8 C 0 km/h
455 24-05-2010 18:51:02 29.1 C 5.78 g/m*3 29.1 C 0 km/h
456 24-05-2010 19:03:02 29.2 C 5.81 g/m*3 29.2 C 0 km/h
457 24-05-2010 19:15:02 28.4 C 5.56 g/m*3 28.4 C 0 km/h
458 24-05-2010 19:27:02 28.4 C 5.84 g/m*3 28.4 C 0 km/h
459 24-05-2010 19:39:02 27.9 C 5.68 g/m*3 27.9 C 0 km/h
460 24-05-2010 19:51:02 27.9 C 5.95 g/m*3 27.9 C 0 km/h
461 24-05-2010 20:03:01 27.5 C 6.35 g/m*3 27.5 C 0 km/h
462 24-05-2010 20:15:02 27.4 C 6.58 g/m*3 27.4 C 0 km/h
463 24-05-2010 20:27:02 27.2 C 6.51 g/m*3 27.2 C 0 km/h
464 24-05-2010 20:39:01 25.8 C 6.5 g/m*3 25.8 C 0 km/h
465 24-05-2010 20:51:02 25.3 C 7.02 g/m*3 25.3 C 0 km/h
466 24-05-2010 21:03:01 24.7 C 7.02 g/m*3 24.7 C 0 km/h
467 24-05-2010 21:15:02 24.1 C 7 g/m*3 24.1 C 0 km/h
468 24-05-2010 21:27:02 23.7 C 7.49 g/m*3 23.7 C 0 km/h
469 24-05-2010 21:39:01 23.3 C 7.32 g/m*3 23.3 C 0 km/h
470 24-05-2010 21:51:02 23.1 C 7.23 g/m*3 23.1 C 0 km/h
471 24-05-2010 22:03:03 22.7 C 7.48 g/m*3 22.7 C 0 km/h
472 24-05-2010 22:15:02 22.3 C 7.7 g/m*3 22.3 C 0 km/h
473 24-05-2010 22:27:02 21.9 C 7.91 g/m*3 21.9 C 0 km/h
474 24-05-2010 22:39:02 21.5 C 8.11 g/m*3 21.5 C 0 km/h
475 24-05-2010 22:52:03 20.9 C 8.38 g/m*3 20.9 C 0 km/h
Sensor: Nr:Datum:Temp:Abs-Feuchte:Windchill:Wind:
Aussen-T/F 476 24-05-2010 23:04:03 20.5 C 8.36 g/m*3 20.5 C 0 km/h
477 24-05-2010 23:16:03 20.2 C 8.22 g/m*3 20.2 C 0 km/h
478 24-05-2010 23:28:03 19.7 C 8.32 g/m*3 19.7 C 0 km/h
479 24-05-2010 23:40:03 19.6 C 8.27 g/m*3 19.6 C 0 km/h
480 24-05-2010 23:52:03 19.3 C 8.29 g/m*3 19.3 C 0 km/h
481 25-05-2010 00:04:03 19.1 C 8.36 g/m*3 19.1 C 0 km/h
482 25-05-2010 00:16:04 18.7 C 8.49 g/m*3 18.7 C 0 km/h
483 25-05-2010 00:28:04 18.5 C 8.54 g/m*3 18.5 C 0 km/h
484 25-05-2010 00:40:04 18.2 C 8.55 g/m*3 18.2 C 0 km/h
485 25-05-2010 00:52:04 18 C 8.75 g/m*3 18 C 0 km/h
486 25-05-2010 01:04:04 17.8 C 8.8 g/m*3 17.8 C 0 km/h
487 25-05-2010 01:16:04 17.5 C 8.8 g/m*3 17.5 C 0 km/h
488 25-05-2010 01:28:04 17.2 C 8.79 g/m*3 17.2 C 0 km/h
489 25-05-2010 01:40:04 16.8 C 9.01 g/m*3 16.8 C 0 km/h
490 25-05-2010 01:52:04 16.6 C 8.9 g/m*3 16.6 C 0 km/h
491 25-05-2010 02:04:04 16.2 C 8.96 g/m*3 16.2 C 0 km/h
492 25-05-2010 02:16:04 16.1 C 8.91 g/m*3 16.1 C 0 km/h
493 25-05-2010 02:28:04 16 C 8.86 g/m*3 16 C 0 km/h
494 25-05-2010 02:40:04 15.9 C 8.94 g/m*3 15.9 C 0 km/h
495 25-05-2010 02:52:04 15.8 C 9.02 g/m*3 15.8 C 0 km/h
496 25-05-2010 03:04:04 15.5 C 8.99 g/m*3 15.5 C 0 km/h
497 25-05-2010 03:16:04 15.2 C 9.09 g/m*3 15.2 C 0 km/h
498 25-05-2010 03:28:04 14.8 C 9.12 g/m*3 14.8 C 0 km/h
499 25-05-2010 03:40:04 14.7 C 9.19 g/m*3 14.7 C 0 km/h
500 25-05-2010 03:52:04 14.6 C 9.13 g/m*3 14.6 C 0 km/h
Sensor: Nr:Datum:Temp:Abs-Feuchte:Windchill:Wind:
Aussen-T/F 501 25-05-2010 04:04:04 14.6 C 9.13 g/m*3 14.6 C 0 km/h
502 25-05-2010 04:16:04 14.5 C 9.2 g/m*3 14.5 C 0 km/h
503 25-05-2010 04:28:04 14.1 C 9.1 g/m*3 14.1 C 0 km/h
504 25-05-2010 04:40:05 13.8 C 9.17 g/m*3 13.8 C 0 km/h
505 25-05-2010 04:52:05 13.9 C 9.23 g/m*3 13.9 C 0 km/h
506 25-05-2010 05:04:05 14.1 C 9.22 g/m*3 14.1 C 0 km/h
507 25-05-2010 05:16:05 14 C 9.05 g/m*3 14 C 0 km/h
508 25-05-2010 05:28:05 13.8 C 9.06 g/m*3 13.8 C 0 km/h
509 25-05-2010 05:40:05 13.8 C 9.17 g/m*3 13.8 C 0 km/h
510 25-05-2010 05:52:05 13.8 C 9.06 g/m*3 13.8 C 0 km/h
511 25-05-2010 06:04:05 14 C 9.17 g/m*3 14 C 0 km/h
512 25-05-2010 06:16:05 14.1 C 9.1 g/m*3 14.1 C 0 km/h
513 25-05-2010 06:28:05 14.5 C 9.33 g/m*3 14.5 C 0 km/h
514 25-05-2010 06:40:05 15 C 9.23 g/m*3 15 C 0 km/h
515 25-05-2010 06:52:05 15.3 C 9.27 g/m*3 15.3 C 0 km/h
516 25-05-2010 07:04:05 15.4 C 9.2 g/m*3 15.4 C 0 km/h
517 25-05-2010 07:16:05 15.5 C 8.99 g/m*3 15.5 C 0 km/h
518 25-05-2010 07:28:06 15.6 C 9.18 g/m*3 15.6 C 0 km/h
519 25-05-2010 07:40:06 15.6 C 9.04 g/m*3 15.6 C 0 km/h
520 25-05-2010 07:52:06 15.9 C 9.21 g/m*3 15.9 C 0 km/h
521 25-05-2010 08:04:06 16.1 C 9.18 g/m*3 16.1 C 0 km/h
522 25-05-2010 08:16:06 16.2 C 9.1 g/m*3 16.2 C 0 km/h
523 25-05-2010 08:28:06 16.5 C 8.99 g/m*3 16.5 C 0 km/h
524 25-05-2010 08:40:03 17.2 C 9.23 g/m*3 17.2 C 0 km/h
525 25-05-2010 08:52:01 17.9 C 9.16 g/m*3 17.9 C 0 km/h
Sensor: Nr:Datum:Temp:Abs-Feuchte:Windchill:Wind:
Aussen-T/F 526 25-05-2010 09:04:02 18.1 C 8.81 g/m*3 18.1 C 0 km/h
527 25-05-2010 09:16:01 18.2 C 8.39 g/m*3 18.2 C 0 km/h
528 25-05-2010 09:28:01 18.5 C 8.23 g/m*3 18.5 C 0 km/h
529 25-05-2010 09:40:02 18.9 C 7.45 g/m*3 18.9 C 0 km/h
530 25-05-2010 09:52:02 19.4 C 7.17 g/m*3 19.4 C 0 km/h
531 25-05-2010 10:04:02 19.8 C 7 g/m*3 19.8 C 0 km/h
532 25-05-2010 10:16:01 20.2 C 6.99 g/m*3 20.2 C 0 km/h
533 25-05-2010 10:28:01 20.9 C 6.92 g/m*3 20.9 C 0 km/h
534 25-05-2010 10:40:02 21.2 C 6.67 g/m*3 21.2 C 0 km/h
535 25-05-2010 10:52:02 21 C 6.59 g/m*3 21 C 0 km/h
536 25-05-2010 11:04:02 21.2 C 6.49 g/m*3 21.2 C 0 km/h
537 25-05-2010 11:16:02 21.2 C 7.04 g/m*3 21.2 C 0 km/h
538 25-05-2010 11:28:02 21.2 C 6.3 g/m*3 21.2 C 0 km/h
539 25-05-2010 11:40:02 21.8 C 6.33 g/m*3 21.8 C 0 km/h
540 25-05-2010 11:52:02 22.8 C 6.1 g/m*3 22.8 C 0 km/h
541 25-05-2010 12:04:01 22.6 C 5.42 g/m*3 22.6 C 0 km/h
542 25-05-2010 12:16:01 23.7 C 5.78 g/m*3 23.7 C 0 km/h
543 25-05-2010 12:28:01 23.5 C 5.71 g/m*3 23.5 C 0 km/h
544 25-05-2010 12:40:02 24 C 5.44 g/m*3 24 C 0 km/h
545 25-05-2010 12:52:02 25.9 C 6.05 g/m*3 25.9 C 0 km/h
546 25-05-2010 13:04:01 25.5 C 5.21 g/m*3 25.5 C 0 km/h
547 25-05-2010 13:16:02 26.2 C 5.42 g/m*3 26.2 C 0 km/h
548 25-05-2010 13:28:02 27.3 C 5.23 g/m*3 27.3 C 0 km/h
549 25-05-2010 13:40:01 27.8 C 5.38 g/m*3 27.8 C 0 km/h
550 25-05-2010 13:52:02 26.8 C 5.35 g/m*3 26.8 C 0 km/h
Sensor: Nr:Datum:Temp:Abs-Feuchte:Windchill:Wind:
Aussen-T/F 551 25-05-2010 14:04:01 25.3 C 5.15 g/m*3 25.3 C 0 km/h
552 25-05-2010 14:16:02 26.1 C 5.63 g/m*3 26.1 C 0 km/h
553 25-05-2010 14:28:03 26.5 C 5.76 g/m*3 26.5 C 0 km/h
554 25-05-2010 14:40:01 26.7 C 5.82 g/m*3 26.7 C 0 km/h
555 25-05-2010 14:52:02 27 C 5.4 g/m*3 27 C 0 km/h
556 25-05-2010 15:04:02 27.4 C 6.05 g/m*3 27.4 C 0 km/h
557 25-05-2010 15:16:02 26.3 C 5.69 g/m*3 26.3 C 0 km/h
558 25-05-2010 15:28:02 26.6 C 5.79 g/m*3 26.6 C 0 km/h
559 25-05-2010 15:40:02 26.5 C 5.51 g/m*3 26.5 C 0 km/h
560 25-05-2010 15:52:02 27.7 C 5.62 g/m*3 27.7 C 0 km/h
561 25-05-2010 16:04:02 28.1 C 5.47 g/m*3 28.1 C 0 km/h
562 25-05-2010 16:16:01 27.6 C 5.85 g/m*3 27.6 C 0 km/h
563 25-05-2010 16:28:01 27.9 C 5.95 g/m*3 27.9 C 0 km/h
564 25-05-2010 16:40:02 27.9 C 6.22 g/m*3 27.9 C 0 km/h
565 25-05-2010 16:52:02 28.1 C 5.74 g/m*3 28.1 C 0 km/h
566 25-05-2010 17:04:02 28.7 C 6.22 g/m*3 28.7 C 0 km/h
567 25-05-2010 17:16:02 27.5 C 5.82 g/m*3 27.5 C 0 km/h
568 25-05-2010 17:28:02 28.6 C 5.9 g/m*3 28.6 C 0 km/h
569 25-05-2010 17:40:02 28.1 C 6.02 g/m*3 28.1 C 0 km/h
570 25-05-2010 17:52:02 27.4 C 6.05 g/m*3 27.4 C 0 km/h
571 25-05-2010 18:04:02 27.2 C 5.99 g/m*3 27.2 C 0 km/h
572 25-05-2010 18:16:02 26 C 5.36 g/m*3 26 C 0 km/h
573 25-05-2010 18:28:02 27 C 5.66 g/m*3 27 C 0 km/h
574 25-05-2010 18:40:02 25.8 C 5.78 g/m*3 25.8 C 0 km/h
575 25-05-2010 18:52:02 25.6 C 5.71 g/m*3 25.6 C 0 km/h
Sensor: Nr:Datum:Temp:Abs-Feuchte:Windchill:Wind:
Aussen-T/F 576 25-05-2010 19:04:02 25.2 C 5.82 g/m*3 25.2 C 0 km/h
577 25-05-2010 19:16:02 25.2 C 5.82 g/m*3 25.2 C 0 km/h
578 25-05-2010 19:28:02 24 C 5.87 g/m*3 24 C 0 km/h
579 25-05-2010 19:40:02 24.2 C 5.94 g/m*3 24.2 C 0 km/h
580 25-05-2010 19:52:02 23.7 C 6.2 g/m*3 23.7 C 0 km/h
581 25-05-2010 20:04:02 23.5 C 6.13 g/m*3 23.5 C 0 km/h
582 25-05-2010 20:16:03 23.2 C 6.24 g/m*3 23.2 C 0 km/h
583 25-05-2010 20:28:03 22.8 C 6.3 g/m*3 22.8 C 0 km/h
584 25-05-2010 20:40:02 22.5 C 6.19 g/m*3 22.5 C 0 km/h
585 25-05-2010 20:52:02 22.2 C 6.28 g/m*3 22.2 C 0 km/h
586 25-05-2010 21:04:02 22 C 6.4 g/m*3 22 C 0 km/h
587 25-05-2010 21:16:02 21.7 C 6.87 g/m*3 21.7 C 0 km/h
588 25-05-2010 21:28:02 21.2 C 7.04 g/m*3 21.2 C 0 km/h
589 25-05-2010 21:40:02 20.7 C 7.2 g/m*3 20.7 C 0 km/h
590 25-05-2010 21:52:02 20.3 C 6.86 g/m*3 20.3 C 0 km/h
591 25-05-2010 22:04:02 19.7 C 6.79 g/m*3 19.7 C 0 km/h
592 25-05-2010 22:16:02 19.5 C 6.88 g/m*3 19.5 C 0 km/h
593 25-05-2010 22:28:02 19.3 C 6.97 g/m*3 19.3 C 0 km/h
594 25-05-2010 22:41:48 19.4 C 7.01 g/m*3 19.4 C 0 km/h
595 25-05-2010 22:53:48 19.3 C 6.8 g/m*3 19.3 C 0 km/h
596 25-05-2010 23:05:48 19.1 C 6.56 g/m*3 19.1 C 0 km/h
597 25-05-2010 23:17:48 18.8 C 6.76 g/m*3 18.8 C 0 km/h
598 25-05-2010 23:29:48 18.8 C 7.09 g/m*3 18.8 C 0 km/h
599 25-05-2010 23:41:48 18.7 C 6.88 g/m*3 18.7 C 0 km/h
600 25-05-2010 23:53:48 18.8 C 6.93 g/m*3 18.8 C 0 km/h
Sensor: Nr:Datum:Temp:Abs-Feuchte:Windchill:Wind:
Aussen-T/F 601 26-05-2010 00:05:48 18.9 C 6.8 g/m*3 18.9 C 0 km/h
602 26-05-2010 00:17:48 18.7 C 6.72 g/m*3 18.7 C 0 km/h
603 26-05-2010 00:29:48 18.5 C 6.8 g/m*3 18.5 C 0 km/h
604 26-05-2010 00:41:48 18.3 C 6.25 g/m*3 18.3 C 0 km/h
605 26-05-2010 00:53:48 18.2 C 6.22 g/m*3 18.2 C 0 km/h
606 26-05-2010 01:05:48 18.1 C 6.03 g/m*3 18.1 C 0 km/h
607 26-05-2010 01:17:49 18.1 C 6.03 g/m*3 18.1 C 0 km/h
608 26-05-2010 01:29:49 17.9 C 6.41 g/m*3 17.9 C 0 km/h
609 26-05-2010 01:41:49 15.8 C 7.81 g/m*3 15.8 C 0 km/h
610 26-05-2010 01:53:49 14.4 C 7.91 g/m*3 14.4 C 0 km/h
611 26-05-2010 02:05:49 14.2 C 8.3 g/m*3 14.2 C 0 km/h
612 26-05-2010 02:17:49 14.6 C 8.38 g/m*3 14.6 C 0 km/h
613 26-05-2010 02:29:49 14.6 C 8.38 g/m*3 14.6 C 0 km/h
614 26-05-2010 02:41:49 14.3 C 8.72 g/m*3 14.3 C 0 km/h
615 26-05-2010 02:53:49 14.4 C 9.02 g/m*3 14.4 C 0 km/h
616 26-05-2010 03:05:49 14.4 C 8.9 g/m*3 14.4 C 0 km/h
617 26-05-2010 03:17:50 14.5 C 8.58 g/m*3 14.5 C 0 km/h
618 26-05-2010 03:29:50 14.8 C 8.49 g/m*3 14.8 C 0 km/h
619 26-05-2010 03:41:50 14.7 C 8.18 g/m*3 14.7 C 0 km/h
620 26-05-2010 03:53:50 14.6 C 8.01 g/m*3 14.6 C 0 km/h
621 26-05-2010 04:05:50 14.8 C 7.85 g/m*3 14.8 C 0 km/h
622 26-05-2010 04:17:50 14.7 C 7.81 g/m*3 14.7 C 0 km/h
623 26-05-2010 04:29:50 14.7 C 7.68 g/m*3 14.7 C 0 km/h
624 26-05-2010 04:41:50 14.7 C 7.55 g/m*3 14.7 C 0 km/h
625 26-05-2010 04:53:50 14.7 C 7.55 g/m*3 14.7 C 0 km/h
Sensor: Nr:Datum:Temp:Abs-Feuchte:Windchill:Wind:
Aussen-T/F 626 26-05-2010 05:05:50 14.7 C 7.3 g/m*3 14.7 C 0 km/h
627 26-05-2010 05:17:50 14.7 C 7.43 g/m*3 14.7 C 0 km/h
628 26-05-2010 05:29:50 14.7 C 7.3 g/m*3 14.7 C 0 km/h
629 26-05-2010 05:41:50 14.7 C 7.43 g/m*3 14.7 C 0 km/h
630 26-05-2010 05:53:50 14.5 C 7.34 g/m*3 14.5 C 0 km/h
631 26-05-2010 06:05:50 14.7 C 7.55 g/m*3 14.7 C 0 km/h
632 26-05-2010 06:17:51 14.7 C 7.68 g/m*3 14.7 C 0 km/h
633 26-05-2010 06:29:51 14.5 C 7.84 g/m*3 14.5 C 0 km/h
634 26-05-2010 06:41:51 14.7 C 8.06 g/m*3 14.7 C 0 km/h
635 26-05-2010 06:53:51 14.8 C 7.85 g/m*3 14.8 C 0 km/h
636 26-05-2010 07:05:03 15 C 7.18 g/m*3 15 C 0 km/h
637 26-05-2010 07:17:02 15.4 C 6.83 g/m*3 15.4 C 0 km/h
638 26-05-2010 07:29:02 15.8 C 6.46 g/m*3 15.8 C 0 km/h
639 26-05-2010 07:41:03 16 C 6.27 g/m*3 16 C 0 km/h
640 26-05-2010 07:53:02 16.2 C 6.48 g/m*3 16.2 C 0 km/h
641 26-05-2010 08:05:02 16 C 6.4 g/m*3 16 C 0 km/h
642 26-05-2010 08:17:02 15.9 C 6.37 g/m*3 15.9 C 0 km/h
643 26-05-2010 08:29:02 15.8 C 6.33 g/m*3 15.8 C 0 km/h
644 26-05-2010 08:41:02 15.9 C 6.64 g/m*3 15.9 C 0 km/h
645 26-05-2010 08:53:02 16.2 C 6.48 g/m*3 16.2 C 0 km/h
646 26-05-2010 09:05:02 16.9 C 6.47 g/m*3 16.9 C 0 km/h
647 26-05-2010 09:17:02 17.1 C 6.11 g/m*3 17.1 C 0 km/h
648 26-05-2010 09:29:02 17 C 6.22 g/m*3 17 C 0 km/h
649 26-05-2010 09:41:01 16.4 C 6.7 g/m*3 16.4 C 0 km/h
650 26-05-2010 09:53:02 16 C 6.81 g/m*3 16 C 0 km/h
Sensor: Nr:Datum:Temp:Abs-Feuchte:Windchill:Wind:
Aussen-T/F 651 26-05-2010 10:05:01 16.4 C 6.56 g/m*3 16.4 C 0 km/h
652 26-05-2010 10:17:02 15.8 C 7.4 g/m*3 15.8 C 0 km/h
653 26-05-2010 10:29:02 15.1 C 8 g/m*3 15.1 C 0 km/h
654 26-05-2010 10:41:02 14.1 C 8.86 g/m*3 14.1 C 0 km/h
655 26-05-2010 10:53:02 14.2 C 9.4 g/m*3 14.2 C 0 km/h
656 26-05-2010 11:05:02 13.4 C 9.18 g/m*3 13.4 C 0 km/h
657 26-05-2010 11:17:02 12.9 C 9.35 g/m*3 12.9 C 0 km/h
658 26-05-2010 11:29:02 13.2 C 9.64 g/m*3 13.2 C 0 km/h
659 26-05-2010 11:41:02 13.3 C 9.82 g/m*3 13.3 C 0 km/h
660 26-05-2010 11:53:01 13.4 C 10 g/m*3 13.4 C 0 km/h
661 26-05-2010 12:05:02 13.2 C 9.87 g/m*3 13.2 C 0 km/h
662 26-05-2010 12:17:01 13.3 C 9.94 g/m*3 13.3 C 0 km/h
663 26-05-2010 12:29:01 13.2 C 9.87 g/m*3 13.2 C 0 km/h
664 26-05-2010 12:41:01 12.8 C 9.74 g/m*3 12.8 C 0 km/h
665 26-05-2010 12:53:01 13 C 9.87 g/m*3 13 C 0 km/h
666 26-05-2010 13:05:02 12.8 C 9.74 g/m*3 12.8 C 0 km/h
667 26-05-2010 13:17:02 13.2 C 10.1 g/m*3 13.2 C 0 km/h
668 26-05-2010 13:29:02 12.8 C 9.74 g/m*3 12.8 C 0 km/h
669 26-05-2010 13:41:01 12.6 C 9.51 g/m*3 12.6 C 0 km/h
670 26-05-2010 13:53:01 13 C 9.75 g/m*3 13 C 0 km/h
671 26-05-2010 14:05:01 13.9 C 9.83 g/m*3 13.9 C 0 km/h
672 26-05-2010 14:17:02 15.2 C 10.12 g/m*3 15.2 C 0 km/h
673 26-05-2010 14:29:02 15.8 C 9.83 g/m*3 15.8 C 0 km/h
674 26-05-2010 14:41:01 15.6 C 9.44 g/m*3 15.6 C 0 km/h
675 26-05-2010 14:53:03 15.5 C 9.39 g/m*3 15.5 C 0 km/h
Sensor: Nr:Datum:Temp:Abs-Feuchte:Windchill:Wind:
Aussen-T/F 676 26-05-2010 15:05:02 15.4 C 9.33 g/m*3 15.4 C 0 km/h
677 26-05-2010 15:17:02 14.5 C 9.45 g/m*3 14.5 C 0 km/h
678 26-05-2010 15:29:02 14.1 C 9.59 g/m*3 14.1 C 0 km/h
679 26-05-2010 15:41:02 14.4 C 10.01 g/m*3 14.4 C 0 km/h
680 26-05-2010 15:53:02 15.4 C 10.77 g/m*3 15.4 C 0 km/h
681 26-05-2010 16:05:01 17.8 C 11.23 g/m*3 17.8 C 0 km/h
682 26-05-2010 16:17:02 19.4 C 11.18 g/m*3 19.4 C 0 km/h
683 26-05-2010 16:29:02 20.3 C 10.73 g/m*3 20.3 C 0 km/h
684 26-05-2010 16:41:02 18.8 C 9.99 g/m*3 18.8 C 0 km/h
685 26-05-2010 16:53:02 18.5 C 9.97 g/m*3 18.5 C 0 km/h
686 26-05-2010 17:05:03 16.8 C 10.58 g/m*3 16.8 C 0 km/h
687 26-05-2010 17:17:02 16.2 C 10.76 g/m*3 16.2 C 0 km/h
688 26-05-2010 17:29:02 15.6 C 11.17 g/m*3 15.6 C 0 km/h
689 26-05-2010 17:41:02 16.2 C 11.86 g/m*3 16.2 C 0 km/h
690 26-05-2010 17:53:02 17.1 C 12.52 g/m*3 17.1 C 0 km/h
691 26-05-2010 18:05:02 16.1 C 11.51 g/m*3 16.1 C 0 km/h
692 26-05-2010 18:17:02 15.5 C 11.5 g/m*3 15.5 C 0 km/h
693 26-05-2010 18:29:02 17 C 12.73 g/m*3 17 C 0 km/h
694 26-05-2010 18:41:01 18.7 C 13.93 g/m*3 18.7 C 0 km/h
695 26-05-2010 18:53:02 18.8 C 13.69 g/m*3 18.8 C 0 km/h
696 26-05-2010 19:05:01 19.1 C 13.28 g/m*3 19.1 C 0 km/h
697 26-05-2010 19:17:01 19.2 C 13.19 g/m*3 19.2 C 0 km/h
698 26-05-2010 19:29:01 19.2 C 13.03 g/m*3 19.2 C 0 km/h
699 26-05-2010 19:41:02 19.3 C 12.77 g/m*3 19.3 C 0 km/h
700 26-05-2010 19:53:02 18.1 C 11.9 g/m*3 18.1 C 0 km/h
Sensor: Nr:Datum:Temp:Abs-Feuchte:Windchill:Wind:
Aussen-T/F 701 26-05-2010 20:05:02 17.2 C 11.72 g/m*3 17.2 C 0 km/h
702 26-05-2010 20:17:02 17.2 C 11.86 g/m*3 17.2 C 0 km/h
703 26-05-2010 20:29:02 17 C 11.87 g/m*3 17 C 0 km/h
704 26-05-2010 20:41:02 16.7 C 11.8 g/m*3 16.7 C 0 km/h
705 26-05-2010 20:53:02 16.2 C 11.58 g/m*3 16.2 C 0 km/h
706 26-05-2010 21:05:03 16.1 C 11.65 g/m*3 16.1 C 0 km/h
707 26-05-2010 21:17:02 16 C 11.72 g/m*3 16 C 0 km/h
708 26-05-2010 21:29:02 15.7 C 10.97 g/m*3 15.7 C 0 km/h
709 26-05-2010 21:41:03 14.6 C 9.89 g/m*3 14.6 C 0 km/h
710 26-05-2010 21:53:02 13.6 C 9.18 g/m*3 13.6 C 0 km/h
711 26-05-2010 22:05:02 13.1 C 8.9 g/m*3 13.1 C 0 km/h
712 26-05-2010 22:18:04 13.1 C 9.01 g/m*3 13.1 C 0 km/h
713 26-05-2010 22:30:04 12.9 C 9.02 g/m*3 12.9 C 0 km/h
714 26-05-2010 22:42:04 12.6 C 8.63 g/m*3 12.6 C 0 km/h
715 26-05-2010 22:54:04 12.6 C 8.63 g/m*3 12.6 C 0 km/h
716 26-05-2010 23:06:04 12.7 C 8.91 g/m*3 12.7 C 0 km/h
717 26-05-2010 23:18:04 12.5 C 8.47 g/m*3 12.5 C 0 km/h
718 26-05-2010 23:30:04 12.4 C 8.3 g/m*3 12.4 C 0 km/h
719 26-05-2010 23:42:05 12.5 C 8.47 g/m*3 12.5 C 0 km/h
720 26-05-2010 23:54:05 12.5 C 8.36 g/m*3 12.5 C 0 km/h
721 27-05-2010 00:06:05 12.5 C 8.47 g/m*3 12.5 C 0 km/h
722 27-05-2010 00:18:05 12.4 C 8.41 g/m*3 12.4 C 0 km/h
723 27-05-2010 00:30:05 12.4 C 8.41 g/m*3 12.4 C 0 km/h
724 27-05-2010 00:42:05 12.3 C 8.36 g/m*3 12.3 C 0 km/h
725 27-05-2010 00:54:05 12.2 C 8.31 g/m*3 12.2 C 0 km/h
Sensor: Nr:Datum:Temp:Abs-Feuchte:Windchill:Wind:
Aussen-T/F 726 27-05-2010 01:06:05 12.3 C 8.25 g/m*3 12.3 C 0 km/h
727 27-05-2010 01:18:05 12.2 C 8.2 g/m*3 12.2 C 0 km/h
728 27-05-2010 01:30:05 11.7 C 7.95 g/m*3 11.7 C 0 km/h
729 27-05-2010 01:42:05 11.8 C 8.21 g/m*3 11.8 C 0 km/h
730 27-05-2010 01:54:05 11.5 C 8.16 g/m*3 11.5 C 0 km/h
731 27-05-2010 02:06:05 11.4 C 8.21 g/m*3 11.4 C 0 km/h
732 27-05-2010 02:18:05 11.3 C 8.16 g/m*3 11.3 C 0 km/h
733 27-05-2010 02:30:05 11.2 C 8.01 g/m*3 11.2 C 0 km/h
734 27-05-2010 02:42:05 11.2 C 8.11 g/m*3 11.2 C 0 km/h
735 27-05-2010 02:54:05 11.1 C 8.06 g/m*3 11.1 C 0 km/h
736 27-05-2010 03:06:05 11.1 C 8.06 g/m*3 11.1 C 0 km/h
737 27-05-2010 03:18:05 11.3 C 8.06 g/m*3 11.3 C 0 km/h
738 27-05-2010 03:30:05 11.2 C 8.01 g/m*3 11.2 C 0 km/h
739 27-05-2010 03:42:05 11.2 C 7.91 g/m*3 11.2 C 0 km/h
740 27-05-2010 03:54:05 11 C 7.81 g/m*3 11 C 0 km/h
741 27-05-2010 04:06:06 11 C 7.91 g/m*3 11 C 0 km/h
742 27-05-2010 04:18:06 11 C 7.91 g/m*3 11 C 0 km/h
743 27-05-2010 04:30:06 10.9 C 7.86 g/m*3 10.9 C 0 km/h
744 27-05-2010 04:42:06 10.8 C 7.81 g/m*3 10.8 C 0 km/h
745 27-05-2010 04:54:06 10.7 C 7.76 g/m*3 10.7 C 0 km/h
746 27-05-2010 05:06:06 10.7 C 7.76 g/m*3 10.7 C 0 km/h
747 27-05-2010 05:18:06 10.7 C 7.76 g/m*3 10.7 C 0 km/h
748 27-05-2010 05:30:06 10.7 C 7.76 g/m*3 10.7 C 0 km/h
749 27-05-2010 05:42:06 10.8 C 7.81 g/m*3 10.8 C 0 km/h
750 27-05-2010 05:54:06 10.8 C 7.81 g/m*3 10.8 C 0 km/h
Sensor: Nr:Datum:Temp:Abs-Feuchte:Windchill:Wind:
Aussen-T/F 751 27-05-2010 06:06:06 10.8 C 7.81 g/m*3 10.8 C 0 km/h
752 27-05-2010 06:18:06 10.9 C 7.86 g/m*3 10.9 C 0 km/h
753 27-05-2010 06:30:06 11.1 C 7.86 g/m*3 11.1 C 0 km/h
754 27-05-2010 06:42:03 11.1 C 7.86 g/m*3 11.1 C 0 km/h
755 27-05-2010 06:54:02 11.1 C 7.86 g/m*3 11.1 C 0 km/h
756 27-05-2010 07:06:02 11.1 C 7.96 g/m*3 11.1 C 0 km/h
757 27-05-2010 07:18:03 11.2 C 7.91 g/m*3 11.2 C 0 km/h
758 27-05-2010 07:30:03 11.4 C 7.9 g/m*3 11.4 C 0 km/h
759 27-05-2010 07:42:02 11.5 C 8.06 g/m*3 11.5 C 0 km/h
760 27-05-2010 07:54:03 11.3 C 7.96 g/m*3 11.3 C 0 km/h
761 27-05-2010 08:06:02 11.4 C 8.11 g/m*3 11.4 C 0 km/h
762 27-05-2010 08:18:02 11.7 C 8.16 g/m*3 11.7 C 0 km/h
763 27-05-2010 08:30:03 11.7 C 8.16 g/m*3 11.7 C 0 km/h
764 27-05-2010 08:42:02 12 C 8.1 g/m*3 12 C 0 km/h
765 27-05-2010 08:54:02 11.8 C 7.79 g/m*3 11.8 C 0 km/h
766 27-05-2010 09:06:01 12 C 7.89 g/m*3 12 C 0 km/h
767 27-05-2010 09:18:02 11.9 C 7.73 g/m*3 11.9 C 0 km/h
768 27-05-2010 09:30:02 11.8 C 7.79 g/m*3 11.8 C 0 km/h
769 27-05-2010 09:42:01 12.2 C 7.88 g/m*3 12.2 C 0 km/h
770 27-05-2010 09:54:02 12.2 C 7.66 g/m*3 12.2 C 0 km/h
771 27-05-2010 10:06:02 12.4 C 7.65 g/m*3 12.4 C 0 km/h
772 27-05-2010 10:18:02 13 C 7.71 g/m*3 13 C 0 km/h
773 27-05-2010 10:30:02 13.2 C 7.58 g/m*3 13.2 C 0 km/h
774 27-05-2010 10:42:03 13.4 C 7.56 g/m*3 13.4 C 0 km/h
775 27-05-2010 10:54:02 13.2 C 7.23 g/m*3 13.2 C 0 km/h
Sensor: Nr:Datum:Temp:Abs-Feuchte:Windchill:Wind:
Aussen-T/F 776 27-05-2010 11:06:02 14.1 C 7.16 g/m*3 14.1 C 0 km/h
777 27-05-2010 11:18:01 14.6 C 7.13 g/m*3 14.6 C 0 km/h
778 27-05-2010 11:30:01 14.4 C 7.17 g/m*3 14.4 C 0 km/h
779 27-05-2010 11:42:02 15 C 6.8 g/m*3 15 C 0 km/h
780 27-05-2010 11:54:02 15.9 C 7.31 g/m*3 15.9 C 0 km/h
781 27-05-2010 12:06:02 16.1 C 6.72 g/m*3 16.1 C 0 km/h
782 27-05-2010 12:18:01 16.4 C 6.7 g/m*3 16.4 C 0 km/h
783 27-05-2010 12:30:01 16.7 C 6.82 g/m*3 16.7 C 0 km/h
784 27-05-2010 12:42:02 16 C 6.68 g/m*3 16 C 0 km/h
785 27-05-2010 12:54:02 15.5 C 6.74 g/m*3 15.5 C 0 km/h
786 27-05-2010 13:06:02 16 C 6.68 g/m*3 16 C 0 km/h
787 27-05-2010 13:18:02 16.5 C 6.74 g/m*3 16.5 C 0 km/h
788 27-05-2010 13:30:02 17.6 C 6.45 g/m*3 17.6 C 0 km/h
789 27-05-2010 13:42:02 18 C 6.45 g/m*3 18 C 0 km/h
790 27-05-2010 13:54:02 19.1 C 6.39 g/m*3 19.1 C 0 km/h
791 27-05-2010 14:06:03 19.6 C 6.58 g/m*3 19.6 C 0 km/h
792 27-05-2010 14:18:02 18.7 C 6.08 g/m*3 18.7 C 0 km/h
793 27-05-2010 14:30:02 20.6 C 7.16 g/m*3 20.6 C 0 km/h
794 27-05-2010 14:42:02 21.7 C 6.68 g/m*3 21.7 C 0 km/h
795 27-05-2010 14:54:02 22.5 C 6.59 g/m*3 22.5 C 0 km/h
796 27-05-2010 15:06:01 22.5 C 6.79 g/m*3 22.5 C 0 km/h
797 27-05-2010 15:18:02 21.5 C 6.22 g/m*3 21.5 C 0 km/h
798 27-05-2010 15:30:02 21.9 C 6.18 g/m*3 21.9 C 0 km/h
799 27-05-2010 15:42:02 22.3 C 6.12 g/m*3 22.3 C 0 km/h
800 27-05-2010 15:54:03 23.3 C 6.69 g/m*3 23.3 C 0 km/h
Sensor: Nr:Datum:Temp:Abs-Feuchte:Windchill:Wind:
Aussen-T/F 801 27-05-2010 16:06:02 23.7 C 5.99 g/m*3 23.7 C 0 km/h
802 27-05-2010 16:18:02 23.5 C 6.34 g/m*3 23.5 C 0 km/h
803 27-05-2010 16:30:02 23.3 C 6.48 g/m*3 23.3 C 0 km/h
804 27-05-2010 16:42:02 22.9 C 6.74 g/m*3 22.9 C 0 km/h
805 27-05-2010 16:54:02 23.4 C 6.73 g/m*3 23.4 C 0 km/h
806 27-05-2010 17:06:02 23.6 C 6.59 g/m*3 23.6 C 0 km/h
807 27-05-2010 17:18:02 23.3 C 6.48 g/m*3 23.3 C 0 km/h
808 27-05-2010 17:30:02 23.5 C 6.56 g/m*3 23.5 C 0 km/h
809 27-05-2010 17:42:02 23.4 C 6.73 g/m*3 23.4 C 0 km/h
810 27-05-2010 17:54:01 23.4 C 6.94 g/m*3 23.4 C 0 km/h
811 27-05-2010 18:06:02 24.1 C 6.78 g/m*3 24.1 C 0 km/h
812 27-05-2010 18:18:02 23.3 C 6.69 g/m*3 23.3 C 0 km/h
813 27-05-2010 18:30:02 22.3 C 7.5 g/m*3 22.3 C 0 km/h
814 27-05-2010 18:42:02 22.4 C 7.35 g/m*3 22.4 C 0 km/h
815 27-05-2010 18:54:01 23.3 C 7.32 g/m*3 23.3 C 0 km/h
816 27-05-2010 19:06:02 22.7 C 7.88 g/m*3 22.7 C 0 km/h
817 27-05-2010 19:18:02 21.6 C 7.78 g/m*3 21.6 C 0 km/h
818 27-05-2010 19:30:02 20.6 C 8.59 g/m*3 20.6 C 0 km/h
819 27-05-2010 19:42:01 19.9 C 8.76 g/m*3 19.9 C 0 km/h
820 27-05-2010 19:54:02 19.4 C 8.51 g/m*3 19.4 C 0 km/h
821 27-05-2010 20:06:01 19.1 C 8.36 g/m*3 19.1 C 0 km/h
822 27-05-2010 20:18:02 18.7 C 8.49 g/m*3 18.7 C 0 km/h
823 27-05-2010 20:30:02 18.3 C 8.44 g/m*3 18.3 C 0 km/h
824 27-05-2010 20:42:01 17.5 C 9.39 g/m*3 17.5 C 0 km/h
825 27-05-2010 20:54:01 16.6 C 9.61 g/m*3 16.6 C 0 km/h
Sensor: Nr:Datum:Temp:Abs-Feuchte:Windchill:Wind:
Aussen-T/F 826 27-05-2010 21:06:02 15.8 C 9.56 g/m*3 15.8 C 0 km/h
827 27-05-2010 21:18:01 15.6 C 9.58 g/m*3 15.6 C 0 km/h
828 27-05-2010 21:30:01 15.8 C 9.69 g/m*3 15.8 C 0 km/h
829 27-05-2010 21:42:01 15.9 C 9.62 g/m*3 15.9 C 0 km/h
830 27-05-2010 21:54:01 15.8 C 9.29 g/m*3 15.8 C 0 km/h
831 27-05-2010 22:06:01 16 C 9.4 g/m*3 16 C 0 km/h
832 27-05-2010 22:18:01 16.1 C 9.18 g/m*3 16.1 C 0 km/h
833 27-05-2010 22:30:01 16.2 C 9.24 g/m*3 16.2 C 0 km/h
834 27-05-2010 22:42:02 16 C 9.13 g/m*3 16 C 0 km/h
835 27-05-2010 22:55:03 16 C 9.4 g/m*3 16 C 0 km/h
836 27-05-2010 23:07:03 15.6 C 9.71 g/m*3 15.6 C 0 km/h
837 27-05-2010 23:19:03 15.6 C 9.71 g/m*3 15.6 C 0 km/h
838 27-05-2010 23:31:03 15.7 C 9.77 g/m*3 15.7 C 0 km/h
839 27-05-2010 23:43:03 15.6 C 9.71 g/m*3 15.6 C 0 km/h
840 27-05-2010 23:55:03 15.3 C 9.66 g/m*3 15.3 C 0 km/h
841 28-05-2010 00:07:03 14.9 C 9.69 g/m*3 14.9 C 0 km/h
842 28-05-2010 00:19:03 14.9 C 9.81 g/m*3 14.9 C 0 km/h
843 28-05-2010 00:31:03 15 C 9.75 g/m*3 15 C 0 km/h
844 28-05-2010 00:43:03 15 C 9.49 g/m*3 15 C 0 km/h
845 28-05-2010 00:55:03 15.2 C 9.48 g/m*3 15.2 C 0 km/h
846 28-05-2010 01:07:03 15.2 C 9.35 g/m*3 15.2 C 0 km/h
847 28-05-2010 01:19:03 15.2 C 9.22 g/m*3 15.2 C 0 km/h
848 28-05-2010 01:31:03 15.2 C 9.09 g/m*3 15.2 C 0 km/h
849 28-05-2010 01:43:03 15.1 C 9.03 g/m*3 15.1 C 0 km/h
850 28-05-2010 01:55:03 15 C 9.1 g/m*3 15 C 0 km/h
Sensor: Nr:Datum:Temp:Abs-Feuchte:Windchill:Wind:
Aussen-T/F 851 28-05-2010 02:07:04 14.8 C 9.12 g/m*3 14.8 C 0 km/h
852 28-05-2010 02:19:04 14.9 C 9.3 g/m*3 14.9 C 0 km/h
853 28-05-2010 02:31:04 14.8 C 9.25 g/m*3 14.8 C 0 km/h
854 28-05-2010 02:43:04 14.9 C 9.3 g/m*3 14.9 C 0 km/h
855 28-05-2010 02:55:04 14.9 C 9.18 g/m*3 14.9 C 0 km/h
856 28-05-2010 03:07:04 14.9 C 9.18 g/m*3 14.9 C 0 km/h
857 28-05-2010 03:19:04 15 C 9.1 g/m*3 15 C 0 km/h
858 28-05-2010 03:31:04 14.7 C 9.19 g/m*3 14.7 C 0 km/h
859 28-05-2010 03:43:04 14.7 C 9.19 g/m*3 14.7 C 0 km/h
860 28-05-2010 03:55:04 14.6 C 9.13 g/m*3 14.6 C 0 km/h
861 28-05-2010 04:07:04 14.6 C 9.01 g/m*3 14.6 C 0 km/h
862 28-05-2010 04:19:04 14.6 C 9.01 g/m*3 14.6 C 0 km/h
863 28-05-2010 04:31:04 14.5 C 8.95 g/m*3 14.5 C 0 km/h
864 28-05-2010 04:43:04 14.1 C 9.34 g/m*3 14.1 C 0 km/h
865 28-05-2010 04:55:04 14 C 9.65 g/m*3 14 C 0 km/h
866 28-05-2010 05:07:04 13.8 C 9.77 g/m*3 13.8 C 0 km/h
867 28-05-2010 05:19:04 13.7 C 9.83 g/m*3 13.7 C 0 km/h
868 28-05-2010 05:31:04 13.7 C 9.83 g/m*3 13.7 C 0 km/h
869 28-05-2010 05:43:04 13.7 C 9.95 g/m*3 13.7 C 0 km/h
870 28-05-2010 05:55:04 13.6 C 10 g/m*3 13.6 C 0 km/h
871 28-05-2010 06:07:04 13.6 C 10 g/m*3 13.6 C 0 km/h
872 28-05-2010 06:19:04 13.5 C 9.94 g/m*3 13.5 C 0 km/h
873 28-05-2010 06:31:04 13.5 C 10.06 g/m*3 13.5 C 0 km/h
874 28-05-2010 06:43:05 13.7 C 10.18 g/m*3 13.7 C 0 km/h
875 28-05-2010 06:55:05 13.8 C 10.37 g/m*3 13.8 C 0 km/h
Sensor: Nr:Datum:Temp:Abs-Feuchte:Windchill:Wind:
Aussen-T/F 876 28-05-2010 07:07:03 13.8 C 10.37 g/m*3 13.8 C 0 km/h
877 28-05-2010 07:19:03 13.8 C 10.37 g/m*3 13.8 C 0 km/h
878 28-05-2010 07:31:02 14.1 C 10.56 g/m*3 14.1 C 0 km/h
879 28-05-2010 07:43:02 14.1 C 10.56 g/m*3 14.1 C 0 km/h
880 28-05-2010 07:55:01 14.1 C 10.56 g/m*3 14.1 C 0 km/h
881 28-05-2010 08:07:02 14.2 C 10.5 g/m*3 14.2 C 0 km/h
882 28-05-2010 08:19:02 14.1 C 10.44 g/m*3 14.1 C 0 km/h
883 28-05-2010 08:31:01 14.2 C 10.5 g/m*3 14.2 C 0 km/h
884 28-05-2010 08:43:01 14.5 C 10.7 g/m*3 14.5 C 0 km/h
885 28-05-2010 08:55:01 14.8 C 10.77 g/m*3 14.8 C 0 km/h
886 28-05-2010 09:07:01 15.2 C 10.64 g/m*3 15.2 C 0 km/h
887 28-05-2010 09:19:02 15.2 C 10.25 g/m*3 15.2 C 0 km/h
888 28-05-2010 09:31:01 15.2 C 9.48 g/m*3 15.2 C 0 km/h
889 28-05-2010 09:43:01 15.8 C 9.29 g/m*3 15.8 C 0 km/h
890 28-05-2010 09:55:03 14.2 C 8.91 g/m*3 14.2 C 0 km/h
891 28-05-2010 10:07:02 15.5 C 9.25 g/m*3 15.5 C 0 km/h
892 28-05-2010 10:19:02 15.5 C 8.59 g/m*3 15.5 C 0 km/h
893 28-05-2010 10:31:02 15.6 C 8.25 g/m*3 15.6 C 0 km/h
894 28-05-2010 10:43:02 15.6 C 8.51 g/m*3 15.6 C 0 km/h
895 28-05-2010 10:55:02 16 C 8.17 g/m*3 16 C 0 km/h
896 28-05-2010 11:07:02 16.3 C 7.63 g/m*3 16.3 C 0 km/h
897 28-05-2010 11:19:02 17.6 C 7.65 g/m*3 17.6 C 0 km/h
898 28-05-2010 11:31:02 16.9 C 7.05 g/m*3 16.9 C 0 km/h
899 28-05-2010 11:43:02 18 C 7.22 g/m*3 18 C 0 km/h
900 28-05-2010 11:55:02 17.2 C 6.74 g/m*3 17.2 C 0 km/h
Sensor: Nr:Datum:Temp:Abs-Feuchte:Windchill:Wind:
Aussen-T/F 901 28-05-2010 12:07:01 17.8 C 6.83 g/m*3 17.8 C 0 km/h
902 28-05-2010 12:19:01 16.9 C 7.34 g/m*3 16.9 C 0 km/h
903 28-05-2010 12:31:02 17.5 C 7.01 g/m*3 17.5 C 0 km/h
904 28-05-2010 12:43:02 19.3 C 7.13 g/m*3 19.3 C 0 km/h
905 28-05-2010 12:55:02 20.5 C 7.3 g/m*3 20.5 C 0 km/h
906 28-05-2010 13:07:02 20.4 C 6.72 g/m*3 20.4 C 0 km/h
907 28-05-2010 13:19:02 21.9 C 6.95 g/m*3 21.9 C 0 km/h
908 28-05-2010 13:31:02 21 C 6.41 g/m*3 21 C 0 km/h
909 28-05-2010 13:43:02 19.3 C 6.63 g/m*3 19.3 C 0 km/h
910 28-05-2010 13:55:02 18.6 C 6.37 g/m*3 18.6 C 0 km/h
911 28-05-2010 14:07:03 20 C 6.39 g/m*3 20 C 0 km/h
912 28-05-2010 14:19:02 21.2 C 6.49 g/m*3 21.2 C 0 km/h
913 28-05-2010 14:31:02 19.1 C 6.07 g/m*3 19.1 C 0 km/h
914 28-05-2010 14:43:02 18.2 C 6.22 g/m*3 18.2 C 0 km/h
915 28-05-2010 14:55:01 18.5 C 5.85 g/m*3 18.5 C 0 km/h
916 28-05-2010 15:07:02 19.1 C 5.9 g/m*3 19.1 C 0 km/h
917 28-05-2010 15:19:01 21.6 C 5.88 g/m*3 21.6 C 0 km/h
918 28-05-2010 15:31:01 22.6 C 5.42 g/m*3 22.6 C 0 km/h
919 28-05-2010 15:43:01 22.1 C 4.88 g/m*3 22.1 C 0 km/h
920 28-05-2010 15:55:01 23.2 C 4.99 g/m*3 23.2 C 0 km/h
921 28-05-2010 16:07:02 22.6 C 4.62 g/m*3 22.6 C 0 km/h
922 28-05-2010 16:19:02 23.4 C 4.63 g/m*3 23.4 C 0 km/h
923 28-05-2010 16:31:01 23.5 C 4.44 g/m*3 23.5 C 0 km/h
924 28-05-2010 16:43:01 22.6 C 4.02 g/m*3 22.6 C 0 km/h
925 28-05-2010 16:55:01 23.2 C 4.16 g/m*3 23.2 C 0 km/h
Sensor: Nr:Datum:Temp:Abs-Feuchte:Windchill:Wind:
Aussen-T/F 926 28-05-2010 17:07:01 22.2 C 3.93 g/m*3 22.2 C 0 km/h
927 28-05-2010 17:19:02 23 C 4.11 g/m*3 23 C 0 km/h
928 28-05-2010 17:31:01 24.2 C 4.4 g/m*3 24.2 C 0 km/h
929 28-05-2010 17:43:01 23.3 C 4.18 g/m*3 23.3 C 0 km/h
930 28-05-2010 17:55:03 23.3 C 4.18 g/m*3 23.3 C 0 km/h
931 28-05-2010 18:07:02 22.7 C 4.04 g/m*3 22.7 C 0 km/h
932 28-05-2010 18:19:02 22.8 C 4.06 g/m*3 22.8 C 0 km/h
933 28-05-2010 18:31:02 23.1 C 4.13 g/m*3 23.1 C 0 km/h
934 28-05-2010 18:43:02 22.5 C 3.99 g/m*3 22.5 C 0 km/h
935 28-05-2010 18:55:02 22 C 4.27 g/m*3 22 C 0 km/h
936 28-05-2010 19:07:01 21.7 C 4.77 g/m*3 21.7 C 0 km/h
937 28-05-2010 19:19:02 22 C 4.27 g/m*3 22 C 0 km/h
938 28-05-2010 19:31:02 22.5 C 4.79 g/m*3 22.5 C 0 km/h
939 28-05-2010 19:43:02 22.1 C 4.88 g/m*3 22.1 C 0 km/h
940 28-05-2010 19:55:01 22.4 C 4.57 g/m*3 22.4 C 0 km/h
941 28-05-2010 20:07:01 21.2 C 4.63 g/m*3 21.2 C 0 km/h
942 28-05-2010 20:19:01 19.7 C 4.92 g/m*3 19.7 C 0 km/h
943 28-05-2010 20:31:01 19.2 C 5.11 g/m*3 19.2 C 0 km/h
944 28-05-2010 20:43:01 19.3 C 5.14 g/m*3 19.3 C 0 km/h
945 28-05-2010 20:55:02 19 C 5.05 g/m*3 19 C 0 km/h
946 28-05-2010 21:07:02 18.6 C 5.09 g/m*3 18.6 C 0 km/h
947 28-05-2010 21:19:02 18.1 C 5.25 g/m*3 18.1 C 0 km/h
948 28-05-2010 21:31:02 17.4 C 5.34 g/m*3 17.4 C 0 km/h
949 28-05-2010 21:43:02 17 C 5.35 g/m*3 17 C 0 km/h
950 28-05-2010 21:55:02 16.6 C 5.65 g/m*3 16.6 C 0 km/h
Sensor: Nr:Datum:Temp:Abs-Feuchte:Windchill:Wind:
Aussen-T/F 951 28-05-2010 22:07:02 16.1 C 5.76 g/m*3 16.1 C 0 km/h
952 28-05-2010 22:19:01 15.7 C 6.02 g/m*3 15.7 C 0 km/h
953 28-05-2010 22:32:03 15.6 C 5.85 g/m*3 15.6 C 0 km/h
954 28-05-2010 22:44:03 15.4 C 6.04 g/m*3 15.4 C 0 km/h
955 28-05-2010 22:56:03 15 C 6.03 g/m*3 15 C 0 km/h
956 28-05-2010 23:08:03 14.7 C 6.04 g/m*3 14.7 C 0 km/h
957 28-05-2010 23:20:03 14.5 C 5.97 g/m*3 14.5 C 0 km/h
958 28-05-2010 23:32:03 14.2 C 6.11 g/m*3 14.2 C 0 km/h
959 28-05-2010 23:44:03 13.6 C 6.47 g/m*3 13.6 C 0 km/h
960 28-05-2010 23:56:03 13.3 C 6.47 g/m*3 13.3 C 0 km/h
961 29-05-2010 00:08:03 13.1 C 6.5 g/m*3 13.1 C 0 km/h
962 29-05-2010 00:20:03 13.1 C 6.62 g/m*3 13.1 C 0 km/h
963 29-05-2010 00:32:03 12.9 C 6.65 g/m*3 12.9 C 0 km/h
964 29-05-2010 00:44:03 12.7 C 6.68 g/m*3 12.7 C 0 km/h
965 29-05-2010 00:56:03 12.5 C 6.71 g/m*3 12.5 C 0 km/h
966 29-05-2010 01:08:03 12.3 C 6.62 g/m*3 12.3 C 0 km/h
967 29-05-2010 01:20:03 12.1 C 6.65 g/m*3 12.1 C 0 km/h
968 29-05-2010 01:32:04 11.9 C 6.78 g/m*3 11.9 C 0 km/h
969 29-05-2010 01:44:04 11.7 C 6.9 g/m*3 11.7 C 0 km/h
970 29-05-2010 01:56:04 11.6 C 6.86 g/m*3 11.6 C 0 km/h
971 29-05-2010 02:08:04 11.3 C 6.94 g/m*3 11.3 C 0 km/h
972 29-05-2010 02:20:04 11 C 6.91 g/m*3 11 C 0 km/h
973 29-05-2010 02:32:04 10.7 C 6.97 g/m*3 10.7 C 0 km/h
974 29-05-2010 02:44:04 10.6 C 6.93 g/m*3 10.6 C 0 km/h
975 29-05-2010 02:56:04 10.5 C 6.98 g/m*3 10.5 C 0 km/h
Sensor: Nr:Datum:Temp:Abs-Feuchte:Windchill:Wind:
Aussen-T/F 976 29-05-2010 03:08:04 10.2 C 6.95 g/m*3 10.2 C 0 km/h
977 29-05-2010 03:20:04 10.1 C 7 g/m*3 10.1 C 0 km/h
978 29-05-2010 03:32:04 9.9 C 7 g/m*3 9.9 C 0 km/h
979 29-05-2010 03:44:04 9.9 C 7.1 g/m*3 9.9 C 0 km/h
980 29-05-2010 03:56:04 9.8 C 7.05 g/m*3 9.8 C 0 km/h
981 29-05-2010 04:08:04 9.8 C 7.05 g/m*3 9.8 C 0 km/h
982 29-05-2010 04:20:04 9.7 C 7.1 g/m*3 9.7 C 0 km/h
983 29-05-2010 04:32:04 9.7 C 7.1 g/m*3 9.7 C 0 km/h
984 29-05-2010 04:44:04 9.6 C 7.05 g/m*3 9.6 C 0 km/h
985 29-05-2010 04:56:04 9.7 C 7.1 g/m*3 9.7 C 0 km/h
986 29-05-2010 05:08:04 9.6 C 6.96 g/m*3 9.6 C 0 km/h
987 29-05-2010 05:20:04 9.5 C 7.01 g/m*3 9.5 C 0 km/h
988 29-05-2010 05:32:05 9.5 C 7.01 g/m*3 9.5 C 0 km/h
989 29-05-2010 05:44:05 9.5 C 7.01 g/m*3 9.5 C 0 km/h
990 29-05-2010 05:56:05 9.3 C 7.01 g/m*3 9.3 C 0 km/h
991 29-05-2010 06:08:05 9.4 C 7.05 g/m*3 9.4 C 0 km/h
992 29-05-2010 06:20:05 9.6 C 7.15 g/m*3 9.6 C 0 km/h
993 29-05-2010 06:32:05 9.9 C 7.28 g/m*3 9.9 C 0 km/h
994 29-05-2010 06:44:05 10 C 7.14 g/m*3 10 C 0 km/h
995 29-05-2010 06:56:05 10 C 7.05 g/m*3 10 C 0 km/h
996 29-05-2010 07:08:05 9.9 C 7.1 g/m*3 9.9 C 0 km/h
997 29-05-2010 07:20:05 10.1 C 7.09 g/m*3 10.1 C 0 km/h
998 29-05-2010 07:32:05 10.2 C 7.14 g/m*3 10.2 C 0 km/h
999 29-05-2010 07:44:05 10.3 C 7.18 g/m*3 10.3 C 0 km/h
1000 29-05-2010 07:56:05 10.4 C 7.23 g/m*3 10.4 C 0 km/h
Sensor: Nr:Datum:Temp:Abs-Feuchte:Windchill:Wind:
Aussen-T/F 1001 29-05-2010 08:08:05 10.7 C 7.37 g/m*3 10.7 C 0 km/h
1002 29-05-2010 08:20:05 11 C 7.31 g/m*3 11 C 0 km/h
1003 29-05-2010 08:32:02 11.3 C 7.24 g/m*3 11.3 C 0 km/h
1004 29-05-2010 08:44:02 11.7 C 7.11 g/m*3 11.7 C 0 km/h
1005 29-05-2010 08:56:02 11.5 C 6.92 g/m*3 11.5 C 0 km/h
1006 29-05-2010 09:08:02 11.8 C 7.16 g/m*3 11.8 C 0 km/h
1007 29-05-2010 09:20:01 12.2 C 7.01 g/m*3 12.2 C 0 km/h
1008 29-05-2010 09:32:02 12.7 C 7.01 g/m*3 12.7 C 0 km/h
1009 29-05-2010 09:44:02 13.4 C 7.09 g/m*3 13.4 C 0 km/h
1010 29-05-2010 09:56:02 14.2 C 6.96 g/m*3 14.2 C 0 km/h
1011 29-05-2010 10:08:02 15 C 6.92 g/m*3 15 C 0 km/h
1012 29-05-2010 10:20:02 16.1 C 7.26 g/m*3 16.1 C 0 km/h
1013 29-05-2010 10:32:02 17.4 C 7.41 g/m*3 17.4 C 0 km/h
1014 29-05-2010 10:44:02 17.9 C 7.02 g/m*3 17.9 C 0 km/h
1015 29-05-2010 10:56:02 18.1 C 6.8 g/m*3 18.1 C 0 km/h
1016 29-05-2010 11:08:02 18.4 C 6.92 g/m*3 18.4 C 0 km/h
1017 29-05-2010 11:20:02 18.1 C 7.42 g/m*3 18.1 C 0 km/h
1018 29-05-2010 11:32:02 18.4 C 7.55 g/m*3 18.4 C 0 km/h
1019 29-05-2010 11:44:02 18.8 C 7.41 g/m*3 18.8 C 0 km/h
1020 29-05-2010 11:56:01 19.6 C 7.26 g/m*3 19.6 C 0 km/h
1021 29-05-2010 12:08:01 20.9 C 6.01 g/m*3 20.9 C 0 km/h
1022 29-05-2010 12:20:01 21.8 C 5.76 g/m*3 21.8 C 0 km/h
1023 29-05-2010 12:32:01 21.6 C 5.12 g/m*3 21.6 C 0 km/h
1024 29-05-2010 12:44:01 21.2 C 5.19 g/m*3 21.2 C 0 km/h
1025 29-05-2010 12:56:01 23.1 C 5.17 g/m*3 23.1 C 0 km/h
Sensor: Nr:Datum:Temp:Abs-Feuchte:Windchill:Wind:
Aussen-T/F 1026 29-05-2010 13:08:01 24 C 4.79 g/m*3 24 C 0 km/h
1027 29-05-2010 13:20:02 25.1 C 5.32 g/m*3 25.1 C 0 km/h
1028 29-05-2010 13:32:01 25 C 4.6 g/m*3 25 C 0 km/h
1029 29-05-2010 13:44:01 25.5 C 4.73 g/m*3 25.5 C 0 km/h
1030 29-05-2010 13:56:02 24.6 C 4.73 g/m*3 24.6 C 0 km/h
1031 29-05-2010 14:08:01 23.7 C 5.13 g/m*3 23.7 C 0 km/h
1032 29-05-2010 14:20:02 23.8 C 5.38 g/m*3 23.8 C 0 km/h
1033 29-05-2010 14:32:01 23.7 C 5.13 g/m*3 23.7 C 0 km/h
1034 29-05-2010 14:44:01 23.3 C 5.23 g/m*3 23.3 C 0 km/h
1035 29-05-2010 14:56:03 22.6 C 5.62 g/m*3 22.6 C 0 km/h
1036 29-05-2010 15:08:02 23 C 5.55 g/m*3 23 C 0 km/h
1037 29-05-2010 15:20:03 22.5 C 5.19 g/m*3 22.5 C 0 km/h
1038 29-05-2010 15:32:02 22.7 C 6.06 g/m*3 22.7 C 0 km/h
1039 29-05-2010 15:44:02 23.5 C 5.08 g/m*3 23.5 C 0 km/h
1040 29-05-2010 15:56:02 23.4 C 4.84 g/m*3 23.4 C 0 km/h
1041 29-05-2010 16:08:02 23.5 C 4.86 g/m*3 23.5 C 0 km/h
1042 29-05-2010 16:20:02 24.5 C 5.15 g/m*3 24.5 C 0 km/h
1043 29-05-2010 16:32:02 24.4 C 4.9 g/m*3 24.4 C 0 km/h
1044 29-05-2010 16:44:02 24.5 C 5.15 g/m*3 24.5 C 0 km/h
1045 29-05-2010 16:56:02 25.2 C 4.89 g/m*3 25.2 C 0 km/h
1046 29-05-2010 17:08:02 25.1 C 5.79 g/m*3 25.1 C 0 km/h
1047 29-05-2010 17:20:03 24.9 C 5.72 g/m*3 24.9 C 0 km/h
1048 29-05-2010 17:32:02 23.5 C 5.92 g/m*3 23.5 C 0 km/h
1049 29-05-2010 17:44:02 23.3 C 6.27 g/m*3 23.3 C 0 km/h
1050 29-05-2010 17:56:02 23 C 5.96 g/m*3 23 C 0 km/h
Sensor: Nr:Datum:Temp:Abs-Feuchte:Windchill:Wind:
Aussen-T/F 1051 29-05-2010 18:08:02 22.4 C 6.16 g/m*3 22.4 C 0 km/h
1052 29-05-2010 18:20:02 22 C 6.21 g/m*3 22 C 0 km/h
1053 29-05-2010 18:32:03 21.6 C 6.45 g/m*3 21.6 C 0 km/h
1054 29-05-2010 18:44:03 21.3 C 5.78 g/m*3 21.3 C 0 km/h
1055 29-05-2010 18:56:02 21.2 C 5.56 g/m*3 21.2 C 0 km/h
1056 29-05-2010 19:08:01 21.2 C 5.56 g/m*3 21.2 C 0 km/h
1057 29-05-2010 19:20:02 21 C 5.13 g/m*3 21 C 0 km/h
1058 29-05-2010 19:32:02 20.4 C 5.31 g/m*3 20.4 C 0 km/h
1059 29-05-2010 19:44:02 20.3 C 5.28 g/m*3 20.3 C 0 km/h
1060 29-05-2010 19:56:02 20.4 C 5.48 g/m*3 20.4 C 0 km/h
1061 29-05-2010 20:08:02 20 C 5.53 g/m*3 20 C 0 km/h
1062 29-05-2010 20:20:02 19.6 C 5.74 g/m*3 19.6 C 0 km/h
1063 29-05-2010 20:32:02 19.4 C 5.84 g/m*3 19.4 C 0 km/h
1064 29-05-2010 20:44:02 18.9 C 6.32 g/m*3 18.9 C 0 km/h
1065 29-05-2010 20:56:02 18.6 C 6.37 g/m*3 18.6 C 0 km/h
1066 29-05-2010 21:08:02 18.4 C 5.98 g/m*3 18.4 C 0 km/h
1067 29-05-2010 21:20:02 18.3 C 5.79 g/m*3 18.3 C 0 km/h
1068 29-05-2010 21:32:02 17.6 C 6.9 g/m*3 17.6 C 0 km/h
1069 29-05-2010 21:44:02 16.4 C 6.84 g/m*3 16.4 C 0 km/h
1070 29-05-2010 21:56:02 14.6 C 8.13 g/m*3 14.6 C 0 km/h
1071 29-05-2010 22:08:02 13.8 C 8.94 g/m*3 13.8 C 0 km/h
1072 29-05-2010 22:20:01 13.3 C 9.01 g/m*3 13.3 C 0 km/h
1073 29-05-2010 22:32:01 13.9 C 9.47 g/m*3 13.9 C 0 km/h
1074 29-05-2010 22:44:01 14.3 C 8.97 g/m*3 14.3 C 0 km/h
1075 29-05-2010 22:57:02 14.5 C 8.95 g/m*3 14.5 C 0 km/h
Sensor: Nr:Datum:Temp:Abs-Feuchte:Windchill:Wind:
Aussen-T/F 1076 29-05-2010 23:09:02 14.5 C 8.71 g/m*3 14.5 C 0 km/h
1077 29-05-2010 23:21:02 14.4 C 8.65 g/m*3 14.4 C 0 km/h
1078 29-05-2010 23:33:02 13.7 C 8.76 g/m*3 13.7 C 0 km/h
1079 29-05-2010 23:45:02 12.8 C 8.96 g/m*3 12.8 C 0 km/h
1080 29-05-2010 23:57:02 13.2 C 9.42 g/m*3 13.2 C 0 km/h
1081 30-05-2010 00:09:02 13.2 C 9.53 g/m*3 13.2 C 0 km/h
1082 30-05-2010 00:21:02 13.2 C 9.53 g/m*3 13.2 C 0 km/h
1083 30-05-2010 00:33:03 13.1 C 9.47 g/m*3 13.1 C 0 km/h
1084 30-05-2010 00:45:03 13.3 C 9.47 g/m*3 13.3 C 0 km/h
1085 30-05-2010 00:57:03 14.1 C 8.74 g/m*3 14.1 C 0 km/h
1086 30-05-2010 01:09:03 13.7 C 9 g/m*3 13.7 C 0 km/h
1087 30-05-2010 01:21:03 13.2 C 9.3 g/m*3 13.2 C 0 km/h
1088 30-05-2010 01:33:03 13.1 C 9.59 g/m*3 13.1 C 0 km/h
1089 30-05-2010 01:45:03 13 C 9.64 g/m*3 13 C 0 km/h
1090 30-05-2010 01:57:03 13 C 9.87 g/m*3 13 C 0 km/h
1091 30-05-2010 02:09:03 13 C 9.98 g/m*3 13 C 0 km/h
1092 30-05-2010 02:21:03 12.8 C 9.97 g/m*3 12.8 C 0 km/h
1093 30-05-2010 02:33:03 12.8 C 9.97 g/m*3 12.8 C 0 km/h
1094 30-05-2010 02:45:03 12.9 C 10.14 g/m*3 12.9 C 0 km/h
1095 30-05-2010 02:57:03 13 C 10.09 g/m*3 13 C 0 km/h
1096 30-05-2010 03:09:03 12.9 C 10.26 g/m*3 12.9 C 0 km/h
1097 30-05-2010 03:21:03 12.9 C 10.26 g/m*3 12.9 C 0 km/h
1098 30-05-2010 03:33:03 12.9 C 10.26 g/m*3 12.9 C 0 km/h
1099 30-05-2010 03:45:03 12.9 C 10.26 g/m*3 12.9 C 0 km/h
1100 30-05-2010 03:57:03 12.9 C 10.37 g/m*3 12.9 C 0 km/h
Sensor: Nr:Datum:Temp:Abs-Feuchte:Windchill:Wind:
Aussen-T/F 1101 30-05-2010 04:09:03 12.7 C 10.24 g/m*3 12.7 C 0 km/h
1102 30-05-2010 04:21:03 12.7 C 10.24 g/m*3 12.7 C 0 km/h
1103 30-05-2010 04:33:03 12.7 C 10.24 g/m*3 12.7 C 0 km/h
1104 30-05-2010 04:45:04 12.9 C 10.37 g/m*3 12.9 C 0 km/h
1105 30-05-2010 04:57:04 13 C 10.32 g/m*3 13 C 0 km/h
1106 30-05-2010 05:09:04 12.9 C 10.26 g/m*3 12.9 C 0 km/h
1107 30-05-2010 05:21:04 12.9 C 10.26 g/m*3 12.9 C 0 km/h
1108 30-05-2010 05:33:04 12.8 C 10.19 g/m*3 12.8 C 0 km/h
1109 30-05-2010 05:45:04 13.1 C 10.27 g/m*3 13.1 C 0 km/h
1110 30-05-2010 05:57:04 13.1 C 10.27 g/m*3 13.1 C 0 km/h
1111 30-05-2010 06:09:04 13.2 C 10.22 g/m*3 13.2 C 0 km/h
1112 30-05-2010 06:21:04 13.3 C 10.28 g/m*3 13.3 C 0 km/h
1113 30-05-2010 06:33:04 13.4 C 10.35 g/m*3 13.4 C 0 km/h
1114 30-05-2010 06:45:04 13.5 C 10.29 g/m*3 13.5 C 0 km/h
1115 30-05-2010 06:57:04 13.4 C 10.11 g/m*3 13.4 C 0 km/h
1116 30-05-2010 07:09:04 13.4 C 10.23 g/m*3 13.4 C 0 km/h
1117 30-05-2010 07:21:04 13.5 C 10.29 g/m*3 13.5 C 0 km/h
1118 30-05-2010 07:33:04 13.7 C 10.42 g/m*3 13.7 C 0 km/h
1119 30-05-2010 07:45:04 14.2 C 10.62 g/m*3 14.2 C 0 km/h
1120 30-05-2010 07:57:04 14.2 C 10.62 g/m*3 14.2 C 0 km/h
1121 30-05-2010 08:09:04 14.3 C 10.69 g/m*3 14.3 C 0 km/h
1122 30-05-2010 08:21:04 14.1 C 9.95 g/m*3 14.1 C 0 km/h
1123 30-05-2010 08:33:04 14.7 C 10.07 g/m*3 14.7 C 0 km/h
1124 30-05-2010 08:45:05 15 C 9.75 g/m*3 15 C 0 km/h
1125 30-05-2010 08:57:05 15.2 C 9.86 g/m*3 15.2 C 0 km/h
Sensor: Nr:Datum:Temp:Abs-Feuchte:Windchill:Wind:
Aussen-T/F 1126 30-05-2010 09:09:02 15.6 C 9.84 g/m*3 15.6 C 0 km/h
1127 30-05-2010 09:21:02 15.8 C 10.1 g/m*3 15.8 C 0 km/h
1128 30-05-2010 09:33:02 15.8 C 9.96 g/m*3 15.8 C 0 km/h
1129 30-05-2010 09:45:02 15.7 C 10.03 g/m*3 15.7 C 0 km/h
1130 30-05-2010 09:57:02 15.2 C 10.12 g/m*3 15.2 C 0 km/h
1131 30-05-2010 10:09:02 15 C 10.13 g/m*3 15 C 0 km/h
1132 30-05-2010 10:21:02 14.5 C 9.95 g/m*3 14.5 C 0 km/h
1133 30-05-2010 10:33:02 14.7 C 10.2 g/m*3 14.7 C 0 km/h
1134 30-05-2010 10:45:02 15.3 C 10.45 g/m*3 15.3 C 0 km/h
1135 30-05-2010 10:57:02 15.4 C 10.25 g/m*3 15.4 C 0 km/h
1136 30-05-2010 11:09:02 17 C 9.84 g/m*3 17 C 0 km/h
1137 30-05-2010 11:21:02 17.1 C 9.32 g/m*3 17.1 C 0 km/h
1138 30-05-2010 11:33:02 18.6 C 9.71 g/m*3 18.6 C 0 km/h
1139 30-05-2010 11:45:02 17.6 C 8.25 g/m*3 17.6 C 0 km/h
1140 30-05-2010 11:57:02 16.9 C 8.63 g/m*3 16.9 C 0 km/h
1141 30-05-2010 12:09:02 17 C 8.83 g/m*3 17 C 0 km/h
1142 30-05-2010 12:21:02 17.5 C 7.9 g/m*3 17.5 C 0 km/h
1143 30-05-2010 12:33:01 18.4 C 8.34 g/m*3 18.4 C 0 km/h
1144 30-05-2010 12:45:02 18.4 C 7.86 g/m*3 18.4 C 0 km/h
1145 30-05-2010 12:57:02 18.7 C 7.52 g/m*3 18.7 C 0 km/h
1146 30-05-2010 13:09:01 18.7 C 7.2 g/m*3 18.7 C 0 km/h
1147 30-05-2010 13:21:02 17.6 C 7.2 g/m*3 17.6 C 0 km/h
1148 30-05-2010 13:33:01 18.3 C 7.51 g/m*3 18.3 C 0 km/h
1149 30-05-2010 13:45:02 18.1 C 7.57 g/m*3 18.1 C 0 km/h
1150 30-05-2010 13:57:02 17 C 8.25 g/m*3 17 C 0 km/h
Sensor: Nr:Datum:Temp:Abs-Feuchte:Windchill:Wind:
Aussen-T/F 1151 30-05-2010 14:09:02 17.4 C 8.45 g/m*3 17.4 C 0 km/h
1152 30-05-2010 14:21:02 17.4 C 8.15 g/m*3 17.4 C 0 km/h
1153 30-05-2010 14:33:02 18.1 C 8.03 g/m*3 18.1 C 0 km/h
1154 30-05-2010 14:45:02 18.6 C 8.28 g/m*3 18.6 C 0 km/h
1155 30-05-2010 14:57:02 18.5 C 8.23 g/m*3 18.5 C 0 km/h
1156 30-05-2010 15:09:01 19.2 C 8.08 g/m*3 19.2 C 0 km/h
1157 30-05-2010 15:21:01 19.3 C 8.13 g/m*3 19.3 C 0 km/h
1158 30-05-2010 15:33:02 19.5 C 7.89 g/m*3 19.5 C 0 km/h
1159 30-05-2010 15:45:02 19.3 C 7.63 g/m*3 19.3 C 0 km/h
1160 30-05-2010 15:57:02 18.6 C 6.84 g/m*3 18.6 C 0 km/h
1161 30-05-2010 16:09:02 18.9 C 6.97 g/m*3 18.9 C 0 km/h
1162 30-05-2010 16:21:02 19.8 C 7.17 g/m*3 19.8 C 0 km/h
1163 30-05-2010 16:33:02 19.7 C 6.79 g/m*3 19.7 C 0 km/h
1164 30-05-2010 16:45:02 19.3 C 6.97 g/m*3 19.3 C 0 km/h
1165 30-05-2010 16:57:02 19.3 C 6.63 g/m*3 19.3 C 0 km/h
1166 30-05-2010 17:09:02 18.9 C 6.64 g/m*3 18.9 C 0 km/h
1167 30-05-2010 17:21:02 18.3 C 6.72 g/m*3 18.3 C 0 km/h
1168 30-05-2010 17:33:02 15.6 C 8.51 g/m*3 15.6 C 0 km/h
1169 30-05-2010 17:45:02 14.5 C 9.33 g/m*3 14.5 C 0 km/h
1170 30-05-2010 17:57:02 14.2 C 9.52 g/m*3 14.2 C 0 km/h
1171 30-05-2010 18:09:02 14.9 C 9.81 g/m*3 14.9 C 0 km/h
1172 30-05-2010 18:21:02 15.1 C 9.42 g/m*3 15.1 C 0 km/h
1173 30-05-2010 18:33:02 14.5 C 9.2 g/m*3 14.5 C 0 km/h
1174 30-05-2010 18:45:02 13.9 C 9.71 g/m*3 13.9 C 0 km/h
1175 30-05-2010 18:57:02 13.7 C 9.83 g/m*3 13.7 C 0 km/h
Sensor: Nr:Datum:Temp:Abs-Feuchte:Windchill:Wind:
Aussen-T/F 1176 30-05-2010 19:09:02 13.5 C 9.47 g/m*3 13.5 C 0 km/h
1177 30-05-2010 19:21:02 12.8 C 9.07 g/m*3 12.8 C 0 km/h
1178 30-05-2010 19:33:02 12.7 C 9.35 g/m*3 12.7 C 0 km/h
1179 30-05-2010 19:45:01 13.1 C 9.7 g/m*3 13.1 C 0 km/h
1180 30-05-2010 19:57:01 13.7 C 9.95 g/m*3 13.7 C 0 km/h
1181 30-05-2010 20:09:02 13.2 C 8.27 g/m*3 13.2 C 0 km/h
1182 30-05-2010 20:21:02 12.7 C 7.24 g/m*3 12.7 C 0 km/h
1183 30-05-2010 20:33:02 12.4 C 6.88 g/m*3 12.4 C 0 km/h
1184 30-05-2010 20:45:02 12.1 C 6.97 g/m*3 12.1 C 0 km/h
1185 30-05-2010 20:57:02 11.9 C 7.31 g/m*3 11.9 C 0 km/h
1186 30-05-2010 21:09:02 11.8 C 6.84 g/m*3 11.8 C 0 km/h
1187 30-05-2010 21:21:02 12 C 6.61 g/m*3 12 C 0 km/h
1188 30-05-2010 21:33:01 11.8 C 6.84 g/m*3 11.8 C 0 km/h
1189 30-05-2010 21:45:02 11.7 C 6.59 g/m*3 11.7 C 0 km/h
1190 30-05-2010 21:57:02 11.4 C 6.26 g/m*3 11.4 C 0 km/h
1191 30-05-2010 22:09:02 11.3 C 6.22 g/m*3 11.3 C 0 km/h
1192 30-05-2010 22:22:03 11.2 C 6.28 g/m*3 11.2 C 0 km/h
1193 30-05-2010 22:34:03 11.1 C 6.25 g/m*3 11.1 C 0 km/h
1194 30-05-2010 22:46:03 11.1 C 6.04 g/m*3 11.1 C 0 km/h
1195 30-05-2010 22:58:03 11 C 5.91 g/m*3 11 C 0 km/h
1196 30-05-2010 23:10:03 11 C 5.81 g/m*3 11 C 0 km/h
1197 30-05-2010 23:22:03 10.9 C 5.87 g/m*3 10.9 C 0 km/h
1198 30-05-2010 23:34:03 10.7 C 5.7 g/m*3 10.7 C 0 km/h
1199 30-05-2010 23:46:03 10.4 C 5.69 g/m*3 10.4 C 0 km/h
1200 30-05-2010 23:58:03 10 C 5.73 g/m*3 10 C 0 km/h
Sensor: Nr:Datum:Temp:Abs-Feuchte:Windchill:Wind:
Aussen-T/F 1201 31-05-2010 00:10:03 10.1 C 5.86 g/m*3 10.1 C 0 km/h
1202 31-05-2010 00:22:03 9.8 C 5.85 g/m*3 9.8 C 0 km/h
1203 31-05-2010 00:34:03 9.8 C 5.75 g/m*3 9.8 C 0 km/h
1204 31-05-2010 00:46:04 9.8 C 5.85 g/m*3 9.8 C 0 km/h
1205 31-05-2010 00:58:04 9.9 C 5.98 g/m*3 9.9 C 0 km/h
1206 31-05-2010 01:10:04 10.1 C 5.77 g/m*3 10.1 C 0 km/h
1207 31-05-2010 01:22:04 10 C 5.92 g/m*3 10 C 0 km/h
1208 31-05-2010 01:34:04 9.8 C 6.22 g/m*3 9.8 C 0 km/h
1209 31-05-2010 01:46:04 9.8 C 6.31 g/m*3 9.8 C 0 km/h
1210 31-05-2010 01:58:04 9.5 C 6.64 g/m*3 9.5 C 0 km/h
1211 31-05-2010 02:10:04 9.1 C 7.01 g/m*3 9.1 C 0 km/h
1212 31-05-2010 02:22:04 8.9 C 7.36 g/m*3 8.9 C 0 km/h
1213 31-05-2010 02:34:04 8.9 C 7.62 g/m*3 8.9 C 0 km/h
1214 31-05-2010 02:46:04 8.9 C 7.71 g/m*3 8.9 C 0 km/h
1215 31-05-2010 02:58:04 8.9 C 7.8 g/m*3 8.9 C 0 km/h
1216 31-05-2010 03:10:04 8.7 C 7.7 g/m*3 8.7 C 0 km/h
1217 31-05-2010 03:22:04 8.7 C 7.78 g/m*3 8.7 C 0 km/h
1218 31-05-2010 03:34:04 8.6 C 7.73 g/m*3 8.6 C 0 km/h
1219 31-05-2010 03:46:04 8.6 C 7.82 g/m*3 8.6 C 0 km/h
1220 31-05-2010 03:58:04 8.5 C 7.68 g/m*3 8.5 C 0 km/h
1221 31-05-2010 04:10:04 8.4 C 7.63 g/m*3 8.4 C 0 km/h
1222 31-05-2010 04:22:04 8.5 C 7.77 g/m*3 8.5 C 0 km/h
1223 31-05-2010 04:34:04 8.4 C 7.63 g/m*3 8.4 C 0 km/h
1224 31-05-2010 04:46:05 8.6 C 7.73 g/m*3 8.6 C 0 km/h
1225 31-05-2010 04:58:05 8.7 C 7.78 g/m*3 8.7 C 0 km/h
Sensor: Nr:Datum:Temp:Abs-Feuchte:Windchill:Wind:
Aussen-T/F 1226 31-05-2010 05:10:05 8.6 C 7.73 g/m*3 8.6 C 0 km/h
1227 31-05-2010 05:22:05 8.5 C 7.68 g/m*3 8.5 C 0 km/h
1228 31-05-2010 05:34:05 8.5 C 7.68 g/m*3 8.5 C 0 km/h
1229 31-05-2010 05:46:05 8.5 C 7.68 g/m*3 8.5 C 0 km/h
1230 31-05-2010 05:58:05 8.6 C 7.73 g/m*3 8.6 C 0 km/h
1231 31-05-2010 06:10:05 8.6 C 7.73 g/m*3 8.6 C 0 km/h
1232 31-05-2010 06:22:05 8.7 C 7.87 g/m*3 8.7 C 0 km/h
1233 31-05-2010 06:34:05 8.7 C 7.87 g/m*3 8.7 C 0 km/h
1234 31-05-2010 06:46:02 8.7 C 7.96 g/m*3 8.7 C 0 km/h
1235 31-05-2010 06:58:02 8.9 C 8.06 g/m*3 8.9 C 0 km/h
1236 31-05-2010 07:10:02 8.9 C 8.06 g/m*3 8.9 C 0 km/h
1237 31-05-2010 07:22:01 8.8 C 8.01 g/m*3 8.8 C 0 km/h
1238 31-05-2010 07:34:02 8.9 C 8.15 g/m*3 8.9 C 0 km/h
1239 31-05-2010 07:46:02 9 C 8.11 g/m*3 9 C 0 km/h
1240 31-05-2010 07:58:02 9.1 C 8.16 g/m*3 9.1 C 0 km/h
1241 31-05-2010 08:10:02 9.3 C 8.36 g/m*3 9.3 C 0 km/h
1242 31-05-2010 08:22:02 9.7 C 8.57 g/m*3 9.7 C 0 km/h
1243 31-05-2010 08:34:02 10 C 8.55 g/m*3 10 C 0 km/h
1244 31-05-2010 08:46:02 10.1 C 8.51 g/m*3 10.1 C 0 km/h
1245 31-05-2010 08:58:02 10.3 C 8.52 g/m*3 10.3 C 0 km/h
1246 31-05-2010 09:10:02 10.7 C 8.55 g/m*3 10.7 C 0 km/h
1247 31-05-2010 09:22:02 10.8 C 8.4 g/m*3 10.8 C 0 km/h
1248 31-05-2010 09:34:02 10.8 C 8.3 g/m*3 10.8 C 0 km/h
1249 31-05-2010 09:46:02 10.7 C 8.25 g/m*3 10.7 C 0 km/h
1250 31-05-2010 09:58:02 11 C 8.41 g/m*3 11 C 0 km/h
Sensor: Nr:Datum:Temp:Abs-Feuchte:Windchill:Wind:
Aussen-T/F 1251 31-05-2010 10:10:02 10.9 C 8.36 g/m*3 10.9 C 0 km/h
1252 31-05-2010 10:22:02 10.9 C 8.26 g/m*3 10.9 C 0 km/h
1253 31-05-2010 10:34:02 11 C 8.31 g/m*3 11 C 0 km/h
1254 31-05-2010 10:46:02 11.3 C 8.47 g/m*3 11.3 C 0 km/h
1255 31-05-2010 10:58:02 11.2 C 8.31 g/m*3 11.2 C 0 km/h
1256 31-05-2010 11:10:02 11.5 C 8.47 g/m*3 11.5 C 0 km/h
1257 31-05-2010 11:22:02 11.6 C 8.32 g/m*3 11.6 C 0 km/h
1258 31-05-2010 11:34:02 11.8 C 8.42 g/m*3 11.8 C 0 km/h
1259 31-05-2010 11:46:02 12.4 C 8.41 g/m*3 12.4 C 0 km/h
1260 31-05-2010 11:58:02 12.5 C 8.14 g/m*3 12.5 C 0 km/h
1261 31-05-2010 12:10:02 12.6 C 7.74 g/m*3 12.6 C 0 km/h
1262 31-05-2010 12:22:02 14.2 C 8.06 g/m*3 14.2 C 0 km/h
1263 31-05-2010 12:34:02 14.2 C 7.45 g/m*3 14.2 C 0 km/h
1264 31-05-2010 12:46:02 14.2 C 7.57 g/m*3 14.2 C 0 km/h
1265 31-05-2010 12:58:02 13.7 C 7.34 g/m*3 13.7 C 0 km/h
1266 31-05-2010 13:10:02 14 C 7.24 g/m*3 14 C 0 km/h
1267 31-05-2010 13:22:02 15.8 C 7.67 g/m*3 15.8 C 0 km/h
1268 31-05-2010 13:34:01 14.7 C 7.3 g/m*3 14.7 C 0 km/h
1269 31-05-2010 13:46:02 13.6 C 7.18 g/m*3 13.6 C 0 km/h
1270 31-05-2010 13:58:02 13.5 C 7.25 g/m*3 13.5 C 0 km/h
1271 31-05-2010 14:10:01 14 C 7.36 g/m*3 14 C 0 km/h
1272 31-05-2010 14:22:02 14.7 C 7.43 g/m*3 14.7 C 0 km/h
1273 31-05-2010 14:34:01 15.4 C 7.23 g/m*3 15.4 C 0 km/h
1274 31-05-2010 14:46:01 15.7 C 7.36 g/m*3 15.7 C 0 km/h
1275 31-05-2010 14:58:01 15 C 7.18 g/m*3 15 C 0 km/h
Sensor: Nr:Datum:Temp:Abs-Feuchte:Windchill:Wind:
Aussen-T/F 1276 31-05-2010 15:10:01 15 C 7.31 g/m*3 15 C 0 km/h
1277 31-05-2010 15:22:02 14.8 C 7.35 g/m*3 14.8 C 0 km/h
1278 31-05-2010 15:34:01 14.9 C 7.52 g/m*3 14.9 C 0 km/h
1279 31-05-2010 15:46:03 14.7 C 7.81 g/m*3 14.7 C 0 km/h
1280 31-05-2010 15:58:03 14.4 C 7.79 g/m*3 14.4 C 0 km/h
1281 31-05-2010 16:10:02 14.2 C 8.06 g/m*3 14.2 C 0 km/h
1282 31-05-2010 16:22:02 13.8 C 7.98 g/m*3 13.8 C 0 km/h
1283 31-05-2010 16:34:02 13.8 C 8.1 g/m*3 13.8 C 0 km/h
1284 31-05-2010 16:46:02 13.9 C 8.27 g/m*3 13.9 C 0 km/h
1285 31-05-2010 16:58:02 14.1 C 8.01 g/m*3 14.1 C 0 km/h
1286 31-05-2010 17:10:02 14.3 C 7.86 g/m*3 14.3 C 0 km/h
1287 31-05-2010 17:22:02 14.4 C 7.54 g/m*3 14.4 C 0 km/h
1288 31-05-2010 17:34:01 14.4 C 7.79 g/m*3 14.4 C 0 km/h
1289 31-05-2010 17:46:02 14.3 C 7.99 g/m*3 14.3 C 0 km/h
1290 31-05-2010 17:58:02 13.5 C 8.42 g/m*3 13.5 C 0 km/h
1291 31-05-2010 18:10:01 13.2 C 8.73 g/m*3 13.2 C 0 km/h
1292 31-05-2010 18:22:02 12.7 C 8.79 g/m*3 12.7 C 0 km/h
1293 31-05-2010 18:34:01 12.9 C 8.68 g/m*3 12.9 C 0 km/h
1294 31-05-2010 18:46:02 13.4 C 8.6 g/m*3 13.4 C 0 km/h
1295 31-05-2010 18:58:02 13.3 C 8.66 g/m*3 13.3 C 0 km/h
1296 31-05-2010 19:10:02 13 C 8.96 g/m*3 13 C 0 km/h
1297 31-05-2010 19:22:02 12.8 C 9.18 g/m*3 12.8 C 0 km/h
1298 31-05-2010 19:34:02 12.7 C 9.35 g/m*3 12.7 C 0 km/h
1299 31-05-2010 19:46:02 12.6 C 9.4 g/m*3 12.6 C 0 km/h
1300 31-05-2010 19:58:02 12.4 C 9.29 g/m*3 12.4 C 0 km/h
Sensor: Nr:Datum:Temp:Abs-Feuchte:Windchill:Wind:
Aussen-T/F 1301 31-05-2010 20:10:01 12.4 C 9.4 g/m*3 12.4 C 0 km/h
1302 31-05-2010 20:22:01 12.5 C 9.46 g/m*3 12.5 C 0 km/h
1303 31-05-2010 20:34:02 12.5 C 9.57 g/m*3 12.5 C 0 km/h
1304 31-05-2010 20:46:02 12.5 C 9.57 g/m*3 12.5 C 0 km/h
1305 31-05-2010 20:58:02 12.5 C 9.57 g/m*3 12.5 C 0 km/h
1306 31-05-2010 21:10:03 12.5 C 9.57 g/m*3 12.5 C 0 km/h
1307 31-05-2010 21:22:02 12.6 C 9.62 g/m*3 12.6 C 0 km/h
1308 31-05-2010 21:34:02 12.5 C 9.46 g/m*3 12.5 C 0 km/h
1309 31-05-2010 21:46:02 12.5 C 9.57 g/m*3 12.5 C 0 km/h
1310 31-05-2010 21:58:02 12.4 C 9.51 g/m*3 12.4 C 0 km/h
1311 31-05-2010 22:10:01 12.4 C 9.62 g/m*3 12.4 C 0 km/h
1312 31-05-2010 22:23:01 12.5 C 9.68 g/m*3 12.5 C 0 km/h
1313 31-05-2010 22:35:01 12.5 C 9.78 g/m*3 12.5 C 0 km/h
1314 31-05-2010 22:47:01 12.6 C 9.85 g/m*3 12.6 C 0 km/h
1315 31-05-2010 22:59:01 12.7 C 9.91 g/m*3 12.7 C 0 km/h
1316 31-05-2010 23:11:01 12.7 C 9.8 g/m*3 12.7 C 0 km/h
1317 31-05-2010 23:23:01 12.7 C 9.8 g/m*3 12.7 C 0 km/h
1318 31-05-2010 23:35:01 12.7 C 9.8 g/m*3 12.7 C 0 km/h
1319 31-05-2010 23:47:02 12.6 C 9.74 g/m*3 12.6 C 0 km/h
1320 31-05-2010 23:59:02 12.4 C 9.62 g/m*3 12.4 C 0 km/h
1321 01-06-2010 00:11:02 11.9 C 9.43 g/m*3 11.9 C 0 km/h
1322 01-06-2010 00:23:02 11.8 C 9.47 g/m*3 11.8 C 0 km/h
1323 01-06-2010 00:35:02 11.5 C 9.3 g/m*3 11.5 C 0 km/h
1324 01-06-2010 00:47:02 11.7 C 9.41 g/m*3 11.7 C 0 km/h
1325 01-06-2010 00:59:02 11.6 C 9.46 g/m*3 11.6 C 0 km/h
Sensor: Nr:Datum:Temp:Abs-Feuchte:Windchill:Wind:
Aussen-T/F 1326 01-06-2010 01:11:02 11.5 C 9.5 g/m*3 11.5 C 0 km/h
1327 01-06-2010 01:23:02 11.6 C 9.56 g/m*3 11.6 C 0 km/h
1328 01-06-2010 01:35:02 11.7 C 9.62 g/m*3 11.7 C 0 km/h
1329 01-06-2010 01:47:02 11.2 C 9.33 g/m*3 11.2 C 0 km/h
1330 01-06-2010 01:59:02 11.2 C 9.33 g/m*3 11.2 C 0 km/h
1331 01-06-2010 02:11:02 11 C 9.21 g/m*3 11 C 0 km/h
1332 01-06-2010 02:23:02 10.9 C 9.25 g/m*3 10.9 C 0 km/h
1333 01-06-2010 02:35:02 10.8 C 9.19 g/m*3 10.8 C 0 km/h
1334 01-06-2010 02:47:02 10.8 C 9.19 g/m*3 10.8 C 0 km/h
1335 01-06-2010 02:59:02 11.1 C 9.37 g/m*3 11.1 C 0 km/h
1336 01-06-2010 03:11:02 11.3 C 9.49 g/m*3 11.3 C 0 km/h
1337 01-06-2010 03:23:02 11.4 C 9.65 g/m*3 11.4 C 0 km/h
1338 01-06-2010 03:35:02 11.4 C 9.65 g/m*3 11.4 C 0 km/h
1339 01-06-2010 03:47:02 11.4 C 9.65 g/m*3 11.4 C 0 km/h
1340 01-06-2010 03:59:03 11.4 C 9.65 g/m*3 11.4 C 0 km/h
1341 01-06-2010 04:11:03 11.8 C 9.79 g/m*3 11.8 C 0 km/h
1342 01-06-2010 04:23:03 11.2 C 9.43 g/m*3 11.2 C 0 km/h
1343 01-06-2010 04:35:03 11 C 9.31 g/m*3 11 C 0 km/h
1344 01-06-2010 04:47:03 10.5 C 9.02 g/m*3 10.5 C 0 km/h
1345 01-06-2010 04:59:03 10.8 C 9.19 g/m*3 10.8 C 0 km/h
1346 01-06-2010 05:11:03 11 C 9.31 g/m*3 11 C 0 km/h
1347 01-06-2010 05:23:03 11.2 C 9.53 g/m*3 11.2 C 0 km/h
1348 01-06-2010 05:35:03 11.2 C 9.43 g/m*3 11.2 C 0 km/h
1349 01-06-2010 05:47:03 11.3 C 9.49 g/m*3 11.3 C 0 km/h
1350 01-06-2010 05:59:03 11.2 C 9.43 g/m*3 11.2 C 0 km/h
Sensor: Nr:Datum:Temp:Abs-Feuchte:Windchill:Wind:
Aussen-T/F 1351 01-06-2010 06:11:03 11.3 C 9.49 g/m*3 11.3 C 0 km/h
1352 01-06-2010 06:23:03 11.3 C 9.38 g/m*3 11.3 C 0 km/h
1353 01-06-2010 06:35:03 11.2 C 9.33 g/m*3 11.2 C 0 km/h
1354 01-06-2010 06:47:03 11.1 C 9.17 g/m*3 11.1 C 0 km/h
1355 01-06-2010 06:59:03 11.2 C 9.12 g/m*3 11.2 C 0 km/h
1356 01-06-2010 07:11:02 11.4 C 9.24 g/m*3 11.4 C 0 km/h
1357 01-06-2010 07:23:01 11.7 C 9.31 g/m*3 11.7 C 0 km/h
1358 01-06-2010 07:35:02 12 C 9.38 g/m*3 12 C 0 km/h
1359 01-06-2010 07:47:02 12.4 C 9.4 g/m*3 12.4 C 0 km/h
1360 01-06-2010 07:59:02 12.7 C 9.35 g/m*3 12.7 C 0 km/h
1361 01-06-2010 08:11:02 12.9 C 9.35 g/m*3 12.9 C 0 km/h
1362 01-06-2010 08:23:01 13.6 C 9.53 g/m*3 13.6 C 0 km/h
1363 01-06-2010 08:35:02 13.9 C 9.35 g/m*3 13.9 C 0 km/h
1364 01-06-2010 08:47:01 14.2 C 9.16 g/m*3 14.2 C 0 km/h
1365 01-06-2010 08:59:01 13.8 C 9.17 g/m*3 13.8 C 0 km/h
1366 01-06-2010 09:11:02 14.3 C 9.09 g/m*3 14.3 C 0 km/h
1367 01-06-2010 09:23:02 14.7 C 9.07 g/m*3 14.7 C 0 km/h
1368 01-06-2010 09:35:02 15.2 C 9.22 g/m*3 15.2 C 0 km/h
1369 01-06-2010 09:47:01 15 C 8.59 g/m*3 15 C 0 km/h
1370 01-06-2010 09:59:01 15.8 C 8.62 g/m*3 15.8 C 0 km/h
1371 01-06-2010 10:11:02 15.3 C 8.36 g/m*3 15.3 C 0 km/h
1372 01-06-2010 10:23:02 14.5 C 8.58 g/m*3 14.5 C 0 km/h
1373 01-06-2010 10:35:01 14.5 C 8.83 g/m*3 14.5 C 0 km/h
1374 01-06-2010 10:47:02 15.7 C 8.83 g/m*3 15.7 C 0 km/h
1375 01-06-2010 10:59:02 15.4 C 8.54 g/m*3 15.4 C 0 km/h
Sensor: Nr:Datum:Temp:Abs-Feuchte:Windchill:Wind:
Aussen-T/F 1376 01-06-2010 11:11:01 16.1 C 8.64 g/m*3 16.1 C 0 km/h
1377 01-06-2010 11:23:02 17.2 C 8.49 g/m*3 17.2 C 0 km/h
1378 01-06-2010 11:35:01 16.7 C 7.96 g/m*3 16.7 C 0 km/h
1379 01-06-2010 11:47:02 17.6 C 8.1 g/m*3 17.6 C 0 km/h
1380 01-06-2010 11:59:02 17.8 C 7.59 g/m*3 17.8 C 0 km/h
1381 01-06-2010 12:11:02 18.8 C 7.89 g/m*3 18.8 C 0 km/h
1382 01-06-2010 12:23:02 18.9 C 7.45 g/m*3 18.9 C 0 km/h
1383 01-06-2010 12:35:03 19.3 C 6.63 g/m*3 19.3 C 0 km/h
1384 01-06-2010 12:47:02 20.6 C 7.34 g/m*3 20.6 C 0 km/h
1385 01-06-2010 12:59:03 19.5 C 6.71 g/m*3 19.5 C 0 km/h
1386 01-06-2010 13:11:01 19.7 C 6.79 g/m*3 19.7 C 0 km/h
1387 01-06-2010 13:23:02 20.9 C 6.92 g/m*3 20.9 C 0 km/h
1388 01-06-2010 13:35:02 21.6 C 6.83 g/m*3 21.6 C 0 km/h
1389 01-06-2010 13:47:02 20.4 C 6.19 g/m*3 20.4 C 0 km/h
1390 01-06-2010 13:59:02 20.3 C 6.68 g/m*3 20.3 C 0 km/h
1391 01-06-2010 14:11:03 19.8 C 6.66 g/m*3 19.8 C 0 km/h
1392 01-06-2010 14:23:02 20.5 C 7.12 g/m*3 20.5 C 0 km/h
1393 01-06-2010 14:35:02 21 C 6.05 g/m*3 21 C 0 km/h
1394 01-06-2010 14:47:01 22 C 6.02 g/m*3 22 C 0 km/h
1395 01-06-2010 14:59:01 21.6 C 5.88 g/m*3 21.6 C 0 km/h
1396 01-06-2010 15:11:02 20.8 C 5.61 g/m*3 20.8 C 0 km/h
1397 01-06-2010 15:23:01 21.2 C 5.37 g/m*3 21.2 C 0 km/h
1398 01-06-2010 15:35:01 22.2 C 5.1 g/m*3 22.2 C 0 km/h
1399 01-06-2010 15:47:01 23.8 C 5.38 g/m*3 23.8 C 0 km/h
1400 01-06-2010 15:59:01 22.7 C 5.25 g/m*3 22.7 C 0 km/h
Sensor: Nr:Datum:Temp:Abs-Feuchte:Windchill:Wind:
Aussen-T/F 1401 01-06-2010 16:11:02 22.3 C 4.54 g/m*3 22.3 C 0 km/h
1402 01-06-2010 16:23:01 22.7 C 5.05 g/m*3 22.7 C 0 km/h
1403 01-06-2010 16:35:01 22.7 C 5.05 g/m*3 22.7 C 0 km/h
1404 01-06-2010 16:47:01 22.7 C 5.05 g/m*3 22.7 C 0 km/h
1405 01-06-2010 16:59:01 23.6 C 5.1 g/m*3 23.6 C 0 km/h
1406 01-06-2010 17:11:02 23.3 C 5.23 g/m*3 23.3 C 0 km/h
1407 01-06-2010 17:23:02 22.8 C 5.89 g/m*3 22.8 C 0 km/h
1408 01-06-2010 17:35:01 22.7 C 5.25 g/m*3 22.7 C 0 km/h
1409 01-06-2010 17:47:01 22.4 C 5.16 g/m*3 22.4 C 0 km/h
1410 01-06-2010 17:59:01 21.3 C 4.85 g/m*3 21.3 C 0 km/h
1411 01-06-2010 18:11:01 20.7 C 4.68 g/m*3 20.7 C 0 km/h
1412 01-06-2010 18:23:02 20.4 C 4.95 g/m*3 20.4 C 0 km/h
1413 01-06-2010 18:35:01 20.7 C 4.86 g/m*3 20.7 C 0 km/h
1414 01-06-2010 18:47:03 20.6 C 5.37 g/m*3 20.6 C 0 km/h
1415 01-06-2010 18:59:03 20.4 C 5.66 g/m*3 20.4 C 0 km/h
1416 01-06-2010 19:11:02 20.1 C 5.74 g/m*3 20.1 C 0 km/h
1417 01-06-2010 19:23:02 19.7 C 6.11 g/m*3 19.7 C 0 km/h
1418 01-06-2010 19:35:02 19.5 C 6.38 g/m*3 19.5 C 0 km/h
1419 01-06-2010 19:47:02 19.3 C 6.14 g/m*3 19.3 C 0 km/h
1420 01-06-2010 19:59:02 19.1 C 6.07 g/m*3 19.1 C 0 km/h
1421 01-06-2010 20:11:02 18.9 C 6.8 g/m*3 18.9 C 0 km/h
1422 01-06-2010 20:23:02 18.7 C 7.04 g/m*3 18.7 C 0 km/h
1423 01-06-2010 20:35:02 18.2 C 6.99 g/m*3 18.2 C 0 km/h
1424 01-06-2010 20:47:02 17.8 C 7.29 g/m*3 17.8 C 0 km/h
1425 01-06-2010 20:59:03 17.4 C 7.11 g/m*3 17.4 C 0 km/h
Sensor: Nr:Datum:Temp:Abs-Feuchte:Windchill:Wind:
Aussen-T/F 1426 01-06-2010 21:11:01 16.8 C 7.15 g/m*3 16.8 C 0 km/h
1427 01-06-2010 21:23:01 16.6 C 7.2 g/m*3 16.6 C 0 km/h
1428 01-06-2010 21:35:02 16.1 C 7.13 g/m*3 16.1 C 0 km/h
1429 01-06-2010 21:47:02 15.8 C 7 g/m*3 15.8 C 0 km/h
1430 01-06-2010 21:59:02 15.5 C 7.01 g/m*3 15.5 C 0 km/h
1431 01-06-2010 22:11:02 15.3 C 7.18 g/m*3 15.3 C 0 km/h
1432 01-06-2010 22:23:02 15.1 C 7.22 g/m*3 15.1 C 0 km/h
1433 01-06-2010 22:35:02 15 C 7.31 g/m*3 15 C 0 km/h
1434 01-06-2010 22:47:02 14.9 C 7.52 g/m*3 14.9 C 0 km/h
1435 01-06-2010 22:59:02 14.9 C 7.65 g/m*3 14.9 C 0 km/h
1436 01-06-2010 23:11:02 14.8 C 7.73 g/m*3 14.8 C 0 km/h
1437 01-06-2010 23:23:02 14.8 C 7.6 g/m*3 14.8 C 0 km/h
1438 01-06-2010 23:35:02 14.8 C 7.73 g/m*3 14.8 C 0 km/h
1439 01-06-2010 23:47:01 14.7 C 7.81 g/m*3 14.7 C 0 km/h
1440 01-06-2010 23:59:01 14.6 C 7.88 g/m*3 14.6 C 0 km/h
1441 02-06-2010 00:11:02 14.5 C 8.08 g/m*3 14.5 C 0 km/h
1442 02-06-2010 00:23:01 14.4 C 8.28 g/m*3 14.4 C 0 km/h
1443 02-06-2010 00:35:01 14.4 C 8.41 g/m*3 14.4 C 0 km/h
1444 02-06-2010 00:47:01 14.5 C 8.58 g/m*3 14.5 C 0 km/h
1445 02-06-2010 00:59:01 14.4 C 8.41 g/m*3 14.4 C 0 km/h
1446 02-06-2010 01:11:02 14.4 C 8.28 g/m*3 14.4 C 0 km/h
1447 02-06-2010 01:23:01 14.3 C 8.35 g/m*3 14.3 C 0 km/h
1448 02-06-2010 01:35:02 14.2 C 8.43 g/m*3 14.2 C 0 km/h
1449 02-06-2010 01:47:01 14.1 C 8.37 g/m*3 14.1 C 0 km/h
1450 02-06-2010 01:59:01 14.1 C 8.5 g/m*3 14.1 C 0 km/h
Sensor: Nr:Datum:Temp:Abs-Feuchte:Windchill:Wind:
Aussen-T/F 1451 02-06-2010 02:11:02 13.8 C 8.58 g/m*3 13.8 C 0 km/h
1452 02-06-2010 02:23:02 13.7 C 8.64 g/m*3 13.7 C 0 km/h
1453 02-06-2010 02:35:01 13.6 C 8.71 g/m*3 13.6 C 0 km/h
1454 02-06-2010 02:47:01 13.4 C 8.72 g/m*3 13.4 C 0 km/h
1455 02-06-2010 02:59:01 13.4 C 8.83 g/m*3 13.4 C 0 km/h
1456 02-06-2010 03:11:01 13.3 C 8.78 g/m*3 13.3 C 0 km/h
1457 02-06-2010 03:23:01 13.3 C 8.78 g/m*3 13.3 C 0 km/h
1458 02-06-2010 03:35:01 13.4 C 8.83 g/m*3 13.4 C 0 km/h
1459 02-06-2010 03:47:01 13.3 C 8.78 g/m*3 13.3 C 0 km/h
1460 02-06-2010 03:59:01 13.4 C 8.83 g/m*3 13.4 C 0 km/h
1461 02-06-2010 04:11:02 13.2 C 8.5 g/m*3 13.2 C 0 km/h
1462 02-06-2010 04:23:01 13.3 C 8.32 g/m*3 13.3 C 0 km/h
1463 02-06-2010 04:35:01 13.4 C 8.37 g/m*3 13.4 C 0 km/h
1464 02-06-2010 04:47:01 13.5 C 8.42 g/m*3 13.5 C 0 km/h
1465 02-06-2010 04:59:01 13.4 C 8.37 g/m*3 13.4 C 0 km/h
1466 02-06-2010 05:11:01 13.4 C 8.37 g/m*3 13.4 C 0 km/h
1467 02-06-2010 05:23:02 13.3 C 8.32 g/m*3 13.3 C 0 km/h
1468 02-06-2010 05:35:01 13.4 C 8.49 g/m*3 13.4 C 0 km/h
1469 02-06-2010 05:47:01 13.2 C 8.38 g/m*3 13.2 C 0 km/h
1470 02-06-2010 05:59:01 13.2 C 8.38 g/m*3 13.2 C 0 km/h
1471 02-06-2010 06:11:01 13.2 C 8.38 g/m*3 13.2 C 0 km/h
1472 02-06-2010 06:23:02 13.2 C 8.5 g/m*3 13.2 C 0 km/h
1473 02-06-2010 06:35:01 13.2 C 8.61 g/m*3 13.2 C 0 km/h
1474 02-06-2010 06:47:02 13.4 C 8.72 g/m*3 13.4 C 0 km/h
1475 02-06-2010 06:59:02 13.4 C 8.6 g/m*3 13.4 C 0 km/h
Sensor: Nr:Datum:Temp:Abs-Feuchte:Windchill:Wind:
Aussen-T/F 1476 02-06-2010 07:11:01 13.6 C 8.59 g/m*3 13.6 C 0 km/h
1477 02-06-2010 07:23:01 13.7 C 8.76 g/m*3 13.7 C 0 km/h
1478 02-06-2010 07:35:01 13.8 C 8.58 g/m*3 13.8 C 0 km/h
1479 02-06-2010 07:47:02 13.9 C 8.51 g/m*3 13.9 C 0 km/h
1480 02-06-2010 07:59:02 14.2 C 8.43 g/m*3 14.2 C 0 km/h
1481 02-06-2010 08:11:01 14.5 C 8.21 g/m*3 14.5 C 0 km/h
1482 02-06-2010 08:23:01 14.5 C 8.21 g/m*3 14.5 C 0 km/h
1483 02-06-2010 08:35:01 15.6 C 8.38 g/m*3 15.6 C 0 km/h
1484 02-06-2010 08:47:01 15.7 C 8.03 g/m*3 15.7 C 0 km/h
1485 02-06-2010 08:59:02 15.2 C 7.92 g/m*3 15.2 C 0 km/h
1486 02-06-2010 09:11:01 14.6 C 7.63 g/m*3 14.6 C 0 km/h
1487 02-06-2010 09:23:01 14.6 C 7.88 g/m*3 14.6 C 0 km/h
1488 02-06-2010 09:35:02 14.8 C 7.85 g/m*3 14.8 C 0 km/h
1489 02-06-2010 09:47:01 15.2 C 7.66 g/m*3 15.2 C 0 km/h
1490 02-06-2010 09:59:01 16.2 C 7.58 g/m*3 16.2 C 0 km/h
1491 02-06-2010 10:11:01 17 C 6.8 g/m*3 17 C 0 km/h
1492 02-06-2010 10:23:01 16.9 C 6.18 g/m*3 16.9 C 0 km/h
1493 02-06-2010 10:35:02 17.6 C 6.45 g/m*3 17.6 C 0 km/h
1494 02-06-2010 10:47:01 17.9 C 6.57 g/m*3 17.9 C 0 km/h
1495 02-06-2010 10:59:01 18.4 C 6.45 g/m*3 18.4 C 0 km/h
1496 02-06-2010 11:11:02 18.1 C 6.33 g/m*3 18.1 C 0 km/h
1497 02-06-2010 11:23:01 18.5 C 6.33 g/m*3 18.5 C 0 km/h
1498 02-06-2010 11:35:01 19.5 C 5.87 g/m*3 19.5 C 0 km/h
1499 02-06-2010 11:47:01 20.1 C 5.56 g/m*3 20.1 C 0 km/h
1500 02-06-2010 11:59:01 20.3 C 5.8 g/m*3 20.3 C 0 km/h
Sensor: Nr:Datum:Temp:Abs-Feuchte:Windchill:Wind:
Aussen-T/F 1501 02-06-2010 12:11:02 20.7 C 5.58 g/m*3 20.7 C 0 km/h
1502 02-06-2010 12:23:01 21.9 C 5.21 g/m*3 21.9 C 0 km/h
1503 02-06-2010 12:35:01 22.5 C 5.19 g/m*3 22.5 C 0 km/h
1504 02-06-2010 12:47:01 21.4 C 5.25 g/m*3 21.4 C 0 km/h
1505 02-06-2010 12:59:01 22.8 C 5.28 g/m*3 22.8 C 0 km/h
1506 02-06-2010 13:11:01 22.9 C 5.11 g/m*3 22.9 C 0 km/h
1507 02-06-2010 13:23:01 23.5 C 4.86 g/m*3 23.5 C 0 km/h
1508 02-06-2010 13:35:01 24.3 C 4.43 g/m*3 24.3 C 0 km/h
1509 02-06-2010 13:47:01 24.3 C 4.43 g/m*3 24.3 C 0 km/h
1510 02-06-2010 13:59:01 23.4 C 4.21 g/m*3 23.4 C 0 km/h
1511 02-06-2010 14:11:01 23.5 C 4.44 g/m*3 23.5 C 0 km/h
1512 02-06-2010 14:23:02 22.8 C 4.67 g/m*3 22.8 C 0 km/h
1513 02-06-2010 14:35:01 23.5 C 4.23 g/m*3 23.5 C 0 km/h
1514 02-06-2010 14:47:02 23.4 C 4.21 g/m*3 23.4 C 0 km/h
1515 02-06-2010 14:59:02 24.3 C 4.65 g/m*3 24.3 C 0 km/h
1516 02-06-2010 15:11:01 22.5 C 4.79 g/m*3 22.5 C 0 km/h
1517 02-06-2010 15:23:02 22.8 C 5.49 g/m*3 22.8 C 0 km/h
1518 02-06-2010 15:35:01 22.2 C 5.89 g/m*3 22.2 C 0 km/h
1519 02-06-2010 15:47:02 23.2 C 5.82 g/m*3 23.2 C 0 km/h
1520 02-06-2010 15:59:02 22.2 C 5.89 g/m*3 22.2 C 0 km/h
1521 02-06-2010 16:11:01 21.7 C 6.49 g/m*3 21.7 C 0 km/h
1522 02-06-2010 16:23:02 21.5 C 6.6 g/m*3 21.5 C 0 km/h
1523 02-06-2010 16:35:01 21.1 C 6.63 g/m*3 21.1 C 0 km/h
1524 02-06-2010 16:47:02 20.7 C 7.02 g/m*3 20.7 C 0 km/h
1525 02-06-2010 16:59:02 20.4 C 6.9 g/m*3 20.4 C 0 km/h
Sensor: Nr:Datum:Temp:Abs-Feuchte:Windchill:Wind:
Aussen-T/F 1526 02-06-2010 17:11:01 20.8 C 7.06 g/m*3 20.8 C 0 km/h
1527 02-06-2010 17:23:01 20.9 C 7.1 g/m*3 20.9 C 0 km/h
1528 02-06-2010 17:35:02 20.3 C 7.21 g/m*3 20.3 C 0 km/h
1529 02-06-2010 17:47:02 20.1 C 6.95 g/m*3 20.1 C 0 km/h
1530 02-06-2010 17:59:02 20.1 C 7.13 g/m*3 20.1 C 0 km/h
1531 02-06-2010 18:11:01 20.3 C 7.03 g/m*3 20.3 C 0 km/h
1532 02-06-2010 18:23:01 20.4 C 7.43 g/m*3 20.4 C 0 km/h
1533 02-06-2010 18:35:02 22 C 6.99 g/m*3 22 C 0 km/h
1534 02-06-2010 18:47:01 23.2 C 6.86 g/m*3 23.2 C 0 km/h
1535 02-06-2010 18:59:02 21.4 C 6.94 g/m*3 21.4 C 0 km/h
1536 02-06-2010 19:11:01 21 C 6.96 g/m*3 21 C 0 km/h
1537 02-06-2010 19:23:01 20.3 C 7.39 g/m*3 20.3 C 0 km/h
1538 02-06-2010 19:35:02 20.7 C 7.38 g/m*3 20.7 C 0 km/h
1539 02-06-2010 19:47:01 20.6 C 7.52 g/m*3 20.6 C 0 km/h
1540 02-06-2010 19:59:01 20.8 C 7.6 g/m*3 20.8 C 0 km/h
1541 02-06-2010 20:11:02 19.9 C 7.56 g/m*3 19.9 C 0 km/h
1542 02-06-2010 20:23:01 19.6 C 7.6 g/m*3 19.6 C 0 km/h
1543 02-06-2010 20:35:02 20.3 C 7.56 g/m*3 20.3 C 0 km/h
1544 02-06-2010 20:47:01 19.7 C 7.64 g/m*3 19.7 C 0 km/h
1545 02-06-2010 20:59:01 19.4 C 7.67 g/m*3 19.4 C 0 km/h
1546 02-06-2010 21:11:02 18.9 C 7.78 g/m*3 18.9 C 0 km/h
1547 02-06-2010 21:23:02 18.5 C 7.91 g/m*3 18.5 C 0 km/h
1548 02-06-2010 21:35:01 18.1 C 7.88 g/m*3 18.1 C 0 km/h
1549 02-06-2010 21:47:01 18.1 C 8.03 g/m*3 18.1 C 0 km/h
1550 02-06-2010 21:59:01 18.1 C 8.19 g/m*3 18.1 C 0 km/h
Sensor: Nr:Datum:Temp:Abs-Feuchte:Windchill:Wind:
Aussen-T/F 1551 02-06-2010 22:12:05 18.1 C 8.19 g/m*3 18.1 C 0 km/h
1552 02-06-2010 22:24:05 18 C 8.29 g/m*3 18 C 0 km/h
1553 02-06-2010 22:36:05 17.6 C 8.4 g/m*3 17.6 C 0 km/h
1554 02-06-2010 22:48:05 17.2 C 8.2 g/m*3 17.2 C 0 km/h
1555 02-06-2010 23:00:05 16.8 C 8.44 g/m*3 16.8 C 0 km/h
1556 02-06-2010 23:12:06 16.5 C 8.57 g/m*3 16.5 C 0 km/h
1557 02-06-2010 23:24:06 16.4 C 8.37 g/m*3 16.4 C 0 km/h
1558 02-06-2010 23:36:06 16.3 C 8.32 g/m*3 16.3 C 0 km/h
1559 02-06-2010 23:48:06 16.2 C 8.27 g/m*3 16.2 C 0 km/h
1560 03-06-2010 00:00:06 16.1 C 8.36 g/m*3 16.1 C 0 km/h
1561 03-06-2010 00:12:06 15.9 C 8.53 g/m*3 15.9 C 0 km/h
1562 03-06-2010 00:24:06 15.6 C 8.51 g/m*3 15.6 C 0 km/h
1563 03-06-2010 00:36:06 15.4 C 8.54 g/m*3 15.4 C 0 km/h
1564 03-06-2010 00:48:06 15.1 C 8.51 g/m*3 15.1 C 0 km/h
1565 03-06-2010 01:00:06 15 C 8.59 g/m*3 15 C 0 km/h
1566 03-06-2010 01:12:06 15 C 8.72 g/m*3 15 C 0 km/h
1567 03-06-2010 01:24:06 15 C 8.72 g/m*3 15 C 0 km/h
1568 03-06-2010 01:36:06 15 C 8.72 g/m*3 15 C 0 km/h
1569 03-06-2010 01:48:06 14.8 C 8.74 g/m*3 14.8 C 0 km/h
1570 03-06-2010 02:00:06 14.6 C 8.76 g/m*3 14.6 C 0 km/h
1571 03-06-2010 02:12:06 14.5 C 8.71 g/m*3 14.5 C 0 km/h
1572 03-06-2010 02:24:06 14.4 C 8.65 g/m*3 14.4 C 0 km/h
1573 03-06-2010 02:36:06 14.4 C 8.65 g/m*3 14.4 C 0 km/h
1574 03-06-2010 02:48:06 14.2 C 8.67 g/m*3 14.2 C 0 km/h
1575 03-06-2010 03:00:06 14.2 C 8.55 g/m*3 14.2 C 0 km/h
Sensor: Nr:Datum:Temp:Abs-Feuchte:Windchill:Wind:
Aussen-T/F 1576 03-06-2010 03:12:06 14.1 C 8.5 g/m*3 14.1 C 0 km/h
1577 03-06-2010 03:24:07 14.1 C 8.5 g/m*3 14.1 C 0 km/h
1578 03-06-2010 03:36:07 13.9 C 8.51 g/m*3 13.9 C 0 km/h
1579 03-06-2010 03:48:07 13.8 C 8.58 g/m*3 13.8 C 0 km/h
1580 03-06-2010 04:00:07 13.6 C 8.47 g/m*3 13.6 C 0 km/h
1581 03-06-2010 04:12:07 13.3 C 8.43 g/m*3 13.3 C 0 km/h
1582 03-06-2010 04:24:07 13 C 8.28 g/m*3 13 C 0 km/h
1583 03-06-2010 04:36:07 13.1 C 8.33 g/m*3 13.1 C 0 km/h
1584 03-06-2010 04:48:07 13 C 8.28 g/m*3 13 C 0 km/h
1585 03-06-2010 05:00:07 13 C 8.28 g/m*3 13 C 0 km/h
1586 03-06-2010 05:12:07 12.8 C 8.29 g/m*3 12.8 C 0 km/h
1587 03-06-2010 05:24:07 12.7 C 8.35 g/m*3 12.7 C 0 km/h
1588 03-06-2010 05:36:07 12.5 C 8.36 g/m*3 12.5 C 0 km/h
1589 03-06-2010 05:48:07 12.5 C 8.36 g/m*3 12.5 C 0 km/h
1590 03-06-2010 06:00:07 12.4 C 8.3 g/m*3 12.4 C 0 km/h
1591 03-06-2010 06:12:07 12.5 C 8.47 g/m*3 12.5 C 0 km/h
1592 03-06-2010 06:24:07 12.6 C 8.3 g/m*3 12.6 C 0 km/h
1593 03-06-2010 06:36:07 12.7 C 8.35 g/m*3 12.7 C 0 km/h
1594 03-06-2010 06:48:07 12.8 C 8.4 g/m*3 12.8 C 0 km/h
1595 03-06-2010 07:00:07 12.9 C 8.45 g/m*3 12.9 C 0 km/h
1596 03-06-2010 07:12:06 13 C 8.28 g/m*3 13 C 0 km/h
1597 03-06-2010 07:24:05 13.1 C 8.22 g/m*3 13.1 C 0 km/h
1598 03-06-2010 07:36:06 13.1 C 8.22 g/m*3 13.1 C 0 km/h
1599 03-06-2010 07:48:02 13.3 C 8.32 g/m*3 13.3 C 0 km/h
1600 03-06-2010 08:00:02 13.5 C 8.07 g/m*3 13.5 C 0 km/h
Sensor: Nr:Datum:Temp:Abs-Feuchte:Windchill:Wind:
Aussen-T/F 1601 03-06-2010 08:12:02 13.8 C 8.1 g/m*3 13.8 C 0 km/h
1602 03-06-2010 08:24:02 13.9 C 8.03 g/m*3 13.9 C 0 km/h
1603 03-06-2010 08:36:02 14.2 C 7.69 g/m*3 14.2 C 0 km/h
1604 03-06-2010 08:48:02 14.5 C 7.71 g/m*3 14.5 C 0 km/h
1605 03-06-2010 09:00:02 15 C 7.82 g/m*3 15 C 0 km/h
1606 03-06-2010 09:12:03 15.4 C 7.49 g/m*3 15.4 C 0 km/h
1607 03-06-2010 09:24:02 16 C 7.36 g/m*3 16 C 0 km/h
1608 03-06-2010 09:36:02 16.4 C 7.12 g/m*3 16.4 C 0 km/h
1609 03-06-2010 09:48:01 16.9 C 7.34 g/m*3 16.9 C 0 km/h
1610 03-06-2010 10:00:01 17.2 C 7.18 g/m*3 17.2 C 0 km/h
1611 03-06-2010 10:12:02 18.1 C 7.11 g/m*3 18.1 C 0 km/h
1612 03-06-2010 10:24:01 18.7 C 6.72 g/m*3 18.7 C 0 km/h
1613 03-06-2010 10:36:02 19.1 C 6.88 g/m*3 19.1 C 0 km/h
1614 03-06-2010 10:48:02 20 C 6.74 g/m*3 20 C 0 km/h
1615 03-06-2010 11:00:02 20.4 C 6.55 g/m*3 20.4 C 0 km/h
1616 03-06-2010 11:12:02 20.8 C 6.34 g/m*3 20.8 C 0 km/h
1617 03-06-2010 11:24:03 20.7 C 6.3 g/m*3 20.7 C 0 km/h
1618 03-06-2010 11:36:02 21.2 C 5.93 g/m*3 21.2 C 0 km/h
1619 03-06-2010 11:48:02 22.6 C 6.03 g/m*3 22.6 C 0 km/h
1620 03-06-2010 12:00:02 23.2 C 5.61 g/m*3 23.2 C 0 km/h
1621 03-06-2010 12:12:02 23.4 C 5.47 g/m*3 23.4 C 0 km/h
1622 03-06-2010 12:24:02 25 C 5.52 g/m*3 25 C 0 km/h
1623 03-06-2010 12:36:02 24.6 C 5.63 g/m*3 24.6 C 0 km/h
1624 03-06-2010 12:48:02 24.6 C 5.85 g/m*3 24.6 C 0 km/h
1625 03-06-2010 13:00:02 24.8 C 5.92 g/m*3 24.8 C 0 km/h
Sensor: Nr:Datum:Temp:Abs-Feuchte:Windchill:Wind:
Aussen-T/F 1626 03-06-2010 13:12:03 26.3 C 4.95 g/m*3 26.3 C 0 km/h
1627 03-06-2010 13:24:02 27.6 C 5.32 g/m*3 27.6 C 0 km/h
1628 03-06-2010 13:36:03 26.8 C 5.09 g/m*3 26.8 C 0 km/h
1629 03-06-2010 13:48:09 26.3 C 4.95 g/m*3 26.3 C 0 km/h
1630 03-06-2010 14:00:09 26.4 C 4.98 g/m*3 26.4 C 0 km/h
1631 03-06-2010 14:12:05 25.6 C 4.76 g/m*3 25.6 C 0 km/h
1632 03-06-2010 14:24:06 25.6 C 4.76 g/m*3 25.6 C 0 km/h
1633 03-06-2010 14:36:04 25.9 C 4.84 g/m*3 25.9 C 0 km/h
1634 03-06-2010 14:48:02 26.4 C 4.98 g/m*3 26.4 C 0 km/h
1635 03-06-2010 15:00:02 28.1 C 5.47 g/m*3 28.1 C 0 km/h
1636 03-06-2010 15:12:01 27.8 C 5.38 g/m*3 27.8 C 0 km/h
1637 03-06-2010 15:24:01 27.4 C 5.26 g/m*3 27.4 C 0 km/h
1638 03-06-2010 15:36:02 28.1 C 5.47 g/m*3 28.1 C 0 km/h
1639 03-06-2010 15:48:02 28.3 C 5.53 g/m*3 28.3 C 0 km/h
1640 03-06-2010 16:00:02 29.2 C 5.81 g/m*3 29.2 C 0 km/h
1641 03-06-2010 16:12:01 29 C 5.74 g/m*3 29 C 0 km/h
1642 03-06-2010 16:24:02 30.1 C 6.1 g/m*3 30.1 C 0 km/h
1643 03-06-2010 16:36:02 30.1 C 6.1 g/m*3 30.1 C 0 km/h
1644 03-06-2010 16:48:02 29 C 5.74 g/m*3 29 C 0 km/h
1645 03-06-2010 17:00:02 30.3 C 6.16 g/m*3 30.3 C 0 km/h
1646 03-06-2010 17:12:02 30 C 6.06 g/m*3 30 C 0 km/h
1647 03-06-2010 17:24:02 29.8 C 6 g/m*3 29.8 C 0 km/h
1648 03-06-2010 17:36:02 29.7 C 5.97 g/m*3 29.7 C 0 km/h
1649 03-06-2010 17:48:02 30.1 C 6.1 g/m*3 30.1 C 0 km/h
1650 03-06-2010 18:00:02 29.5 C 5.9 g/m*3 29.5 C 0 km/h
Sensor: Nr:Datum:Temp:Abs-Feuchte:Windchill:Wind:
Aussen-T/F 1651 03-06-2010 18:12:02 28.7 C 5.65 g/m*3 28.7 C 0 km/h
1652 03-06-2010 18:24:02 28.8 C 5.68 g/m*3 28.8 C 0 km/h
1653 03-06-2010 18:36:02 29.4 C 5.87 g/m*3 29.4 C 0 km/h
1654 03-06-2010 18:48:02 28.5 C 5.59 g/m*3 28.5 C 0 km/h
1655 03-06-2010 19:00:02 28.2 C 5.5 g/m*3 28.2 C 0 km/h
1656 03-06-2010 19:12:02 28.6 C 5.62 g/m*3 28.6 C 0 km/h
1657 03-06-2010 19:24:03 29.6 C 5.94 g/m*3 29.6 C 0 km/h
1658 03-06-2010 19:36:02 29.8 C 6 g/m*3 29.8 C 0 km/h
1659 03-06-2010 19:48:02 29.2 C 5.81 g/m*3 29.2 C 0 km/h
1660 03-06-2010 20:00:02 28.1 C 5.47 g/m*3 28.1 C 0 km/h
1661 03-06-2010 20:12:01 27.9 C 5.41 g/m*3 27.9 C 0 km/h
1662 03-06-2010 20:24:02 26.4 C 4.98 g/m*3 26.4 C 0 km/h
1663 03-06-2010 20:36:01 26.3 C 5.45 g/m*3 26.3 C 0 km/h
1664 03-06-2010 20:48:02 26.3 C 5.45 g/m*3 26.3 C 0 km/h
1665 03-06-2010 21:00:02 25.7 C 5.75 g/m*3 25.7 C 0 km/h
1666 03-06-2010 21:12:02 24.8 C 6.6 g/m*3 24.8 C 0 km/h
1667 03-06-2010 21:24:01 23.8 C 6.88 g/m*3 23.8 C 0 km/h
1668 03-06-2010 21:36:02 22.7 C 6.87 g/m*3 22.7 C 0 km/h
1669 03-06-2010 21:48:01 21.7 C 6.68 g/m*3 21.7 C 0 km/h
1670 03-06-2010 22:00:01 21 C 6.41 g/m*3 21 C 0 km/h
1671 03-06-2010 22:12:02 20.5 C 6.58 g/m*3 20.5 C 0 km/h
1672 03-06-2010 22:24:41 20.1 C 6.43 g/m*3 20.1 C 0 km/h
1673 03-06-2010 22:37:03 19.7 C 6.45 g/m*3 19.7 C 0 km/h
1674 03-06-2010 22:49:03 19.5 C 6.38 g/m*3 19.5 C 0 km/h
1675 03-06-2010 23:01:03 19.3 C 6.63 g/m*3 19.3 C 0 km/h
Sensor: Nr:Datum:Temp:Abs-Feuchte:Windchill:Wind:
Aussen-T/F 1676 03-06-2010 23:13:03 18.8 C 6.44 g/m*3 18.8 C 0 km/h
1677 03-06-2010 23:25:03 18.6 C 6.68 g/m*3 18.6 C 0 km/h
1678 03-06-2010 23:37:03 18.3 C 6.57 g/m*3 18.3 C 0 km/h
1679 03-06-2010 23:49:03 18.2 C 6.53 g/m*3 18.2 C 0 km/h
1680 04-06-2010 00:01:03 17.9 C 6.72 g/m*3 17.9 C 0 km/h
1681 04-06-2010 00:13:03 17.7 C 6.79 g/m*3 17.7 C 0 km/h
1682 04-06-2010 00:25:03 17.5 C 6.86 g/m*3 17.5 C 0 km/h
1683 04-06-2010 00:37:03 17.2 C 6.88 g/m*3 17.2 C 0 km/h
1684 04-06-2010 00:49:03 16.9 C 7.05 g/m*3 16.9 C 0 km/h
1685 04-06-2010 01:01:03 16.6 C 6.92 g/m*3 16.6 C 0 km/h
1686 04-06-2010 01:13:03 16.1 C 6.99 g/m*3 16.1 C 0 km/h
1687 04-06-2010 01:25:03 15.9 C 7.18 g/m*3 15.9 C 0 km/h
1688 04-06-2010 01:37:04 15.6 C 7.05 g/m*3 15.6 C 0 km/h
1689 04-06-2010 01:49:04 15.3 C 7.05 g/m*3 15.3 C 0 km/h
1690 04-06-2010 02:01:04 15.2 C 7.14 g/m*3 15.2 C 0 km/h
1691 04-06-2010 02:13:04 14.8 C 7.09 g/m*3 14.8 C 0 km/h
1692 04-06-2010 02:25:04 14.5 C 7.21 g/m*3 14.5 C 0 km/h
1693 04-06-2010 02:37:04 14.4 C 7.29 g/m*3 14.4 C 0 km/h
1694 04-06-2010 02:49:04 14.3 C 7.37 g/m*3 14.3 C 0 km/h
1695 04-06-2010 03:01:04 14 C 7.24 g/m*3 14 C 0 km/h
1696 04-06-2010 03:13:04 13.9 C 7.43 g/m*3 13.9 C 0 km/h
1697 04-06-2010 03:25:04 13.6 C 7.41 g/m*3 13.6 C 0 km/h
1698 04-06-2010 03:37:04 13.5 C 7.49 g/m*3 13.5 C 0 km/h
1699 04-06-2010 03:49:04 13.2 C 7.58 g/m*3 13.2 C 0 km/h
1700 04-06-2010 04:01:04 13.1 C 7.65 g/m*3 13.1 C 0 km/h
Sensor: Nr:Datum:Temp:Abs-Feuchte:Windchill:Wind:
Aussen-T/F 1701 04-06-2010 04:13:04 13 C 7.6 g/m*3 13 C 0 km/h
1702 04-06-2010 04:25:04 12.8 C 7.62 g/m*3 12.8 C 0 km/h
1703 04-06-2010 04:37:04 12.7 C 7.68 g/m*3 12.7 C 0 km/h
1704 04-06-2010 04:49:04 12.3 C 7.49 g/m*3 12.3 C 0 km/h
1705 04-06-2010 05:01:04 12.4 C 7.65 g/m*3 12.4 C 0 km/h
1706 04-06-2010 05:13:04 12.4 C 7.54 g/m*3 12.4 C 0 km/h
1707 04-06-2010 05:25:04 12 C 7.57 g/m*3 12 C 0 km/h
1708 04-06-2010 05:37:04 12 C 7.57 g/m*3 12 C 0 km/h
1709 04-06-2010 05:49:04 11.8 C 7.68 g/m*3 11.8 C 0 km/h
1710 04-06-2010 06:01:05 11.9 C 7.73 g/m*3 11.9 C 0 km/h
1711 04-06-2010 06:13:05 11.8 C 7.79 g/m*3 11.8 C 0 km/h
1712 04-06-2010 06:25:05 11.9 C 7.84 g/m*3 11.9 C 0 km/h
1713 04-06-2010 06:37:05 12 C 7.89 g/m*3 12 C 0 km/h
1714 04-06-2010 06:49:05 12.1 C 7.94 g/m*3 12.1 C 0 km/h
1715 04-06-2010 07:01:05 12.1 C 7.94 g/m*3 12.1 C 0 km/h
1716 04-06-2010 07:13:05 12.4 C 8.09 g/m*3 12.4 C 0 km/h
1717 04-06-2010 07:25:05 12.4 C 7.98 g/m*3 12.4 C 0 km/h
1718 04-06-2010 07:37:03 12.5 C 8.03 g/m*3 12.5 C 0 km/h
1719 04-06-2010 07:49:02 12.8 C 8.18 g/m*3 12.8 C 0 km/h
1720 04-06-2010 08:01:02 13 C 8.17 g/m*3 13 C 0 km/h
1721 04-06-2010 08:13:02 13.3 C 8.2 g/m*3 13.3 C 0 km/h
1722 04-06-2010 08:25:01 13.6 C 8.24 g/m*3 13.6 C 0 km/h
1723 04-06-2010 08:37:02 14 C 8.32 g/m*3 14 C 0 km/h
1724 04-06-2010 08:49:01 14.7 C 8.44 g/m*3 14.7 C 0 km/h
1725 04-06-2010 09:01:02 15.4 C 8.41 g/m*3 15.4 C 0 km/h
Sensor: Nr:Datum:Temp:Abs-Feuchte:Windchill:Wind:
Aussen-T/F 1726 04-06-2010 09:13:02 16 C 8.17 g/m*3 16 C 0 km/h
1727 04-06-2010 09:25:02 16.8 C 8.44 g/m*3 16.8 C 0 km/h
1728 04-06-2010 09:37:02 17.5 C 8.5 g/m*3 17.5 C 0 km/h
1729 04-06-2010 09:49:02 18.2 C 8.24 g/m*3 18.2 C 0 km/h
1730 04-06-2010 10:01:02 18.7 C 8.17 g/m*3 18.7 C 0 km/h
1731 04-06-2010 10:13:02 19.6 C 8.44 g/m*3 19.6 C 0 km/h
1732 04-06-2010 10:25:06 20.2 C 8.04 g/m*3 20.2 C 0 km/h
1733 04-06-2010 10:37:09 20.6 C 7.87 g/m*3 20.6 C 0 km/h
1734 04-06-2010 10:49:05 21.2 C 7.97 g/m*3 21.2 C 0 km/h
1735 04-06-2010 11:01:04 22 C 7.57 g/m*3 22 C 0 km/h
1736 04-06-2010 11:13:04 21.4 C 7.12 g/m*3 21.4 C 0 km/h
1737 04-06-2010 11:25:03 21.8 C 7.48 g/m*3 21.8 C 0 km/h
1738 04-06-2010 11:37:03 22.5 C 6.99 g/m*3 22.5 C 0 km/h
1739 04-06-2010 11:49:02 22.8 C 6.71 g/m*3 22.8 C 0 km/h
1740 04-06-2010 12:01:01 24.5 C 6.04 g/m*3 24.5 C 0 km/h
1741 04-06-2010 12:13:01 25.7 C 5.99 g/m*3 25.7 C 0 km/h
1742 04-06-2010 12:25:02 25.8 C 6.26 g/m*3 25.8 C 0 km/h
1743 04-06-2010 12:37:02 26.8 C 5.85 g/m*3 26.8 C 0 km/h
1744 04-06-2010 12:49:02 26.3 C 5.2 g/m*3 26.3 C 0 km/h
1745 04-06-2010 13:01:02 27.6 C 6.12 g/m*3 27.6 C 0 km/h
1746 04-06-2010 13:13:02 28.3 C 5.53 g/m*3 28.3 C 0 km/h
1747 04-06-2010 13:25:02 29.6 C 5.94 g/m*3 29.6 C 0 km/h
1748 04-06-2010 13:37:02 29.8 C 6 g/m*3 29.8 C 0 km/h
1749 04-06-2010 13:49:01 29.6 C 5.94 g/m*3 29.6 C 0 km/h
1750 04-06-2010 14:01:02 28.2 C 5.5 g/m*3 28.2 C 0 km/h
Sensor: Nr:Datum:Temp:Abs-Feuchte:Windchill:Wind:
Aussen-T/F 1751 04-06-2010 14:13:02 27.9 C 5.68 g/m*3 27.9 C 0 km/h
1752 04-06-2010 14:25:01 28 C 5.98 g/m*3 28 C 0 km/h
1753 04-06-2010 14:37:01 27.7 C 5.62 g/m*3 27.7 C 0 km/h
1754 04-06-2010 14:49:01 27.7 C 5.62 g/m*3 27.7 C 0 km/h
1755 04-06-2010 15:01:02 28.2 C 5.5 g/m*3 28.2 C 0 km/h
1756 04-06-2010 15:13:02 28.2 C 5.5 g/m*3 28.2 C 0 km/h
1757 04-06-2010 15:25:01 29.3 C 5.84 g/m*3 29.3 C 0 km/h
1758 04-06-2010 15:37:01 29.2 C 5.81 g/m*3 29.2 C 0 km/h
1759 04-06-2010 15:49:01 30.8 C 6.33 g/m*3 30.8 C 0 km/h
1760 04-06-2010 16:01:02 30.2 C 6.13 g/m*3 30.2 C 0 km/h
1761 04-06-2010 16:13:03 30.7 C 6.3 g/m*3 30.7 C 0 km/h
1762 04-06-2010 16:25:01 30.1 C 6.1 g/m*3 30.1 C 0 km/h
1763 04-06-2010 16:37:02 29.9 C 6.03 g/m*3 29.9 C 0 km/h
1764 04-06-2010 16:49:02 31 C 6.4 g/m*3 31 C 0 km/h
1765 04-06-2010 17:01:02 31 C 6.4 g/m*3 31 C 0 km/h
1766 04-06-2010 17:13:02 30.4 C 6.2 g/m*3 30.4 C 0 km/h
1767 04-06-2010 17:25:02 30.8 C 6.33 g/m*3 30.8 C 0 km/h
1768 04-06-2010 17:37:02 31.6 C 6.61 g/m*3 31.6 C 0 km/h
1769 04-06-2010 17:49:02 31.4 C 6.54 g/m*3 31.4 C 0 km/h
1770 04-06-2010 18:01:02 31.8 C 6.68 g/m*3 31.8 C 0 km/h
1771 04-06-2010 18:13:02 32.3 C 6.86 g/m*3 32.3 C 0 km/h
1772 04-06-2010 18:25:01 32 C 6.75 g/m*3 32 C 0 km/h
1773 04-06-2010 18:37:02 31.5 C 6.57 g/m*3 31.5 C 0 km/h
1774 04-06-2010 18:49:02 31.8 C 6.68 g/m*3 31.8 C 0 km/h
1775 04-06-2010 19:01:02 30.8 C 6.33 g/m*3 30.8 C 0 km/h
Sensor: Nr:Datum:Temp:Abs-Feuchte:Windchill:Wind:
Aussen-T/F 1776 04-06-2010 19:13:02 30.6 C 6.26 g/m*3 30.6 C 0 km/h
1777 04-06-2010 19:25:02 30.4 C 6.2 g/m*3 30.4 C 0 km/h
1778 04-06-2010 19:37:02 30.3 C 6.16 g/m*3 30.3 C 0 km/h
1779 04-06-2010 19:49:01 30.1 C 6.1 g/m*3 30.1 C 0 km/h
1780 04-06-2010 20:01:02 29.9 C 6.03 g/m*3 29.9 C 0 km/h
1781 04-06-2010 20:13:02 29.6 C 5.94 g/m*3 29.6 C 0 km/h
1782 04-06-2010 20:25:01 28.9 C 5.71 g/m*3 28.9 C 0 km/h
1783 04-06-2010 20:37:01 28.8 C 5.68 g/m*3 28.8 C 0 km/h
1784 04-06-2010 20:49:01 28 C 5.98 g/m*3 28 C 0 km/h
1785 04-06-2010 21:01:02 26.2 C 5.91 g/m*3 26.2 C 0 km/h
1786 04-06-2010 21:13:03 24.9 C 6.18 g/m*3 24.9 C 0 km/h
1787 04-06-2010 21:25:01 23.9 C 6.27 g/m*3 23.9 C 0 km/h
1788 04-06-2010 21:37:01 23.3 C 6.48 g/m*3 23.3 C 0 km/h
1789 04-06-2010 21:49:01 23.2 C 6.44 g/m*3 23.2 C 0 km/h
1790 04-06-2010 22:01:02 22.9 C 6.54 g/m*3 22.9 C 0 km/h
1791 04-06-2010 22:13:02 22.5 C 6.79 g/m*3 22.5 C 0 km/h
1792 04-06-2010 22:25:01 22.1 C 6.83 g/m*3 22.1 C 0 km/h
1793 04-06-2010 22:37:02 21.6 C 7.02 g/m*3 21.6 C 0 km/h
1794 04-06-2010 22:50:37 21 C 7.14 g/m*3 21 C 0 km/h
1795 04-06-2010 23:02:37 20.5 C 7.47 g/m*3 20.5 C 0 km/h
1796 04-06-2010 23:14:37 20.3 C 7.39 g/m*3 20.3 C 0 km/h
1797 04-06-2010 23:26:37 19.9 C 7.56 g/m*3 19.9 C 0 km/h
1798 04-06-2010 23:38:37 19.4 C 7.67 g/m*3 19.4 C 0 km/h
1799 04-06-2010 23:50:37 19 C 7.66 g/m*3 19 C 0 km/h
1800 05-06-2010 00:02:37 18.6 C 7.8 g/m*3 18.6 C 0 km/h
Sensor: Nr:Datum:Temp:Abs-Feuchte:Windchill:Wind:
Aussen-T/F 1801 05-06-2010 00:14:37 18.4 C 7.86 g/m*3 18.4 C 0 km/h
1802 05-06-2010 00:26:37 18.1 C 7.88 g/m*3 18.1 C 0 km/h
1803 05-06-2010 00:38:37 18 C 7.99 g/m*3 18 C 0 km/h
1804 05-06-2010 00:50:37 17.7 C 8 g/m*3 17.7 C 0 km/h
1805 05-06-2010 01:02:37 17.5 C 7.9 g/m*3 17.5 C 0 km/h
1806 05-06-2010 01:14:37 17.3 C 7.96 g/m*3 17.3 C 0 km/h
1807 05-06-2010 01:26:37 17.2 C 7.91 g/m*3 17.2 C 0 km/h
1808 05-06-2010 01:38:37 17 C 7.96 g/m*3 17 C 0 km/h
1809 05-06-2010 01:50:37 16.7 C 8.1 g/m*3 16.7 C 0 km/h
1810 05-06-2010 02:02:37 16.4 C 8.1 g/m*3 16.4 C 0 km/h
1811 05-06-2010 02:14:37 16 C 8.04 g/m*3 16 C 0 km/h
1812 05-06-2010 02:26:38 15.8 C 8.21 g/m*3 15.8 C 0 km/h
1813 05-06-2010 02:38:38 15.6 C 8.25 g/m*3 15.6 C 0 km/h
1814 05-06-2010 02:50:38 15.3 C 8.23 g/m*3 15.3 C 0 km/h
1815 05-06-2010 03:02:38 15.3 C 8.36 g/m*3 15.3 C 0 km/h
1816 05-06-2010 03:14:38 14.8 C 8.49 g/m*3 14.8 C 0 km/h
1817 05-06-2010 03:26:38 14.8 C 8.36 g/m*3 14.8 C 0 km/h
1818 05-06-2010 03:38:38 14.7 C 8.44 g/m*3 14.7 C 0 km/h
1819 05-06-2010 03:50:38 14.6 C 8.51 g/m*3 14.6 C 0 km/h
1820 05-06-2010 04:02:38 14.5 C 8.33 g/m*3 14.5 C 0 km/h
1821 05-06-2010 04:14:38 14.5 C 8.33 g/m*3 14.5 C 0 km/h
1822 05-06-2010 04:26:38 14.3 C 8.35 g/m*3 14.3 C 0 km/h
1823 05-06-2010 04:38:38 14.1 C 8.25 g/m*3 14.1 C 0 km/h
1824 05-06-2010 04:50:38 14.3 C 8.48 g/m*3 14.3 C 0 km/h
1825 05-06-2010 05:02:38 13.7 C 8.29 g/m*3 13.7 C 0 km/h
Sensor: Nr:Datum:Temp:Abs-Feuchte:Windchill:Wind:
Aussen-T/F 1826 05-06-2010 05:14:38 13.5 C 8.19 g/m*3 13.5 C 0 km/h
1827 05-06-2010 05:26:38 13.5 C 8.3 g/m*3 13.5 C 0 km/h
1828 05-06-2010 05:38:38 13.3 C 8.32 g/m*3 13.3 C 0 km/h
1829 05-06-2010 05:50:38 13.2 C 8.27 g/m*3 13.2 C 0 km/h
1830 05-06-2010 06:02:38 13 C 8.28 g/m*3 13 C 0 km/h
1831 05-06-2010 06:14:38 13 C 8.39 g/m*3 13 C 0 km/h
1832 05-06-2010 06:26:38 13 C 8.39 g/m*3 13 C 0 km/h
1833 05-06-2010 06:38:39 13.2 C 8.61 g/m*3 13.2 C 0 km/h
1834 05-06-2010 06:50:39 13.4 C 8.6 g/m*3 13.4 C 0 km/h
1835 05-06-2010 07:02:39 13.5 C 8.66 g/m*3 13.5 C 0 km/h
1836 05-06-2010 07:14:39 13.8 C 8.7 g/m*3 13.8 C 0 km/h
1837 05-06-2010 07:26:39 13.7 C 8.53 g/m*3 13.7 C 0 km/h
1838 05-06-2010 07:38:39 13.8 C 8.46 g/m*3 13.8 C 0 km/h
1839 05-06-2010 07:50:39 14 C 8.56 g/m*3 14 C 0 km/h
1840 05-06-2010 08:02:02 14.4 C 8.65 g/m*3 14.4 C 0 km/h
1841 05-06-2010 08:14:02 14.7 C 8.69 g/m*3 14.7 C 0 km/h
1842 05-06-2010 08:26:02 15.2 C 8.31 g/m*3 15.2 C 0 km/h
1843 05-06-2010 08:38:02 15.5 C 8.33 g/m*3 15.5 C 0 km/h
1844 05-06-2010 08:50:01 15.8 C 8.08 g/m*3 15.8 C 0 km/h
1845 05-06-2010 09:02:02 16.4 C 8.37 g/m*3 16.4 C 0 km/h
1846 05-06-2010 09:14:02 17.1 C 8.44 g/m*3 17.1 C 0 km/h
1847 05-06-2010 09:26:02 17.9 C 8.7 g/m*3 17.9 C 0 km/h
1848 05-06-2010 09:38:01 18.7 C 8.81 g/m*3 18.7 C 0 km/h
1849 05-06-2010 09:50:02 19.4 C 8.84 g/m*3 19.4 C 0 km/h
1850 05-06-2010 10:02:01 19.9 C 8.93 g/m*3 19.9 C 0 km/h
Sensor: Nr:Datum:Temp:Abs-Feuchte:Windchill:Wind:
Aussen-T/F 1851 05-06-2010 10:14:01 20.9 C 9.11 g/m*3 20.9 C 0 km/h
1852 05-06-2010 10:26:02 21.4 C 9 g/m*3 21.4 C 0 km/h
1853 05-06-2010 10:38:01 22.5 C 8.99 g/m*3 22.5 C 0 km/h
1854 05-06-2010 10:50:02 23 C 8.84 g/m*3 23 C 0 km/h
1855 05-06-2010 11:02:01 23.4 C 8.83 g/m*3 23.4 C 0 km/h
1856 05-06-2010 11:14:01 24.1 C 8.75 g/m*3 24.1 C 0 km/h
1857 05-06-2010 11:26:01 25 C 8.52 g/m*3 25 C 0 km/h
1858 05-06-2010 11:38:02 26 C 8.03 g/m*3 26 C 0 km/h
1859 05-06-2010 11:50:02 26.7 C 7.85 g/m*3 26.7 C 0 km/h
1860 05-06-2010 12:02:01 26.8 C 7.64 g/m*3 26.8 C 0 km/h
1861 05-06-2010 12:14:01 27.4 C 6.31 g/m*3 27.4 C 0 km/h
1862 05-06-2010 12:26:02 28 C 5.44 g/m*3 28 C 0 km/h
1863 05-06-2010 12:38:02 28.9 C 6.28 g/m*3 28.9 C 0 km/h
1864 05-06-2010 12:50:02 30.2 C 6.44 g/m*3 30.2 C 0 km/h
1865 05-06-2010 13:02:03 29 C 5.74 g/m*3 29 C 0 km/h
1866 05-06-2010 13:14:03 30.1 C 6.1 g/m*3 30.1 C 0 km/h
1867 05-06-2010 13:26:02 31.2 C 6.47 g/m*3 31.2 C 0 km/h
1868 05-06-2010 13:38:02 31.6 C 6.61 g/m*3 31.6 C 0 km/h
1869 05-06-2010 13:50:01 30.9 C 6.37 g/m*3 30.9 C 0 km/h
1870 05-06-2010 14:02:02 30.1 C 6.1 g/m*3 30.1 C 0 km/h
1871 05-06-2010 14:14:03 29.5 C 5.9 g/m*3 29.5 C 0 km/h
1872 05-06-2010 14:26:01 29.9 C 6.03 g/m*3 29.9 C 0 km/h
1873 05-06-2010 14:38:01 30.7 C 6.3 g/m*3 30.7 C 0 km/h
1874 05-06-2010 14:50:01 31 C 6.4 g/m*3 31 C 0 km/h
1875 05-06-2010 15:02:02 30.8 C 6.33 g/m*3 30.8 C 0 km/h
Sensor: Nr:Datum:Temp:Abs-Feuchte:Windchill:Wind:
Aussen-T/F 1876 05-06-2010 15:14:02 31.6 C 6.61 g/m*3 31.6 C 0 km/h
1877 05-06-2010 15:26:02 32.1 C 6.79 g/m*3 32.1 C 0 km/h
1878 05-06-2010 15:38:01 32.7 C 7.01 g/m*3 32.7 C 0 km/h
1879 05-06-2010 15:50:01 31.8 C 6.68 g/m*3 31.8 C 0 km/h
1880 05-06-2010 16:02:01 31.7 C 6.64 g/m*3 31.7 C 0 km/h
1881 05-06-2010 16:14:01 32.4 C 6.9 g/m*3 32.4 C 0 km/h
1882 05-06-2010 16:26:02 33.1 C 7.16 g/m*3 33.1 C 0 km/h
1883 05-06-2010 16:38:01 33.2 C 7.2 g/m*3 33.2 C 0 km/h
1884 05-06-2010 16:50:02 33 C 7.12 g/m*3 33 C 0 km/h
1885 05-06-2010 17:02:01 33.3 C 7.23 g/m*3 33.3 C 0 km/h
1886 05-06-2010 17:14:01 33.3 C 7.23 g/m*3 33.3 C 0 km/h
1887 05-06-2010 17:26:01 32.9 C 7.08 g/m*3 32.9 C 0 km/h
1888 05-06-2010 17:38:01 33 C 7.12 g/m*3 33 C 0 km/h
1889 05-06-2010 17:50:01 33.3 C 7.23 g/m*3 33.3 C 0 km/h
1890 05-06-2010 18:02:02 32.9 C 7.08 g/m*3 32.9 C 0 km/h
1891 05-06-2010 18:14:02 33.1 C 7.16 g/m*3 33.1 C 0 km/h
1892 05-06-2010 18:26:01 33.2 C 7.2 g/m*3 33.2 C 0 km/h
1893 05-06-2010 18:38:01 33.3 C 7.23 g/m*3 33.3 C 0 km/h
1894 05-06-2010 18:50:01 32.9 C 7.08 g/m*3 32.9 C 0 km/h
1895 05-06-2010 19:02:02 33.1 C 7.16 g/m*3 33.1 C 0 km/h
1896 05-06-2010 19:14:02 31.9 C 6.72 g/m*3 31.9 C 0 km/h
1897 05-06-2010 19:26:02 31.7 C 6.98 g/m*3 31.7 C 0 km/h
1898 05-06-2010 19:38:01 31.2 C 7.12 g/m*3 31.2 C 0 km/h
1899 05-06-2010 19:50:01 31 C 7.36 g/m*3 31 C 0 km/h
1900 05-06-2010 20:02:01 30.5 C 7.79 g/m*3 30.5 C 0 km/h
Sensor: Nr:Datum:Temp:Abs-Feuchte:Windchill:Wind:
Aussen-T/F 1901 05-06-2010 20:14:01 29.8 C 7.8 g/m*3 29.8 C 0 km/h
1902 05-06-2010 20:26:02 29 C 7.76 g/m*3 29 C 0 km/h
1903 05-06-2010 20:38:01 28.5 C 7.83 g/m*3 28.5 C 0 km/h
1904 05-06-2010 20:50:02 27.4 C 7.89 g/m*3 27.4 C 0 km/h
1905 05-06-2010 21:02:01 26.3 C 7.67 g/m*3 26.3 C 0 km/h
1906 05-06-2010 21:14:01 25.7 C 7.9 g/m*3 25.7 C 0 km/h
1907 05-06-2010 21:26:02 25.2 C 7.68 g/m*3 25.2 C 0 km/h
1908 05-06-2010 21:38:01 25.1 C 7.64 g/m*3 25.1 C 0 km/h
1909 05-06-2010 21:50:02 24.5 C 7.83 g/m*3 24.5 C 0 km/h
1910 05-06-2010 22:02:02 24.1 C 8.1 g/m*3 24.1 C 0 km/h
1911 05-06-2010 22:14:02 23.7 C 8.34 g/m*3 23.7 C 0 km/h
1912 05-06-2010 22:26:02 23.2 C 8.32 g/m*3 23.2 C 0 km/h
1913 05-06-2010 22:38:02 23 C 8.43 g/m*3 23 C 0 km/h
1914 05-06-2010 22:51:02 22.9 C 8.17 g/m*3 22.9 C 0 km/h
1915 05-06-2010 23:03:03 22.5 C 8.19 g/m*3 22.5 C 0 km/h
1916 05-06-2010 23:15:03 22.2 C 8.05 g/m*3 22.2 C 0 km/h
1917 05-06-2010 23:27:03 21.9 C 8.3 g/m*3 21.9 C 0 km/h
1918 05-06-2010 23:39:03 21.5 C 8.49 g/m*3 21.5 C 0 km/h
1919 05-06-2010 23:51:03 21.3 C 8.39 g/m*3 21.3 C 0 km/h
1920 06-06-2010 00:03:03 21.1 C 8.48 g/m*3 21.1 C 0 km/h
1921 06-06-2010 00:15:03 21 C 8.61 g/m*3 21 C 0 km/h
1922 06-06-2010 00:27:03 20.8 C 8.69 g/m*3 20.8 C 0 km/h
1923 06-06-2010 00:39:03 20.4 C 8.67 g/m*3 20.4 C 0 km/h
1924 06-06-2010 00:51:03 20.2 C 8.74 g/m*3 20.2 C 0 km/h
1925 06-06-2010 01:03:03 19.9 C 8.93 g/m*3 19.9 C 0 km/h
Sensor: Nr:Datum:Temp:Abs-Feuchte:Windchill:Wind:
Aussen-T/F 1926 06-06-2010 01:15:03 19.5 C 8.89 g/m*3 19.5 C 0 km/h
1927 06-06-2010 01:27:03 19.3 C 8.96 g/m*3 19.3 C 0 km/h
1928 06-06-2010 01:39:03 19 C 8.8 g/m*3 19 C 0 km/h
1929 06-06-2010 01:51:03 18.7 C 9.13 g/m*3 18.7 C 0 km/h
1930 06-06-2010 02:03:03 18.5 C 9.33 g/m*3 18.5 C 0 km/h
1931 06-06-2010 02:15:03 18.3 C 9.22 g/m*3 18.3 C 0 km/h
1932 06-06-2010 02:27:03 18.1 C 9.27 g/m*3 18.1 C 0 km/h
1933 06-06-2010 02:39:03 18.1 C 9.27 g/m*3 18.1 C 0 km/h
1934 06-06-2010 02:51:03 17.9 C 9.47 g/m*3 17.9 C 0 km/h
1935 06-06-2010 03:03:03 17.7 C 9.35 g/m*3 17.7 C 0 km/h
1936 06-06-2010 03:15:03 17.4 C 9.19 g/m*3 17.4 C 0 km/h
1937 06-06-2010 03:27:04 17.3 C 9.13 g/m*3 17.3 C 0 km/h
1938 06-06-2010 03:39:04 17.3 C 9.28 g/m*3 17.3 C 0 km/h
1939 06-06-2010 03:51:04 17.1 C 9.17 g/m*3 17.1 C 0 km/h
1940 06-06-2010 04:03:04 16.9 C 9.21 g/m*3 16.9 C 0 km/h
1941 06-06-2010 04:15:04 16.6 C 9.04 g/m*3 16.6 C 0 km/h
1942 06-06-2010 04:27:04 16.4 C 9.07 g/m*3 16.4 C 0 km/h
1943 06-06-2010 04:39:04 16.2 C 9.1 g/m*3 16.2 C 0 km/h
1944 06-06-2010 04:51:04 15.9 C 9.21 g/m*3 15.9 C 0 km/h
1945 06-06-2010 05:03:04 15.8 C 9.29 g/m*3 15.8 C 0 km/h
1946 06-06-2010 05:15:04 15.6 C 9.18 g/m*3 15.6 C 0 km/h
1947 06-06-2010 05:27:04 15.4 C 9.2 g/m*3 15.4 C 0 km/h
1948 06-06-2010 05:39:04 15.3 C 9.14 g/m*3 15.3 C 0 km/h
1949 06-06-2010 05:51:04 15.2 C 9.22 g/m*3 15.2 C 0 km/h
1950 06-06-2010 06:03:04 15.3 C 9.4 g/m*3 15.3 C 0 km/h
Sensor: Nr:Datum:Temp:Abs-Feuchte:Windchill:Wind:
Aussen-T/F 1951 06-06-2010 06:15:04 15.3 C 9.4 g/m*3 15.3 C 0 km/h
1952 06-06-2010 06:27:04 15.4 C 9.46 g/m*3 15.4 C 0 km/h
1953 06-06-2010 06:39:04 15.2 C 9.35 g/m*3 15.2 C 0 km/h
1954 06-06-2010 06:51:04 15.4 C 9.46 g/m*3 15.4 C 0 km/h
1955 06-06-2010 07:03:04 15.5 C 9.52 g/m*3 15.5 C 0 km/h
1956 06-06-2010 07:15:04 15.8 C 9.56 g/m*3 15.8 C 0 km/h
1957 06-06-2010 07:27:04 16.2 C 9.52 g/m*3 16.2 C 0 km/h
1958 06-06-2010 07:39:04 16.5 C 9.55 g/m*3 16.5 C 0 km/h
1959 06-06-2010 07:51:04 16.3 C 9.43 g/m*3 16.3 C 0 km/h
1960 06-06-2010 08:03:02 16.5 C 9.55 g/m*3 16.5 C 0 km/h
1961 06-06-2010 08:15:02 17.1 C 9.46 g/m*3 17.1 C 0 km/h
1962 06-06-2010 08:27:02 17.3 C 9.43 g/m*3 17.3 C 0 km/h
1963 06-06-2010 08:39:02 17.6 C 9 g/m*3 17.6 C 0 km/h
1964 06-06-2010 08:51:01 18.1 C 9.12 g/m*3 18.1 C 0 km/h
1965 06-06-2010 09:03:01 18.5 C 9.02 g/m*3 18.5 C 0 km/h
1966 06-06-2010 09:15:01 18.9 C 9.07 g/m*3 18.9 C 0 km/h
1967 06-06-2010 09:27:01 19.4 C 9.01 g/m*3 19.4 C 0 km/h
1968 06-06-2010 09:39:01 20.1 C 8.87 g/m*3 20.1 C 0 km/h
1969 06-06-2010 09:51:01 20.8 C 8.87 g/m*3 20.8 C 0 km/h
1970 06-06-2010 10:03:01 21.3 C 8.95 g/m*3 21.3 C 0 km/h
1971 06-06-2010 10:15:02 22.4 C 9.53 g/m*3 22.4 C 0 km/h
1972 06-06-2010 10:27:02 23.1 C 9.3 g/m*3 23.1 C 0 km/h
1973 06-06-2010 10:39:01 24.1 C 9.63 g/m*3 24.1 C 0 km/h
1974 06-06-2010 10:51:03 24.6 C 9.45 g/m*3 24.6 C 0 km/h
1975 06-06-2010 11:03:02 25.8 C 9.63 g/m*3 25.8 C 0 km/h
Sensor: Nr:Datum:Temp:Abs-Feuchte:Windchill:Wind:
Aussen-T/F 1976 06-06-2010 11:15:02 26.5 C 9.51 g/m*3 26.5 C 0 km/h
1977 06-06-2010 11:27:02 27.2 C 9.37 g/m*3 27.2 C 0 km/h
1978 06-06-2010 11:39:02 27.6 C 9.58 g/m*3 27.6 C 0 km/h
1979 06-06-2010 11:51:02 28.6 C 9.84 g/m*3 28.6 C 0 km/h
1980 06-06-2010 12:03:01 29.1 C 9.53 g/m*3 29.1 C 0 km/h
1981 06-06-2010 12:15:02 29.7 C 8.35 g/m*3 29.7 C 0 km/h
1982 06-06-2010 12:27:02 29.6 C 8.01 g/m*3 29.6 C 0 km/h
1983 06-06-2010 12:39:02 30 C 7.88 g/m*3 30 C 0 km/h
1984 06-06-2010 12:51:01 29.4 C 9.69 g/m*3 29.4 C 0 km/h
1985 06-06-2010 13:03:02 29.1 C 9.24 g/m*3 29.1 C 0 km/h
1986 06-06-2010 13:15:01 29.4 C 9.39 g/m*3 29.4 C 0 km/h
1987 06-06-2010 13:27:01 31.6 C 7.27 g/m*3 31.6 C 0 km/h
1988 06-06-2010 13:39:02 30.9 C 6.68 g/m*3 30.9 C 0 km/h
1989 06-06-2010 13:51:02 29.5 C 8.26 g/m*3 29.5 C 0 km/h
1990 06-06-2010 14:03:02 28.9 C 9.71 g/m*3 28.9 C 0 km/h
1991 06-06-2010 14:15:01 30 C 8.19 g/m*3 30 C 0 km/h
1992 06-06-2010 14:27:01 30.3 C 7.7 g/m*3 30.3 C 0 km/h
1993 06-06-2010 14:39:02 30.6 C 7.83 g/m*3 30.6 C 0 km/h
1994 06-06-2010 14:51:02 31 C 8 g/m*3 31 C 0 km/h
1995 06-06-2010 15:03:02 30.7 C 7.56 g/m*3 30.7 C 0 km/h
1996 06-06-2010 15:15:02 31.3 C 7.48 g/m*3 31.3 C 0 km/h
1997 06-06-2010 15:27:02 31.9 C 7.39 g/m*3 31.9 C 0 km/h
1998 06-06-2010 15:39:02 31.3 C 7.15 g/m*3 31.3 C 0 km/h
1999 06-06-2010 15:51:01 30.4 C 8.99 g/m*3 30.4 C 0 km/h
2000 06-06-2010 16:03:02 29.3 C 9.34 g/m*3 29.3 C 0 km/h
Sensor: Nr:Datum:Temp:Abs-Feuchte:Windchill:Wind:
Aussen-T/F 2001 06-06-2010 16:15:13 25.6 C 8.09 g/m*3 25.6 C 0 km/h
2002 06-06-2010 16:27:13 24 C 9.14 g/m*3 24 C 0 km/h
2003 06-06-2010 16:39:13 20.6 C 11.63 g/m*3 20.6 C 0 km/h
2004 06-06-2010 16:51:13 19.3 C 12.44 g/m*3 19.3 C 0 km/h
2005 06-06-2010 17:03:13 18.9 C 13.28 g/m*3 18.9 C 0 km/h
2006 06-06-2010 17:15:13 18.5 C 13.13 g/m*3 18.5 C 0 km/h
2007 06-06-2010 17:27:02 18.7 C 13.77 g/m*3 18.7 C 0 km/h
2008 06-06-2010 17:39:01 18.8 C 14.01 g/m*3 18.8 C 0 km/h
2009 06-06-2010 17:51:03 18.6 C 13.85 g/m*3 18.6 C 0 km/h
2010 06-06-2010 18:03:02 18.9 C 14.26 g/m*3 18.9 C 0 km/h
2011 06-06-2010 18:15:02 19.5 C 14.6 g/m*3 19.5 C 0 km/h
2012 06-06-2010 18:27:02 19.3 C 14.26 g/m*3 19.3 C 0 km/h
2013 06-06-2010 18:39:02 19.1 C 13.93 g/m*3 19.1 C 0 km/h
2014 06-06-2010 18:51:02 19.2 C 14.02 g/m*3 19.2 C 0 km/h
2015 06-06-2010 19:03:02 19.4 C 14.35 g/m*3 19.4 C 0 km/h
2016 06-06-2010 19:15:02 19.4 C 14.35 g/m*3 19.4 C 0 km/h
2017 06-06-2010 19:27:02 19.3 C 14.26 g/m*3 19.3 C 0 km/h
2018 06-06-2010 19:39:01 19.1 C 14.1 g/m*3 19.1 C 0 km/h
2019 06-06-2010 19:51:02 18.9 C 14.09 g/m*3 18.9 C 0 km/h
2020 06-06-2010 20:03:01 19.2 C 14.35 g/m*3 19.2 C 0 km/h
2021 06-06-2010 20:15:01 19.2 C 14.35 g/m*3 19.2 C 0 km/h
2022 06-06-2010 20:27:01 19 C 14.01 g/m*3 19 C 0 km/h
2023 06-06-2010 20:39:02 18.8 C 14.01 g/m*3 18.8 C 0 km/h
2024 06-06-2010 20:51:02 18.8 C 14.01 g/m*3 18.8 C 0 km/h
2025 06-06-2010 21:03:02 18.7 C 13.93 g/m*3 18.7 C 0 km/h
Sensor: Nr:Datum:Temp:Abs-Feuchte:Windchill:Wind:
Aussen-T/F 2026 06-06-2010 21:15:02 18.7 C 13.93 g/m*3 18.7 C 0 km/h
2027 06-06-2010 21:27:02 18.6 C 13.85 g/m*3 18.6 C 0 km/h
2028 06-06-2010 21:39:02 18.5 C 13.77 g/m*3 18.5 C 0 km/h
2029 06-06-2010 21:51:02 18.5 C 13.77 g/m*3 18.5 C 0 km/h
2030 06-06-2010 22:03:02 18.4 C 13.68 g/m*3 18.4 C 0 km/h
2031 06-06-2010 22:16:02 18.4 C 13.68 g/m*3 18.4 C 0 km/h
2032 06-06-2010 22:28:02 18.3 C 13.6 g/m*3 18.3 C 0 km/h
2033 06-06-2010 22:40:02 18.3 C 13.6 g/m*3 18.3 C 0 km/h
2034 06-06-2010 22:52:02 18.3 C 13.76 g/m*3 18.3 C 0 km/h
2035 06-06-2010 23:04:02 18.4 C 13.68 g/m*3 18.4 C 0 km/h
2036 06-06-2010 23:16:02 18.5 C 13.77 g/m*3 18.5 C 0 km/h
2037 06-06-2010 23:28:02 18.4 C 13.53 g/m*3 18.4 C 0 km/h
2038 06-06-2010 23:40:02 18.1 C 13.29 g/m*3 18.1 C 0 km/h
2039 06-06-2010 23:52:02 18.1 C 13.29 g/m*3 18.1 C 0 km/h
2040 07-06-2010 00:04:02 17.7 C 13.28 g/m*3 17.7 C 0 km/h
2041 07-06-2010 00:16:02 17.9 C 13.44 g/m*3 17.9 C 0 km/h
2042 07-06-2010 00:28:02 18 C 13.52 g/m*3 18 C 0 km/h
2043 07-06-2010 00:40:02 18 C 13.52 g/m*3 18 C 0 km/h
2044 07-06-2010 00:52:02 18 C 13.52 g/m*3 18 C 0 km/h
2045 07-06-2010 01:04:02 17.9 C 13.74 g/m*3 17.9 C 0 km/h
2046 07-06-2010 01:16:02 17.9 C 13.74 g/m*3 17.9 C 0 km/h
2047 07-06-2010 01:28:02 17.8 C 13.81 g/m*3 17.8 C 0 km/h
2048 07-06-2010 01:40:02 17.7 C 13.73 g/m*3 17.7 C 0 km/h
2049 07-06-2010 01:52:02 17.8 C 13.81 g/m*3 17.8 C 0 km/h
2050 07-06-2010 02:04:03 17.9 C 13.89 g/m*3 17.9 C 0 km/h
Sensor: Nr:Datum:Temp:Abs-Feuchte:Windchill:Wind:
Aussen-T/F 2051 07-06-2010 02:16:03 17.9 C 13.89 g/m*3 17.9 C 0 km/h
2052 07-06-2010 02:28:03 17.6 C 13.05 g/m*3 17.6 C 0 km/h
2053 07-06-2010 02:40:03 17 C 10.85 g/m*3 17 C 0 km/h
2054 07-06-2010 02:52:03 16.4 C 10.89 g/m*3 16.4 C 0 km/h
2055 07-06-2010 03:04:03 16.2 C 10.62 g/m*3 16.2 C 0 km/h
2056 07-06-2010 03:16:03 15.8 C 10.23 g/m*3 15.8 C 0 km/h
2057 07-06-2010 03:28:03 15.3 C 10.06 g/m*3 15.3 C 0 km/h
2058 07-06-2010 03:40:03 15 C 10 g/m*3 15 C 0 km/h
2059 07-06-2010 03:52:03 15 C 9.49 g/m*3 15 C 0 km/h
2060 07-06-2010 04:04:03 14.8 C 9.12 g/m*3 14.8 C 0 km/h
2061 07-06-2010 04:16:03 14.4 C 9.02 g/m*3 14.4 C 0 km/h
2062 07-06-2010 04:28:03 13.9 C 9.11 g/m*3 13.9 C 0 km/h
2063 07-06-2010 04:40:03 13.5 C 9.01 g/m*3 13.5 C 0 km/h
2064 07-06-2010 04:52:03 13.4 C 9.18 g/m*3 13.4 C 0 km/h
2065 07-06-2010 05:04:03 13.6 C 9.18 g/m*3 13.6 C 0 km/h
2066 07-06-2010 05:16:03 13.6 C 9.06 g/m*3 13.6 C 0 km/h
2067 07-06-2010 05:28:03 13.6 C 9.06 g/m*3 13.6 C 0 km/h
2068 07-06-2010 05:40:03 13.7 C 9.24 g/m*3 13.7 C 0 km/h
2069 07-06-2010 05:52:03 13.5 C 9.24 g/m*3 13.5 C 0 km/h
2070 07-06-2010 06:04:04 13.7 C 9.47 g/m*3 13.7 C 0 km/h
2071 07-06-2010 06:16:04 14.1 C 9.59 g/m*3 14.1 C 0 km/h
2072 07-06-2010 06:28:04 14.5 C 9.33 g/m*3 14.5 C 0 km/h
2073 07-06-2010 06:40:04 14.8 C 9.12 g/m*3 14.8 C 0 km/h
2074 07-06-2010 06:52:04 14.9 C 9.3 g/m*3 14.9 C 0 km/h
2075 07-06-2010 07:04:02 15.1 C 9.03 g/m*3 15.1 C 0 km/h
Sensor: Nr:Datum:Temp:Abs-Feuchte:Windchill:Wind:
Aussen-T/F 2076 07-06-2010 07:16:02 15.3 C 9.14 g/m*3 15.3 C 0 km/h
2077 07-06-2010 07:28:02 15 C 8.98 g/m*3 15 C 0 km/h
2078 07-06-2010 07:40:18 14.9 C 9.3 g/m*3 14.9 C 0 km/h
2079 07-06-2010 07:52:01 14.9 C 9.43 g/m*3 14.9 C 0 km/h
2080 07-06-2010 08:04:02 15.2 C 9.35 g/m*3 15.2 C 0 km/h
2081 07-06-2010 08:16:02 15.4 C 9.33 g/m*3 15.4 C 0 km/h
2082 07-06-2010 08:28:02 15.6 C 9.31 g/m*3 15.6 C 0 km/h
2083 07-06-2010 08:40:01 15.7 C 9.37 g/m*3 15.7 C 0 km/h
2084 07-06-2010 08:52:03 15.8 C 9.29 g/m*3 15.8 C 0 km/h
2085 07-06-2010 09:04:02 16.5 C 9.55 g/m*3 16.5 C 0 km/h
2086 07-06-2010 09:16:02 17.2 C 9.23 g/m*3 17.2 C 0 km/h
2087 07-06-2010 09:28:03 17.2 C 9.23 g/m*3 17.2 C 0 km/h
2088 07-06-2010 09:40:02 17 C 8.97 g/m*3 17 C 0 km/h
2089 07-06-2010 09:52:02 17.5 C 9.09 g/m*3 17.5 C 0 km/h
2090 07-06-2010 10:04:01 17.6 C 9.15 g/m*3 17.6 C 0 km/h
2091 07-06-2010 10:16:02 18.1 C 8.96 g/m*3 18.1 C 0 km/h
2092 07-06-2010 10:28:02 18.3 C 8.76 g/m*3 18.3 C 0 km/h
2093 07-06-2010 10:40:02 18.7 C 8.81 g/m*3 18.7 C 0 km/h
2094 07-06-2010 10:52:01 18.9 C 9.07 g/m*3 18.9 C 0 km/h
2095 07-06-2010 11:04:02 19.5 C 8.89 g/m*3 19.5 C 0 km/h
2096 07-06-2010 11:16:01 19.3 C 8.79 g/m*3 19.3 C 0 km/h
2097 07-06-2010 11:28:01 19.1 C 8.69 g/m*3 19.1 C 0 km/h
2098 07-06-2010 11:40:01 19.5 C 8.73 g/m*3 19.5 C 0 km/h
2099 07-06-2010 11:52:02 19.9 C 8.42 g/m*3 19.9 C 0 km/h
2100 07-06-2010 12:04:02 20.7 C 8.1 g/m*3 20.7 C 0 km/h
Sensor: Nr:Datum:Temp:Abs-Feuchte:Windchill:Wind:
Aussen-T/F 2101 07-06-2010 12:16:01 21.6 C 7.97 g/m*3 21.6 C 0 km/h
2102 07-06-2010 12:28:01 21.9 C 7.91 g/m*3 21.9 C 0 km/h
2103 07-06-2010 12:40:02 22.4 C 7.94 g/m*3 22.4 C 0 km/h
2104 07-06-2010 12:52:02 23.1 C 7.65 g/m*3 23.1 C 0 km/h
2105 07-06-2010 13:04:02 23.1 C 7.23 g/m*3 23.1 C 0 km/h
2106 07-06-2010 13:16:01 24.3 C 7.3 g/m*3 24.3 C 0 km/h
2107 07-06-2010 13:28:01 24.3 C 7.75 g/m*3 24.3 C 0 km/h
2108 07-06-2010 13:40:02 23.4 C 6.73 g/m*3 23.4 C 0 km/h
2109 07-06-2010 13:52:01 23.8 C 7.31 g/m*3 23.8 C 0 km/h
2110 07-06-2010 14:04:02 23.9 C 6.92 g/m*3 23.9 C 0 km/h
2111 07-06-2010 14:16:02 23.7 C 7.27 g/m*3 23.7 C 0 km/h
2112 07-06-2010 14:28:02 24.1 C 6.78 g/m*3 24.1 C 0 km/h
2113 07-06-2010 14:40:02 24.1 C 7 g/m*3 24.1 C 0 km/h
2114 07-06-2010 14:52:02 24.2 C 6.82 g/m*3 24.2 C 0 km/h
2115 07-06-2010 15:04:01 24.4 C 6.68 g/m*3 24.4 C 0 km/h
2116 07-06-2010 15:16:02 24 C 6.74 g/m*3 24 C 0 km/h
2117 07-06-2010 15:28:02 24.7 C 6.79 g/m*3 24.7 C 0 km/h
2118 07-06-2010 15:40:01 24.7 C 6.34 g/m*3 24.7 C 0 km/h
2119 07-06-2010 15:52:02 23.7 C 6.63 g/m*3 23.7 C 0 km/h
2120 07-06-2010 16:04:01 24.8 C 6.6 g/m*3 24.8 C 0 km/h
2121 07-06-2010 16:16:01 25.3 C 6.55 g/m*3 25.3 C 0 km/h
2122 07-06-2010 16:28:01 25.6 C 6.43 g/m*3 25.6 C 0 km/h
2123 07-06-2010 16:40:02 25.1 C 6.02 g/m*3 25.1 C 0 km/h
2124 07-06-2010 16:52:02 25.3 C 6.32 g/m*3 25.3 C 0 km/h
2125 07-06-2010 17:04:01 24.5 C 6.04 g/m*3 24.5 C 0 km/h
Sensor: Nr:Datum:Temp:Abs-Feuchte:Windchill:Wind:
Aussen-T/F 2126 07-06-2010 17:16:02 24.8 C 6.15 g/m*3 24.8 C 0 km/h
2127 07-06-2010 17:28:02 24.3 C 5.97 g/m*3 24.3 C 0 km/h
2128 07-06-2010 17:40:02 24.9 C 5.95 g/m*3 24.9 C 0 km/h
2129 07-06-2010 17:52:02 24.8 C 5.69 g/m*3 24.8 C 0 km/h
2130 07-06-2010 18:04:03 24.5 C 5.6 g/m*3 24.5 C 0 km/h
2131 07-06-2010 18:16:02 26.2 C 5.42 g/m*3 26.2 C 0 km/h
2132 07-06-2010 18:28:02 25.6 C 5 g/m*3 25.6 C 0 km/h
2133 07-06-2010 18:40:02 26.9 C 5.37 g/m*3 26.9 C 0 km/h
2134 07-06-2010 18:52:01 26.4 C 4.98 g/m*3 26.4 C 0 km/h
2135 07-06-2010 19:04:02 26.6 C 5.29 g/m*3 26.6 C 0 km/h
2136 07-06-2010 19:16:01 26 C 5.11 g/m*3 26 C 0 km/h
2137 07-06-2010 19:28:01 25.5 C 5.21 g/m*3 25.5 C 0 km/h
2138 07-06-2010 19:40:01 25.2 C 5.35 g/m*3 25.2 C 0 km/h
2139 07-06-2010 19:52:01 23.9 C 5.41 g/m*3 23.9 C 0 km/h
2140 07-06-2010 20:04:01 24.1 C 5.47 g/m*3 24.1 C 0 km/h
2141 07-06-2010 20:16:02 24.1 C 5.69 g/m*3 24.1 C 0 km/h
2142 07-06-2010 20:28:02 23.1 C 5.79 g/m*3 23.1 C 0 km/h
2143 07-06-2010 20:40:01 22.3 C 6.12 g/m*3 22.3 C 0 km/h
2144 07-06-2010 20:52:01 21.8 C 6.72 g/m*3 21.8 C 0 km/h
2145 07-06-2010 21:04:01 21 C 6.41 g/m*3 21 C 0 km/h
2146 07-06-2010 21:16:02 20.4 C 6.72 g/m*3 20.4 C 0 km/h
2147 07-06-2010 21:28:02 19.9 C 6.87 g/m*3 19.9 C 0 km/h
2148 07-06-2010 21:40:01 19.4 C 6.84 g/m*3 19.4 C 0 km/h
2149 07-06-2010 21:52:03 19.5 C 7.05 g/m*3 19.5 C 0 km/h
2150 07-06-2010 22:04:03 18.9 C 6.97 g/m*3 18.9 C 0 km/h
Sensor: Nr:Datum:Temp:Abs-Feuchte:Windchill:Wind:
Aussen-T/F 2151 07-06-2010 22:16:02 18.8 C 7.25 g/m*3 18.8 C 0 km/h
2152 07-06-2010 22:28:02 18.5 C 7.28 g/m*3 18.5 C 0 km/h
2153 07-06-2010 22:40:03 18.3 C 7.35 g/m*3 18.3 C 0 km/h
2154 07-06-2010 22:53:02 17.9 C 7.79 g/m*3 17.9 C 0 km/h
2155 07-06-2010 23:05:02 17.9 C 7.94 g/m*3 17.9 C 0 km/h
2156 07-06-2010 23:17:03 17.4 C 7.85 g/m*3 17.4 C 0 km/h
2157 07-06-2010 23:29:03 17 C 7.81 g/m*3 17 C 0 km/h
2158 07-06-2010 23:41:03 17 C 8.39 g/m*3 17 C 0 km/h
2159 07-06-2010 23:53:03 17 C 8.39 g/m*3 17 C 0 km/h
2160 08-06-2010 00:05:03 16.8 C 8.58 g/m*3 16.8 C 0 km/h
2161 08-06-2010 00:17:03 16.4 C 8.37 g/m*3 16.4 C 0 km/h
2162 08-06-2010 00:29:03 16.3 C 8.46 g/m*3 16.3 C 0 km/h
2163 08-06-2010 00:41:03 16.2 C 8.55 g/m*3 16.2 C 0 km/h
2164 08-06-2010 00:53:03 16 C 8.45 g/m*3 16 C 0 km/h
2165 08-06-2010 01:05:03 15.8 C 8.62 g/m*3 15.8 C 0 km/h
2166 08-06-2010 01:17:03 15.6 C 8.51 g/m*3 15.6 C 0 km/h
2167 08-06-2010 01:29:03 15 C 8.33 g/m*3 15 C 0 km/h
2168 08-06-2010 01:41:03 14.9 C 8.54 g/m*3 14.9 C 0 km/h
2169 08-06-2010 01:53:03 14.8 C 8.49 g/m*3 14.8 C 0 km/h
2170 08-06-2010 02:05:03 14.7 C 8.44 g/m*3 14.7 C 0 km/h
2171 08-06-2010 02:17:03 14.4 C 8.41 g/m*3 14.4 C 0 km/h
2172 08-06-2010 02:29:03 14.1 C 8.25 g/m*3 14.1 C 0 km/h
2173 08-06-2010 02:41:03 14 C 8.32 g/m*3 14 C 0 km/h
2174 08-06-2010 02:53:03 14.1 C 8.37 g/m*3 14.1 C 0 km/h
2175 08-06-2010 03:05:03 14.1 C 8.37 g/m*3 14.1 C 0 km/h
Sensor: Nr:Datum:Temp:Abs-Feuchte:Windchill:Wind:
Aussen-T/F 2176 08-06-2010 03:17:04 14.1 C 8.37 g/m*3 14.1 C 0 km/h
2177 08-06-2010 03:29:04 13.9 C 8.39 g/m*3 13.9 C 0 km/h
2178 08-06-2010 03:41:04 13.6 C 8.36 g/m*3 13.6 C 0 km/h
2179 08-06-2010 03:53:04 13.5 C 8.3 g/m*3 13.5 C 0 km/h
2180 08-06-2010 04:05:04 13.4 C 8.25 g/m*3 13.4 C 0 km/h
2181 08-06-2010 04:17:04 13 C 8.05 g/m*3 13 C 0 km/h
2182 08-06-2010 04:29:04 13.2 C 8.27 g/m*3 13.2 C 0 km/h
2183 08-06-2010 04:41:04 13.2 C 8.27 g/m*3 13.2 C 0 km/h
2184 08-06-2010 04:53:04 13.2 C 8.27 g/m*3 13.2 C 0 km/h
2185 08-06-2010 05:05:04 13.3 C 8.32 g/m*3 13.3 C 0 km/h
2186 08-06-2010 05:17:04 13.4 C 8.49 g/m*3 13.4 C 0 km/h
2187 08-06-2010 05:29:04 13.6 C 8.47 g/m*3 13.6 C 0 km/h
2188 08-06-2010 05:41:04 13.4 C 8.37 g/m*3 13.4 C 0 km/h
2189 08-06-2010 05:53:04 13.3 C 8.43 g/m*3 13.3 C 0 km/h
2190 08-06-2010 06:05:04 13.2 C 8.5 g/m*3 13.2 C 0 km/h
2191 08-06-2010 06:17:04 13.5 C 8.66 g/m*3 13.5 C 0 km/h
2192 08-06-2010 06:29:04 13.9 C 8.75 g/m*3 13.9 C 0 km/h
2193 08-06-2010 06:41:04 13.7 C 8.53 g/m*3 13.7 C 0 km/h
2194 08-06-2010 06:53:04 14 C 8.68 g/m*3 14 C 0 km/h
2195 08-06-2010 07:05:02 13.9 C 8.63 g/m*3 13.9 C 0 km/h
2196 08-06-2010 07:17:01 13.9 C 8.75 g/m*3 13.9 C 0 km/h
2197 08-06-2010 07:29:01 14.2 C 8.79 g/m*3 14.2 C 0 km/h
2198 08-06-2010 07:41:02 14.6 C 8.88 g/m*3 14.6 C 0 km/h
2199 08-06-2010 07:53:02 15.2 C 8.96 g/m*3 15.2 C 0 km/h
2200 08-06-2010 08:05:02 15.6 C 9.04 g/m*3 15.6 C 0 km/h
Sensor: Nr:Datum:Temp:Abs-Feuchte:Windchill:Wind:
Aussen-T/F 2201 08-06-2010 08:17:02 16 C 8.86 g/m*3 16 C 0 km/h
2202 08-06-2010 08:29:02 16.3 C 8.88 g/m*3 16.3 C 0 km/h
2203 08-06-2010 08:41:02 17.2 C 8.93 g/m*3 17.2 C 0 km/h
2204 08-06-2010 08:53:02 17.4 C 8.74 g/m*3 17.4 C 0 km/h
2205 08-06-2010 09:05:03 18.1 C 8.96 g/m*3 18.1 C 0 km/h
2206 08-06-2010 09:17:02 18.6 C 8.91 g/m*3 18.6 C 0 km/h
2207 08-06-2010 09:29:02 19.2 C 8.9 g/m*3 19.2 C 0 km/h
2208 08-06-2010 09:41:02 19.9 C 9.11 g/m*3 19.9 C 0 km/h
2209 08-06-2010 09:53:01 20.1 C 8.87 g/m*3 20.1 C 0 km/h
2210 08-06-2010 10:05:02 20.6 C 9.49 g/m*3 20.6 C 0 km/h
2211 08-06-2010 10:17:01 21.1 C 8.66 g/m*3 21.1 C 0 km/h
2212 08-06-2010 10:29:01 21.8 C 8.25 g/m*3 21.8 C 0 km/h
2213 08-06-2010 10:41:02 22.6 C 8.44 g/m*3 22.6 C 0 km/h
2214 08-06-2010 10:53:01 23.5 C 8.67 g/m*3 23.5 C 0 km/h
2215 08-06-2010 11:05:02 24.3 C 8.63 g/m*3 24.3 C 0 km/h
2216 08-06-2010 11:17:02 24.5 C 8.28 g/m*3 24.5 C 0 km/h
2217 08-06-2010 11:29:02 25.3 C 7.96 g/m*3 25.3 C 0 km/h
2218 08-06-2010 11:41:01 26.3 C 7.67 g/m*3 26.3 C 0 km/h
2219 08-06-2010 11:53:01 26.9 C 7.68 g/m*3 26.9 C 0 km/h
2220 08-06-2010 12:05:01 27.2 C 7.81 g/m*3 27.2 C 0 km/h
2221 08-06-2010 12:17:02 27 C 7.21 g/m*3 27 C 0 km/h
2222 08-06-2010 12:29:02 28.8 C 7.39 g/m*3 28.8 C 0 km/h
2223 08-06-2010 12:41:01 28.4 C 6.67 g/m*3 28.4 C 0 km/h
2224 08-06-2010 12:53:02 28.2 C 6.87 g/m*3 28.2 C 0 km/h
2225 08-06-2010 13:05:01 28 C 7.07 g/m*3 28 C 0 km/h
Sensor: Nr:Datum:Temp:Abs-Feuchte:Windchill:Wind:
Aussen-T/F 2226 08-06-2010 13:17:02 28.6 C 6.46 g/m*3 28.6 C 0 km/h
2227 08-06-2010 13:29:02 27.6 C 6.65 g/m*3 27.6 C 0 km/h
2228 08-06-2010 13:41:01 26.7 C 6.58 g/m*3 26.7 C 0 km/h
2229 08-06-2010 13:53:02 27 C 6.95 g/m*3 27 C 0 km/h
2230 08-06-2010 14:05:02 26.5 C 7.51 g/m*3 26.5 C 0 km/h
2231 08-06-2010 14:17:02 26.2 C 7.88 g/m*3 26.2 C 0 km/h
2232 08-06-2010 14:29:02 25.7 C 8.38 g/m*3 25.7 C 0 km/h
2233 08-06-2010 14:41:02 26.3 C 8.66 g/m*3 26.3 C 0 km/h
2234 08-06-2010 14:53:02 26.7 C 8.61 g/m*3 26.7 C 0 km/h
2235 08-06-2010 15:05:01 26.9 C 8.96 g/m*3 26.9 C 0 km/h
2236 08-06-2010 15:17:02 26.6 C 8.31 g/m*3 26.6 C 0 km/h
2237 08-06-2010 15:29:02 26.5 C 8.01 g/m*3 26.5 C 0 km/h
2238 08-06-2010 15:41:01 25.6 C 8.33 g/m*3 25.6 C 0 km/h
2239 08-06-2010 15:53:02 26.2 C 8.37 g/m*3 26.2 C 0 km/h
2240 08-06-2010 16:05:02 25.3 C 7.73 g/m*3 25.3 C 0 km/h
2241 08-06-2010 16:17:02 23.7 C 7.91 g/m*3 23.7 C 0 km/h
2242 08-06-2010 16:29:02 22.1 C 8.39 g/m*3 22.1 C 0 km/h
2243 08-06-2010 16:41:01 21.7 C 8.39 g/m*3 21.7 C 0 km/h
2244 08-06-2010 16:53:02 20.3 C 9.5 g/m*3 20.3 C 0 km/h
2245 08-06-2010 17:05:02 20.2 C 11.19 g/m*3 20.2 C 0 km/h
2246 08-06-2010 17:17:02 20.6 C 11.1 g/m*3 20.6 C 0 km/h
2247 08-06-2010 17:29:02 20.9 C 10.38 g/m*3 20.9 C 0 km/h
2248 08-06-2010 17:41:02 21.1 C 9.77 g/m*3 21.1 C 0 km/h
2249 08-06-2010 17:53:02 21.4 C 9.94 g/m*3 21.4 C 0 km/h
2250 08-06-2010 18:05:03 21.9 C 10.61 g/m*3 21.9 C 0 km/h
Sensor: Nr:Datum:Temp:Abs-Feuchte:Windchill:Wind:
Aussen-T/F 2251 08-06-2010 18:17:03 22.6 C 9.84 g/m*3 22.6 C 0 km/h
2252 08-06-2010 18:29:03 23.1 C 10.13 g/m*3 23.1 C 0 km/h
2253 08-06-2010 18:41:03 23.8 C 9.9 g/m*3 23.8 C 0 km/h
2254 08-06-2010 18:53:03 23.9 C 10.17 g/m*3 23.9 C 0 km/h
2255 08-06-2010 19:05:03 23.7 C 10.69 g/m*3 23.7 C 0 km/h
2256 08-06-2010 19:17:02 23.6 C 10.42 g/m*3 23.6 C 0 km/h
2257 08-06-2010 19:29:02 23.2 C 9.77 g/m*3 23.2 C 0 km/h
2258 08-06-2010 19:41:02 22.9 C 9.81 g/m*3 22.9 C 0 km/h
2259 08-06-2010 19:53:02 22.6 C 10.04 g/m*3 22.6 C 0 km/h
2260 08-06-2010 20:05:02 22.5 C 10.19 g/m*3 22.5 C 0 km/h
2261 08-06-2010 20:17:02 22.3 C 10.27 g/m*3 22.3 C 0 km/h
2262 08-06-2010 20:29:02 22 C 10.67 g/m*3 22 C 0 km/h
2263 08-06-2010 20:41:02 21.7 C 10.49 g/m*3 21.7 C 0 km/h
2264 08-06-2010 20:53:02 21.5 C 10.56 g/m*3 21.5 C 0 km/h
2265 08-06-2010 21:05:03 21.3 C 10.44 g/m*3 21.3 C 0 km/h
2266 08-06-2010 21:17:02 21 C 10.62 g/m*3 21 C 0 km/h
2267 08-06-2010 21:29:02 20.8 C 10.86 g/m*3 20.8 C 0 km/h
2268 08-06-2010 21:41:02 20.4 C 10.79 g/m*3 20.4 C 0 km/h
2269 08-06-2010 21:53:02 19.5 C 11.41 g/m*3 19.5 C 0 km/h
2270 08-06-2010 22:06:41 19 C 11.9 g/m*3 19 C 0 km/h
2271 08-06-2010 22:18:41 18.8 C 12.4 g/m*3 18.8 C 0 km/h
2272 08-06-2010 22:30:41 18.5 C 12.34 g/m*3 18.5 C 0 km/h
2273 08-06-2010 22:42:41 18.3 C 12.35 g/m*3 18.3 C 0 km/h
2274 08-06-2010 22:54:42 18.2 C 12.43 g/m*3 18.2 C 0 km/h
2275 08-06-2010 23:06:42 18.1 C 12.52 g/m*3 18.1 C 0 km/h
Sensor: Nr:Datum:Temp:Abs-Feuchte:Windchill:Wind:
Aussen-T/F 2276 08-06-2010 23:18:42 18.2 C 12.59 g/m*3 18.2 C 0 km/h
2277 08-06-2010 23:30:42 18.1 C 12.52 g/m*3 18.1 C 0 km/h
2278 08-06-2010 23:42:42 18.1 C 12.36 g/m*3 18.1 C 0 km/h
2279 08-06-2010 23:54:42 17.9 C 12.52 g/m*3 17.9 C 0 km/h
2280 09-06-2010 00:06:42 17.8 C 12.6 g/m*3 17.8 C 0 km/h
2281 09-06-2010 00:18:42 17.8 C 12.6 g/m*3 17.8 C 0 km/h
2282 09-06-2010 00:30:42 17.7 C 12.52 g/m*3 17.7 C 0 km/h
2283 09-06-2010 00:42:42 17.7 C 12.52 g/m*3 17.7 C 0 km/h
2284 09-06-2010 00:54:42 17.7 C 12.52 g/m*3 17.7 C 0 km/h
2285 09-06-2010 01:06:42 17.7 C 12.52 g/m*3 17.7 C 0 km/h
2286 09-06-2010 01:18:42 17.6 C 12.45 g/m*3 17.6 C 0 km/h
2287 09-06-2010 01:30:42 17.7 C 12.52 g/m*3 17.7 C 0 km/h
2288 09-06-2010 01:42:42 17.7 C 12.22 g/m*3 17.7 C 0 km/h
2289 09-06-2010 01:54:42 17.7 C 11.92 g/m*3 17.7 C 0 km/h
2290 09-06-2010 02:06:42 17.3 C 11.64 g/m*3 17.3 C 0 km/h
2291 09-06-2010 02:18:42 17.1 C 11.79 g/m*3 17.1 C 0 km/h
2292 09-06-2010 02:30:42 16.9 C 11.79 g/m*3 16.9 C 0 km/h
2293 09-06-2010 02:42:42 17 C 12.01 g/m*3 17 C 0 km/h
2294 09-06-2010 02:54:42 17.1 C 12.08 g/m*3 17.1 C 0 km/h
2295 09-06-2010 03:06:43 17.1 C 12.08 g/m*3 17.1 C 0 km/h
2296 09-06-2010 03:18:43 17.1 C 12.08 g/m*3 17.1 C 0 km/h
2297 09-06-2010 03:30:43 17 C 12.15 g/m*3 17 C 0 km/h
2298 09-06-2010 03:42:43 17.1 C 12.08 g/m*3 17.1 C 0 km/h
2299 09-06-2010 03:54:43 17 C 12.01 g/m*3 17 C 0 km/h
2300 09-06-2010 04:06:43 17 C 12.15 g/m*3 17 C 0 km/h
Sensor: Nr:Datum:Temp:Abs-Feuchte:Windchill:Wind:
Aussen-T/F 2301 09-06-2010 04:18:43 17 C 12.01 g/m*3 17 C 0 km/h
2302 09-06-2010 04:30:43 16.9 C 12.08 g/m*3 16.9 C 0 km/h
2303 09-06-2010 04:42:43 17 C 12.01 g/m*3 17 C 0 km/h
2304 09-06-2010 04:54:43 16.9 C 12.08 g/m*3 16.9 C 0 km/h
2305 09-06-2010 05:06:43 16.9 C 12.08 g/m*3 16.9 C 0 km/h
2306 09-06-2010 05:18:43 16.8 C 12.01 g/m*3 16.8 C 0 km/h
2307 09-06-2010 05:30:43 16.8 C 12.01 g/m*3 16.8 C 0 km/h
2308 09-06-2010 05:42:43 16.8 C 12.01 g/m*3 16.8 C 0 km/h
2309 09-06-2010 05:54:43 16.9 C 11.94 g/m*3 16.9 C 0 km/h
2310 09-06-2010 06:06:43 16.9 C 11.94 g/m*3 16.9 C 0 km/h
2311 09-06-2010 06:18:43 16.9 C 11.94 g/m*3 16.9 C 0 km/h
2312 09-06-2010 06:30:43 17 C 11.87 g/m*3 17 C 0 km/h
2313 09-06-2010 06:42:43 17.2 C 12.01 g/m*3 17.2 C 0 km/h
2314 09-06-2010 06:54:01 17.3 C 12.08 g/m*3 17.3 C 0 km/h
2315 09-06-2010 07:06:02 17.8 C 12.45 g/m*3 17.8 C 0 km/h
2316 09-06-2010 07:18:01 17.9 C 12.21 g/m*3 17.9 C 0 km/h
2317 09-06-2010 07:30:01 18.1 C 12.05 g/m*3 18.1 C 0 km/h
2318 09-06-2010 07:42:02 18.4 C 12.11 g/m*3 18.4 C 0 km/h
2319 09-06-2010 07:54:02 18.8 C 12.4 g/m*3 18.8 C 0 km/h
2320 09-06-2010 08:06:02 19 C 12.06 g/m*3 19 C 0 km/h
2321 09-06-2010 08:18:02 19.6 C 12.49 g/m*3 19.6 C 0 km/h
2322 09-06-2010 08:30:02 19.9 C 12.37 g/m*3 19.9 C 0 km/h
2323 09-06-2010 08:42:02 20.4 C 12.56 g/m*3 20.4 C 0 km/h
2324 09-06-2010 08:54:02 20.8 C 12.13 g/m*3 20.8 C 0 km/h
2325 09-06-2010 09:06:03 20.9 C 12.02 g/m*3 20.9 C 0 km/h
Sensor: Nr:Datum:Temp:Abs-Feuchte:Windchill:Wind:
Aussen-T/F 2326 09-06-2010 09:18:02 21.6 C 11.95 g/m*3 21.6 C 0 km/h
2327 09-06-2010 09:30:02 21.7 C 11.83 g/m*3 21.7 C 0 km/h
2328 09-06-2010 09:42:01 22.3 C 11.65 g/m*3 22.3 C 0 km/h
2329 09-06-2010 09:54:02 22.5 C 11.78 g/m*3 22.5 C 0 km/h
2330 09-06-2010 10:06:01 23.3 C 11.5 g/m*3 23.3 C 0 km/h
2331 09-06-2010 10:18:02 23 C 11.72 g/m*3 23 C 0 km/h
2332 09-06-2010 10:30:02 23.3 C 11.5 g/m*3 23.3 C 0 km/h
2333 09-06-2010 10:42:02 24.2 C 11.44 g/m*3 24.2 C 0 km/h
2334 09-06-2010 10:54:02 24.8 C 10.93 g/m*3 24.8 C 0 km/h
2335 09-06-2010 11:06:02 25.5 C 10.65 g/m*3 25.5 C 0 km/h
2336 09-06-2010 11:18:02 25.7 C 10.53 g/m*3 25.7 C 0 km/h
2337 09-06-2010 11:30:02 24.8 C 10.24 g/m*3 24.8 C 0 km/h
2338 09-06-2010 11:42:02 25.5 C 9.94 g/m*3 25.5 C 0 km/h
2339 09-06-2010 11:54:02 26.3 C 9.41 g/m*3 26.3 C 0 km/h
2340 09-06-2010 12:06:01 26.8 C 9.16 g/m*3 26.8 C 0 km/h
2341 09-06-2010 12:18:01 26.1 C 8.57 g/m*3 26.1 C 0 km/h
2342 09-06-2010 12:30:01 26.3 C 8.91 g/m*3 26.3 C 0 km/h
2343 09-06-2010 12:42:02 26.7 C 9.11 g/m*3 26.7 C 0 km/h
2344 09-06-2010 12:54:02 26.1 C 8.81 g/m*3 26.1 C 0 km/h
2345 09-06-2010 13:06:02 26.3 C 8.66 g/m*3 26.3 C 0 km/h
2346 09-06-2010 13:18:02 26.6 C 9.06 g/m*3 26.6 C 0 km/h
2347 09-06-2010 13:30:02 26.3 C 8.91 g/m*3 26.3 C 0 km/h
2348 09-06-2010 13:42:02 26.9 C 9.47 g/m*3 26.9 C 0 km/h
2349 09-06-2010 13:54:02 27.5 C 8.73 g/m*3 27.5 C 0 km/h
2350 09-06-2010 14:06:02 27.9 C 8.92 g/m*3 27.9 C 0 km/h
Sensor: Nr:Datum:Temp:Abs-Feuchte:Windchill:Wind:
Aussen-T/F 2351 09-06-2010 14:18:02 28.4 C 9.45 g/m*3 28.4 C 0 km/h
2352 09-06-2010 14:30:02 29.1 C 9.24 g/m*3 29.1 C 0 km/h
2353 09-06-2010 14:42:02 29.1 C 8.95 g/m*3 29.1 C 0 km/h
2354 09-06-2010 14:54:02 29.2 C 9 g/m*3 29.2 C 0 km/h
2355 09-06-2010 15:06:02 28.6 C 8.71 g/m*3 28.6 C 0 km/h
2356 09-06-2010 15:18:03 29.7 C 8.95 g/m*3 29.7 C 0 km/h
2357 09-06-2010 15:30:03 30 C 7.88 g/m*3 30 C 0 km/h
2358 09-06-2010 15:42:02 29.7 C 7.76 g/m*3 29.7 C 0 km/h
2359 09-06-2010 15:54:02 29.7 C 7.46 g/m*3 29.7 C 0 km/h
2360 09-06-2010 16:06:02 29.8 C 7.5 g/m*3 29.8 C 0 km/h
2361 09-06-2010 16:18:02 29.3 C 7.59 g/m*3 29.3 C 0 km/h
2362 09-06-2010 16:30:02 29 C 7.18 g/m*3 29 C 0 km/h
2363 09-06-2010 16:42:02 29.2 C 7.26 g/m*3 29.2 C 0 km/h
2364 09-06-2010 16:54:02 29.4 C 8.22 g/m*3 29.4 C 0 km/h
2365 09-06-2010 17:06:02 28.7 C 9.04 g/m*3 28.7 C 0 km/h
2366 09-06-2010 17:18:03 28.4 C 8.62 g/m*3 28.4 C 0 km/h
2367 09-06-2010 17:30:03 27.7 C 9.36 g/m*3 27.7 C 0 km/h
2368 09-06-2010 17:42:01 27.3 C 9.16 g/m*3 27.3 C 0 km/h
2369 09-06-2010 17:54:02 27.2 C 9.63 g/m*3 27.2 C 0 km/h
2370 09-06-2010 18:06:01 27 C 9.26 g/m*3 27 C 0 km/h
2371 09-06-2010 18:18:02 27 C 9.01 g/m*3 27 C 0 km/h
2372 09-06-2010 18:30:03 26.9 C 9.47 g/m*3 26.9 C 0 km/h
2373 09-06-2010 18:42:01 26.3 C 8.91 g/m*3 26.3 C 0 km/h
2374 09-06-2010 18:54:02 26.3 C 9.65 g/m*3 26.3 C 0 km/h
2375 09-06-2010 19:06:02 26.6 C 9.57 g/m*3 26.6 C 0 km/h
Sensor: Nr:Datum:Temp:Abs-Feuchte:Windchill:Wind:
Aussen-T/F 2376 09-06-2010 19:18:02 26.5 C 10.01 g/m*3 26.5 C 0 km/h
2377 09-06-2010 19:30:02 26.2 C 9.6 g/m*3 26.2 C 0 km/h
2378 09-06-2010 19:42:03 25.9 C 9.68 g/m*3 25.9 C 0 km/h
2379 09-06-2010 19:54:02 25.6 C 9.76 g/m*3 25.6 C 0 km/h
2380 09-06-2010 20:06:01 25.3 C 9.6 g/m*3 25.3 C 0 km/h
2381 09-06-2010 20:18:02 25.3 C 9.83 g/m*3 25.3 C 0 km/h
2382 09-06-2010 20:30:02 24.8 C 9.56 g/m*3 24.8 C 0 km/h
2383 09-06-2010 20:42:02 24.4 C 9.12 g/m*3 24.4 C 0 km/h
2384 09-06-2010 20:54:02 24.1 C 8.97 g/m*3 24.1 C 0 km/h
2385 09-06-2010 21:06:03 23.8 C 9.25 g/m*3 23.8 C 0 km/h
2386 09-06-2010 21:18:02 23.6 C 8.93 g/m*3 23.6 C 0 km/h
2387 09-06-2010 21:30:02 23.3 C 9.2 g/m*3 23.3 C 0 km/h
2388 09-06-2010 21:42:02 23.2 C 9.15 g/m*3 23.2 C 0 km/h
2389 09-06-2010 21:54:01 23.1 C 9.51 g/m*3 23.1 C 0 km/h
2390 09-06-2010 22:06:01 23 C 8.84 g/m*3 23 C 0 km/h
2391 09-06-2010 22:19:03 23.1 C 8.48 g/m*3 23.1 C 0 km/h
2392 09-06-2010 22:31:03 23.2 C 8.32 g/m*3 23.2 C 0 km/h
2393 09-06-2010 22:43:03 23.1 C 8.48 g/m*3 23.1 C 0 km/h
2394 09-06-2010 22:55:03 22.4 C 8.94 g/m*3 22.4 C 0 km/h
2395 09-06-2010 23:07:03 19.8 C 12.13 g/m*3 19.8 C 0 km/h
2396 09-06-2010 23:19:03 19.6 C 12.66 g/m*3 19.6 C 0 km/h
2397 09-06-2010 23:31:03 19.4 C 12.51 g/m*3 19.4 C 0 km/h
2398 09-06-2010 23:43:03 19 C 12.22 g/m*3 19 C 0 km/h
2399 09-06-2010 23:55:03 18.5 C 12.97 g/m*3 18.5 C 0 km/h
2400 10-06-2010 00:07:03 18.4 C 13.21 g/m*3 18.4 C 0 km/h
Sensor: Nr:Datum:Temp:Abs-Feuchte:Windchill:Wind:
Aussen-T/F 2401 10-06-2010 00:19:03 18.1 C 13.29 g/m*3 18.1 C 0 km/h
2402 10-06-2010 00:31:03 18 C 13.36 g/m*3 18 C 0 km/h
2403 10-06-2010 00:43:03 17.8 C 13.36 g/m*3 17.8 C 0 km/h
2404 10-06-2010 00:55:04 17.9 C 13.59 g/m*3 17.9 C 0 km/h
2405 10-06-2010 01:07:04 17.8 C 13.66 g/m*3 17.8 C 0 km/h
2406 10-06-2010 01:19:04 17.6 C 13.5 g/m*3 17.6 C 0 km/h
2407 10-06-2010 01:31:04 17.7 C 13.73 g/m*3 17.7 C 0 km/h
2408 10-06-2010 01:43:04 17.5 C 13.57 g/m*3 17.5 C 0 km/h
2409 10-06-2010 01:55:04 17.4 C 13.49 g/m*3 17.4 C 0 km/h
2410 10-06-2010 02:07:04 17.5 C 13.72 g/m*3 17.5 C 0 km/h
2411 10-06-2010 02:19:04 17.4 C 13.63 g/m*3 17.4 C 0 km/h
2412 10-06-2010 02:31:04 17.1 C 13.39 g/m*3 17.1 C 0 km/h
2413 10-06-2010 02:43:04 17 C 13.17 g/m*3 17 C 0 km/h
2414 10-06-2010 02:55:04 16.9 C 13.23 g/m*3 16.9 C 0 km/h
2415 10-06-2010 03:07:04 16.9 C 13.23 g/m*3 16.9 C 0 km/h
2416 10-06-2010 03:19:04 16.9 C 13.23 g/m*3 16.9 C 0 km/h
2417 10-06-2010 03:31:04 17 C 13.17 g/m*3 17 C 0 km/h
2418 10-06-2010 03:43:04 17.1 C 13.25 g/m*3 17.1 C 0 km/h
2419 10-06-2010 03:55:04 17 C 13.17 g/m*3 17 C 0 km/h
2420 10-06-2010 04:07:04 17 C 13.02 g/m*3 17 C 0 km/h
2421 10-06-2010 04:19:04 17.1 C 13.25 g/m*3 17.1 C 0 km/h
2422 10-06-2010 04:31:04 17.1 C 13.1 g/m*3 17.1 C 0 km/h
2423 10-06-2010 04:43:04 17.1 C 13.1 g/m*3 17.1 C 0 km/h
2424 10-06-2010 04:55:04 17 C 13.02 g/m*3 17 C 0 km/h
2425 10-06-2010 05:07:05 16.8 C 13.01 g/m*3 16.8 C 0 km/h
Sensor: Nr:Datum:Temp:Abs-Feuchte:Windchill:Wind:
Aussen-T/F 2426 10-06-2010 05:19:05 16.9 C 13.23 g/m*3 16.9 C 0 km/h
2427 10-06-2010 05:31:05 16.8 C 13.15 g/m*3 16.8 C 0 km/h
2428 10-06-2010 05:43:05 16.9 C 13.23 g/m*3 16.9 C 0 km/h
2429 10-06-2010 05:55:05 17 C 13.17 g/m*3 17 C 0 km/h
2430 10-06-2010 06:07:05 17.1 C 13.39 g/m*3 17.1 C 0 km/h
2431 10-06-2010 06:19:05 17.1 C 13.39 g/m*3 17.1 C 0 km/h
2432 10-06-2010 06:31:05 17.2 C 13.47 g/m*3 17.2 C 0 km/h
2433 10-06-2010 06:43:05 17.4 C 13.63 g/m*3 17.4 C 0 km/h
2434 10-06-2010 06:55:05 17.6 C 13.8 g/m*3 17.6 C 0 km/h
2435 10-06-2010 07:07:05 17.7 C 13.88 g/m*3 17.7 C 0 km/h
2436 10-06-2010 07:19:05 17.8 C 13.81 g/m*3 17.8 C 0 km/h
2437 10-06-2010 07:31:05 17.9 C 13.89 g/m*3 17.9 C 0 km/h
2438 10-06-2010 07:43:05 18 C 13.82 g/m*3 18 C 0 km/h
2439 10-06-2010 07:55:02 18.1 C 13.91 g/m*3 18.1 C 0 km/h
2440 10-06-2010 08:07:02 18.7 C 14.41 g/m*3 18.7 C 0 km/h
2441 10-06-2010 08:19:03 19 C 14.5 g/m*3 19 C 0 km/h
2442 10-06-2010 08:31:02 19 C 14.34 g/m*3 19 C 0 km/h
2443 10-06-2010 08:43:02 19 C 14.18 g/m*3 19 C 0 km/h
2444 10-06-2010 08:55:02 19.1 C 14.26 g/m*3 19.1 C 0 km/h
2445 10-06-2010 09:07:02 19.2 C 14.18 g/m*3 19.2 C 0 km/h
2446 10-06-2010 09:19:02 19.4 C 14.18 g/m*3 19.4 C 0 km/h
2447 10-06-2010 09:31:02 19.5 C 14.27 g/m*3 19.5 C 0 km/h
2448 10-06-2010 09:43:02 19.2 C 14.02 g/m*3 19.2 C 0 km/h
2449 10-06-2010 09:55:02 20 C 14.69 g/m*3 20 C 0 km/h
2450 10-06-2010 10:07:02 20.7 C 14.76 g/m*3 20.7 C 0 km/h
Sensor: Nr:Datum:Temp:Abs-Feuchte:Windchill:Wind:
Aussen-T/F 2451 10-06-2010 10:19:02 21.2 C 14.08 g/m*3 21.2 C 0 km/h
2452 10-06-2010 10:31:01 21.9 C 13.89 g/m*3 21.9 C 0 km/h
2453 10-06-2010 10:43:01 21.5 C 12.82 g/m*3 21.5 C 0 km/h
2454 10-06-2010 10:55:02 21.4 C 12.94 g/m*3 21.4 C 0 km/h
2455 10-06-2010 11:07:01 21.6 C 13.09 g/m*3 21.6 C 0 km/h
2456 10-06-2010 11:19:02 21.9 C 12.93 g/m*3 21.9 C 0 km/h
2457 10-06-2010 11:31:02 22.1 C 13.08 g/m*3 22.1 C 0 km/h
2458 10-06-2010 11:43:02 22.3 C 12.24 g/m*3 22.3 C 0 km/h
2459 10-06-2010 11:55:02 22.7 C 12.73 g/m*3 22.7 C 0 km/h
2460 10-06-2010 12:07:03 23.1 C 12.4 g/m*3 23.1 C 0 km/h
2461 10-06-2010 12:19:02 24.6 C 12.15 g/m*3 24.6 C 0 km/h
2462 10-06-2010 12:31:02 24.9 C 10.99 g/m*3 24.9 C 0 km/h
2463 10-06-2010 12:43:02 26.1 C 10.53 g/m*3 26.1 C 0 km/h
2464 10-06-2010 12:55:01 26.1 C 10.28 g/m*3 26.1 C 0 km/h
2465 10-06-2010 13:07:02 25.7 C 11.01 g/m*3 25.7 C 0 km/h
2466 10-06-2010 13:19:01 25.9 C 10.89 g/m*3 25.9 C 0 km/h
2467 10-06-2010 13:31:01 26.9 C 10.49 g/m*3 26.9 C 0 km/h
2468 10-06-2010 13:43:01 29.3 C 10.51 g/m*3 29.3 C 0 km/h
2469 10-06-2010 13:55:01 28.5 C 10.62 g/m*3 28.5 C 0 km/h
2470 10-06-2010 14:07:02 28.5 C 11.18 g/m*3 28.5 C 0 km/h
2471 10-06-2010 14:19:01 29.1 C 10.97 g/m*3 29.1 C 0 km/h
2472 10-06-2010 14:31:02 28.1 C 11.48 g/m*3 28.1 C 0 km/h
2473 10-06-2010 14:43:02 27 C 12.87 g/m*3 27 C 0 km/h
2474 10-06-2010 14:55:01 26.6 C 13.59 g/m*3 26.6 C 0 km/h
2475 10-06-2010 15:07:02 28.3 C 12.16 g/m*3 28.3 C 0 km/h
Sensor: Nr:Datum:Temp:Abs-Feuchte:Windchill:Wind:
Aussen-T/F 2476 10-06-2010 15:19:02 28.9 C 11.43 g/m*3 28.9 C 0 km/h
2477 10-06-2010 15:31:01 28.9 C 11.43 g/m*3 28.9 C 0 km/h
2478 10-06-2010 15:43:01 28 C 11.97 g/m*3 28 C 0 km/h
2479 10-06-2010 15:55:02 27.4 C 12.1 g/m*3 27.4 C 0 km/h
2480 10-06-2010 16:07:01 26.8 C 13.24 g/m*3 26.8 C 0 km/h
2481 10-06-2010 16:19:02 26.1 C 13.22 g/m*3 26.1 C 0 km/h
2482 10-06-2010 16:31:01 26.1 C 13.71 g/m*3 26.1 C 0 km/h
2483 10-06-2010 16:43:01 27.2 C 13.27 g/m*3 27.2 C 0 km/h
2484 10-06-2010 16:55:02 27.8 C 12.64 g/m*3 27.8 C 0 km/h
2485 10-06-2010 17:07:02 28.3 C 12.99 g/m*3 28.3 C 0 km/h
2486 10-06-2010 17:19:02 27.8 C 13.45 g/m*3 27.8 C 0 km/h
2487 10-06-2010 17:31:02 29 C 12.35 g/m*3 29 C 0 km/h
2488 10-06-2010 17:43:02 29.1 C 13 g/m*3 29.1 C 0 km/h
2489 10-06-2010 17:55:02 30.5 C 11.53 g/m*3 30.5 C 0 km/h
2490 10-06-2010 18:07:02 30.4 C 11.47 g/m*3 30.4 C 0 km/h
2491 10-06-2010 18:19:02 30.4 C 11.16 g/m*3 30.4 C 0 km/h
2492 10-06-2010 18:31:02 31.2 C 10.35 g/m*3 31.2 C 0 km/h
2493 10-06-2010 18:43:02 31.3 C 11.06 g/m*3 31.3 C 0 km/h
2494 10-06-2010 18:55:02 31.2 C 11 g/m*3 31.2 C 0 km/h
2495 10-06-2010 19:07:02 31.7 C 11.3 g/m*3 31.7 C 0 km/h
2496 10-06-2010 19:19:02 31.7 C 10.3 g/m*3 31.7 C 0 km/h
2497 10-06-2010 19:31:02 31.3 C 11.71 g/m*3 31.3 C 0 km/h
2498 10-06-2010 19:43:02 31.1 C 12.23 g/m*3 31.1 C 0 km/h
2499 10-06-2010 19:55:01 30.4 C 13.01 g/m*3 30.4 C 0 km/h
2500 10-06-2010 20:07:02 29.6 C 13.35 g/m*3 29.6 C 0 km/h
Sensor: Nr:Datum:Temp:Abs-Feuchte:Windchill:Wind:
Aussen-T/F 2501 10-06-2010 20:19:02 29.1 C 13.57 g/m*3 29.1 C 0 km/h
2502 10-06-2010 20:31:01 28.2 C 14.02 g/m*3 28.2 C 0 km/h
2503 10-06-2010 20:43:01 27.2 C 14.31 g/m*3 27.2 C 0 km/h
2504 10-06-2010 20:55:02 26.3 C 14.11 g/m*3 26.3 C 0 km/h
2505 10-06-2010 21:07:01 25.7 C 14.13 g/m*3 25.7 C 0 km/h
2506 10-06-2010 21:19:02 25.2 C 13.04 g/m*3 25.2 C 0 km/h
2507 10-06-2010 21:31:01 25 C 12.66 g/m*3 25 C 0 km/h
2508 10-06-2010 21:43:01 24.5 C 12.09 g/m*3 24.5 C 0 km/h
2509 10-06-2010 21:55:02 24.4 C 12.24 g/m*3 24.4 C 0 km/h
2510 10-06-2010 22:07:02 24.5 C 12.09 g/m*3 24.5 C 0 km/h
2511 10-06-2010 22:19:01 24.4 C 12.02 g/m*3 24.4 C 0 km/h
2512 10-06-2010 22:31:02 24.3 C 12.17 g/m*3 24.3 C 0 km/h
2513 10-06-2010 22:43:02 24.1 C 12.25 g/m*3 24.1 C 0 km/h
2514 10-06-2010 22:55:27 23.9 C 12.11 g/m*3 23.9 C 0 km/h
2515 10-06-2010 23:07:27 23.7 C 12.19 g/m*3 23.7 C 0 km/h
2516 10-06-2010 23:19:27 23.4 C 11.14 g/m*3 23.4 C 0 km/h
2517 10-06-2010 23:31:27 22.1 C 10.74 g/m*3 22.1 C 0 km/h
2518 10-06-2010 23:43:27 21.1 C 11.06 g/m*3 21.1 C 0 km/h
2519 10-06-2010 23:55:27 19.7 C 12.06 g/m*3 19.7 C 0 km/h
2520 11-06-2010 00:07:27 19.4 C 11.85 g/m*3 19.4 C 0 km/h
2521 11-06-2010 00:19:27 20 C 11.41 g/m*3 20 C 0 km/h
2522 11-06-2010 00:31:27 18.8 C 12.24 g/m*3 18.8 C 0 km/h
2523 11-06-2010 00:43:27 18.3 C 12.66 g/m*3 18.3 C 0 km/h
2524 11-06-2010 00:55:27 17.9 C 12.98 g/m*3 17.9 C 0 km/h
2525 11-06-2010 01:07:28 17.7 C 13.13 g/m*3 17.7 C 0 km/h
Sensor: Nr:Datum:Temp:Abs-Feuchte:Windchill:Wind:
Aussen-T/F 2526 11-06-2010 01:19:28 17.8 C 13.36 g/m*3 17.8 C 0 km/h
2527 11-06-2010 01:31:28 17.8 C 13.51 g/m*3 17.8 C 0 km/h
2528 11-06-2010 01:43:28 17.9 C 13.74 g/m*3 17.9 C 0 km/h
2529 11-06-2010 01:55:28 18 C 13.82 g/m*3 18 C 0 km/h
2530 11-06-2010 02:07:28 17.5 C 13.57 g/m*3 17.5 C 0 km/h
2531 11-06-2010 02:19:28 17.5 C 13.57 g/m*3 17.5 C 0 km/h
2532 11-06-2010 02:31:28 17.6 C 13.8 g/m*3 17.6 C 0 km/h
2533 11-06-2010 02:43:28 17.7 C 13.88 g/m*3 17.7 C 0 km/h
2534 11-06-2010 02:55:28 17.6 C 13.8 g/m*3 17.6 C 0 km/h
2535 11-06-2010 03:07:28 17.4 C 13.63 g/m*3 17.4 C 0 km/h
2536 11-06-2010 03:19:28 17.3 C 13.7 g/m*3 17.3 C 0 km/h
2537 11-06-2010 03:31:28 17.5 C 13.87 g/m*3 17.5 C 0 km/h
2538 11-06-2010 03:43:28 17.5 C 13.87 g/m*3 17.5 C 0 km/h
2539 11-06-2010 03:55:28 17.3 C 13.7 g/m*3 17.3 C 0 km/h
2540 11-06-2010 04:07:28 17.1 C 13.54 g/m*3 17.1 C 0 km/h
2541 11-06-2010 04:19:28 17.1 C 13.54 g/m*3 17.1 C 0 km/h
2542 11-06-2010 04:31:28 17.2 C 13.62 g/m*3 17.2 C 0 km/h
2543 11-06-2010 04:43:28 17 C 13.46 g/m*3 17 C 0 km/h
2544 11-06-2010 04:55:28 17.1 C 13.54 g/m*3 17.1 C 0 km/h
2545 11-06-2010 05:07:28 17.1 C 13.54 g/m*3 17.1 C 0 km/h
2546 11-06-2010 05:19:28 17 C 13.6 g/m*3 17 C 0 km/h
2547 11-06-2010 05:31:29 16.9 C 13.52 g/m*3 16.9 C 0 km/h
2548 11-06-2010 05:43:29 17 C 13.6 g/m*3 17 C 0 km/h
2549 11-06-2010 05:55:29 17 C 13.6 g/m*3 17 C 0 km/h
2550 11-06-2010 06:07:29 17 C 13.6 g/m*3 17 C 0 km/h
Sensor: Nr:Datum:Temp:Abs-Feuchte:Windchill:Wind:
Aussen-T/F 2551 11-06-2010 06:19:29 17 C 13.6 g/m*3 17 C 0 km/h
2552 11-06-2010 06:31:29 17 C 13.6 g/m*3 17 C 0 km/h
2553 11-06-2010 06:43:29 17 C 13.6 g/m*3 17 C 0 km/h
2554 11-06-2010 06:55:29 16.9 C 13.66 g/m*3 16.9 C 0 km/h
2555 11-06-2010 07:07:29 16.9 C 13.66 g/m*3 16.9 C 0 km/h
2556 11-06-2010 07:19:01 16.9 C 13.66 g/m*3 16.9 C 0 km/h
2557 11-06-2010 07:31:32 16.9 C 13.66 g/m*3 16.9 C 0 km/h
2558 11-06-2010 07:44:01 16.8 C 13.58 g/m*3 16.8 C 0 km/h
2559 11-06-2010 07:55:02 16.9 C 13.66 g/m*3 16.9 C 0 km/h
2560 11-06-2010 08:08:01 16.6 C 13.28 g/m*3 16.6 C 0 km/h
2561 11-06-2010 08:19:01 16.8 C 13.3 g/m*3 16.8 C 0 km/h
2562 11-06-2010 08:31:02 16.9 C 13.09 g/m*3 16.9 C 0 km/h
2563 11-06-2010 08:43:02 17.3 C 13.11 g/m*3 17.3 C 0 km/h
2564 11-06-2010 08:55:01 17.6 C 13.35 g/m*3 17.6 C 0 km/h
2565 11-06-2010 09:07:02 18.1 C 13.44 g/m*3 18.1 C 0 km/h
2566 11-06-2010 09:20:01 19 C 14.01 g/m*3 19 C 0 km/h
2567 11-06-2010 09:31:01 20 C 14.34 g/m*3 20 C 0 km/h
2568 11-06-2010 09:43:01 19.8 C 13.84 g/m*3 19.8 C 0 km/h
2569 11-06-2010 09:56:01 19.7 C 12.57 g/m*3 19.7 C 0 km/h
2570 11-06-2010 10:07:02 20 C 12.27 g/m*3 20 C 0 km/h
2571 11-06-2010 10:20:01 20.3 C 11.78 g/m*3 20.3 C 0 km/h
2572 11-06-2010 10:32:01 20.7 C 11.52 g/m*3 20.7 C 0 km/h
2573 11-06-2010 10:44:01 21.1 C 11.61 g/m*3 21.1 C 0 km/h
2574 11-06-2010 10:56:01 21.4 C 11.62 g/m*3 21.4 C 0 km/h
2575 11-06-2010 11:07:01 21.8 C 11.13 g/m*3 21.8 C 0 km/h
Sensor: Nr:Datum:Temp:Abs-Feuchte:Windchill:Wind:
Aussen-T/F 2576 11-06-2010 11:19:02 22.3 C 11.06 g/m*3 22.3 C 0 km/h
2577 11-06-2010 11:32:01 22.6 C 10.85 g/m*3 22.6 C 0 km/h
2578 11-06-2010 11:44:01 23.2 C 10.6 g/m*3 23.2 C 0 km/h
2579 11-06-2010 11:56:01 23.9 C 10.38 g/m*3 23.9 C 0 km/h
2580 11-06-2010 12:08:01 24 C 9.36 g/m*3 24 C 0 km/h
2581 11-06-2010 12:19:02 25.4 C 9.18 g/m*3 25.4 C 0 km/h
2582 11-06-2010 12:32:01 26.2 C 8.62 g/m*3 26.2 C 0 km/h
2583 11-06-2010 12:44:01 25.9 C 8.23 g/m*3 25.9 C 0 km/h
2584 11-06-2010 12:55:02 26.7 C 7.85 g/m*3 26.7 C 0 km/h
2585 11-06-2010 13:08:01 27.2 C 8.07 g/m*3 27.2 C 0 km/h
2586 11-06-2010 13:20:01 27.5 C 7.41 g/m*3 27.5 C 0 km/h
2587 11-06-2010 13:31:02 27.8 C 7.8 g/m*3 27.8 C 0 km/h
2588 11-06-2010 13:43:02 27.5 C 7.41 g/m*3 27.5 C 0 km/h
2589 11-06-2010 13:55:01 27.9 C 7.84 g/m*3 27.9 C 0 km/h
2590 11-06-2010 14:08:01 27.3 C 7.85 g/m*3 27.3 C 0 km/h
2591 11-06-2010 14:20:01 26.9 C 7.68 g/m*3 26.9 C 0 km/h
2592 11-06-2010 14:31:02 26.7 C 7.59 g/m*3 26.7 C 0 km/h
2593 11-06-2010 14:43:02 27.1 C 7.25 g/m*3 27.1 C 0 km/h
2594 11-06-2010 14:56:01 27.6 C 7.71 g/m*3 27.6 C 0 km/h
2595 11-06-2010 15:07:02 28 C 7.34 g/m*3 28 C 0 km/h
2596 11-06-2010 15:20:01 28.1 C 7.11 g/m*3 28.1 C 0 km/h
2597 11-06-2010 15:32:01 28.7 C 7.63 g/m*3 28.7 C 0 km/h
2598 11-06-2010 15:44:02 29.1 C 7.22 g/m*3 29.1 C 0 km/h
2599 11-06-2010 15:56:01 29.5 C 7.38 g/m*3 29.5 C 0 km/h
2600 11-06-2010 16:07:02 29.8 C 7.2 g/m*3 29.8 C 0 km/h
Sensor: Nr:Datum:Temp:Abs-Feuchte:Windchill:Wind:
Aussen-T/F 2601 11-06-2010 16:20:01 29.7 C 6.86 g/m*3 29.7 C 0 km/h
2602 11-06-2010 16:32:01 29.9 C 6.64 g/m*3 29.9 C 0 km/h
2603 11-06-2010 16:44:01 30.1 C 7.01 g/m*3 30.1 C 0 km/h
2604 11-06-2010 16:56:01 30.1 C 6.71 g/m*3 30.1 C 0 km/h
2605 11-06-2010 17:07:02 30 C 6.37 g/m*3 30 C 0 km/h
2606 11-06-2010 17:20:01 30.6 C 6.26 g/m*3 30.6 C 0 km/h
2607 11-06-2010 17:32:01 30.6 C 6.26 g/m*3 30.6 C 0 km/h
2608 11-06-2010 17:44:01 30.7 C 6.3 g/m*3 30.7 C 0 km/h
2609 11-06-2010 17:56:01 31 C 6.4 g/m*3 31 C 0 km/h
2610 11-06-2010 18:08:02 31 C 6.4 g/m*3 31 C 0 km/h
2611 11-06-2010 18:20:01 31 C 6.4 g/m*3 31 C 0 km/h
2612 11-06-2010 18:32:01 30.6 C 6.26 g/m*3 30.6 C 0 km/h
2613 11-06-2010 18:44:01 30.6 C 6.26 g/m*3 30.6 C 0 km/h
2614 11-06-2010 18:56:01 30.5 C 6.23 g/m*3 30.5 C 0 km/h
2615 11-06-2010 19:08:01 30.6 C 6.26 g/m*3 30.6 C 0 km/h
2616 11-06-2010 19:19:02 31 C 6.4 g/m*3 31 C 0 km/h
2617 11-06-2010 19:32:01 31 C 6.4 g/m*3 31 C 0 km/h
2618 11-06-2010 19:44:01 30.6 C 6.26 g/m*3 30.6 C 0 km/h
2619 11-06-2010 19:56:01 30.3 C 7.09 g/m*3 30.3 C 0 km/h
2620 11-06-2010 20:08:01 30 C 6.97 g/m*3 30 C 0 km/h
2621 11-06-2010 20:20:02 29.5 C 7.08 g/m*3 29.5 C 0 km/h
2622 11-06-2010 20:32:01 27.9 C 7.03 g/m*3 27.9 C 0 km/h
2623 11-06-2010 20:44:01 27 C 7.46 g/m*3 27 C 0 km/h
2624 11-06-2010 20:56:02 26 C 7.55 g/m*3 26 C 0 km/h
2625 11-06-2010 21:08:01 25 C 7.83 g/m*3 25 C 0 km/h
Sensor: Nr:Datum:Temp:Abs-Feuchte:Windchill:Wind:
Aussen-T/F 2626 11-06-2010 21:20:01 24.7 C 8.6 g/m*3 24.7 C 0 km/h
2627 11-06-2010 21:32:01 24.3 C 8.85 g/m*3 24.3 C 0 km/h
2628 11-06-2010 21:44:01 24.2 C 8.58 g/m*3 24.2 C 0 km/h
2629 11-06-2010 21:56:02 24.2 C 8.58 g/m*3 24.2 C 0 km/h
2630 11-06-2010 22:08:02 24 C 8.05 g/m*3 24 C 0 km/h
2631 11-06-2010 22:20:01 24 C 8.27 g/m*3 24 C 0 km/h
2632 11-06-2010 22:32:01 23.4 C 8.41 g/m*3 23.4 C 0 km/h
2633 11-06-2010 22:44:01 23.2 C 7.9 g/m*3 23.2 C 0 km/h
2634 11-06-2010 22:56:01 23.1 C 7.65 g/m*3 23.1 C 0 km/h
2635 11-06-2010 23:08:02 23 C 7.4 g/m*3 23 C 0 km/h
2636 11-06-2010 23:20:01 23 C 7.6 g/m*3 23 C 0 km/h
2637 11-06-2010 23:32:01 23 C 7.6 g/m*3 23 C 0 km/h
2638 11-06-2010 23:44:01 22.8 C 7.72 g/m*3 22.8 C 0 km/h
2639 11-06-2010 23:56:01 22.5 C 7.99 g/m*3 22.5 C 0 km/h
2640 12-06-2010 00:08:01 22.2 C 8.05 g/m*3 22.2 C 0 km/h
2641 12-06-2010 00:20:01 22.1 C 8.78 g/m*3 22.1 C 0 km/h
2642 12-06-2010 00:32:01 21.9 C 9.07 g/m*3 21.9 C 0 km/h
2643 12-06-2010 00:44:01 21.8 C 9.02 g/m*3 21.8 C 0 km/h
2644 12-06-2010 00:56:01 21.5 C 9.43 g/m*3 21.5 C 0 km/h
2645 12-06-2010 01:08:01 21.2 C 9.64 g/m*3 21.2 C 0 km/h
2646 12-06-2010 01:20:01 21.2 C 9.82 g/m*3 21.2 C 0 km/h
2647 12-06-2010 01:32:01 20.8 C 9.78 g/m*3 20.8 C 0 km/h
2648 12-06-2010 01:44:01 20.7 C 9.72 g/m*3 20.7 C 0 km/h
2649 12-06-2010 01:56:01 20.8 C 9.96 g/m*3 20.8 C 0 km/h
2650 12-06-2010 02:08:01 20.5 C 9.79 g/m*3 20.5 C 0 km/h
Sensor: Nr:Datum:Temp:Abs-Feuchte:Windchill:Wind:
Aussen-T/F 2651 12-06-2010 02:20:02 20.2 C 9.97 g/m*3 20.2 C 0 km/h
2652 12-06-2010 02:32:01 20.3 C 10.2 g/m*3 20.3 C 0 km/h
2653 12-06-2010 02:44:01 20.1 C 9.91 g/m*3 20.1 C 0 km/h
2654 12-06-2010 02:56:03 20.1 C 10.08 g/m*3 20.1 C 0 km/h
2655 12-06-2010 03:08:03 20 C 9.85 g/m*3 20 C 0 km/h
2656 12-06-2010 03:20:03 19.8 C 10.08 g/m*3 19.8 C 0 km/h
2657 12-06-2010 03:32:02 19.7 C 10.19 g/m*3 19.7 C 0 km/h
2658 12-06-2010 03:44:02 19.6 C 10.3 g/m*3 19.6 C 0 km/h
2659 12-06-2010 03:56:02 19.6 C 10.3 g/m*3 19.6 C 0 km/h
2660 12-06-2010 04:08:02 19.4 C 10.18 g/m*3 19.4 C 0 km/h
2661 12-06-2010 04:20:01 19.4 C 10.34 g/m*3 19.4 C 0 km/h
2662 12-06-2010 04:32:02 19.4 C 10.68 g/m*3 19.4 C 0 km/h
2663 12-06-2010 04:44:02 19.3 C 10.62 g/m*3 19.3 C 0 km/h
2664 12-06-2010 04:56:02 19.1 C 10.98 g/m*3 19.1 C 0 km/h
2665 12-06-2010 05:08:02 18.7 C 11.21 g/m*3 18.7 C 0 km/h
2666 12-06-2010 05:20:01 18.8 C 11.27 g/m*3 18.8 C 0 km/h
2667 12-06-2010 05:32:02 18.7 C 11.21 g/m*3 18.7 C 0 km/h
2668 12-06-2010 05:44:02 18.7 C 11.05 g/m*3 18.7 C 0 km/h
2669 12-06-2010 05:56:02 18.7 C 10.89 g/m*3 18.7 C 0 km/h
2670 12-06-2010 06:08:02 18.6 C 10.66 g/m*3 18.6 C 0 km/h
2671 12-06-2010 06:20:02 18.7 C 10.89 g/m*3 18.7 C 0 km/h
2672 12-06-2010 06:32:02 18.9 C 11.02 g/m*3 18.9 C 0 km/h
2673 12-06-2010 06:44:02 18.4 C 11.32 g/m*3 18.4 C 0 km/h
2674 12-06-2010 06:56:02 18.3 C 11.88 g/m*3 18.3 C 0 km/h
2675 12-06-2010 07:08:02 18.3 C 12.2 g/m*3 18.3 C 0 km/h
Sensor: Nr:Datum:Temp:Abs-Feuchte:Windchill:Wind:
Aussen-T/F 2676 12-06-2010 07:20:02 18.2 C 11.97 g/m*3 18.2 C 0 km/h
2677 12-06-2010 07:32:01 18.5 C 12.18 g/m*3 18.5 C 0 km/h
2678 12-06-2010 07:44:01 18.3 C 12.04 g/m*3 18.3 C 0 km/h
2679 12-06-2010 07:56:02 18.6 C 12.41 g/m*3 18.6 C 0 km/h
2680 12-06-2010 08:08:01 18.6 C 12.41 g/m*3 18.6 C 0 km/h
2681 12-06-2010 08:20:02 18.5 C 12.18 g/m*3 18.5 C 0 km/h
2682 12-06-2010 08:32:01 18.9 C 12.64 g/m*3 18.9 C 0 km/h
2683 12-06-2010 08:44:01 18.6 C 12.41 g/m*3 18.6 C 0 km/h
2684 12-06-2010 08:56:02 19.3 C 12.44 g/m*3 19.3 C 0 km/h
2685 12-06-2010 09:08:02 19.1 C 12.13 g/m*3 19.1 C 0 km/h
2686 12-06-2010 09:20:02 19.1 C 11.97 g/m*3 19.1 C 0 km/h
2687 12-06-2010 09:32:02 19 C 11.57 g/m*3 19 C 0 km/h
2688 12-06-2010 09:44:02 19.6 C 11.31 g/m*3 19.6 C 0 km/h
2689 12-06-2010 09:56:02 19.6 C 10.97 g/m*3 19.6 C 0 km/h
2690 12-06-2010 10:08:01 20 C 10.89 g/m*3 20 C 0 km/h
2691 12-06-2010 10:20:02 19.6 C 10.3 g/m*3 19.6 C 0 km/h
2692 12-06-2010 10:32:02 20.3 C 10.55 g/m*3 20.3 C 0 km/h
2693 12-06-2010 10:44:02 20.5 C 10.14 g/m*3 20.5 C 0 km/h
2694 12-06-2010 10:56:02 21.3 C 10.25 g/m*3 21.3 C 0 km/h
2695 12-06-2010 11:08:02 21.2 C 10.19 g/m*3 21.2 C 0 km/h
2696 12-06-2010 11:20:02 22.1 C 9.96 g/m*3 22.1 C 0 km/h
2697 12-06-2010 11:32:02 22.8 C 9.35 g/m*3 22.8 C 0 km/h
2698 12-06-2010 11:44:03 23.2 C 9.36 g/m*3 23.2 C 0 km/h
2699 12-06-2010 11:56:02 22.9 C 8.99 g/m*3 22.9 C 0 km/h
2700 12-06-2010 12:08:01 23 C 8.43 g/m*3 23 C 0 km/h
Sensor: Nr:Datum:Temp:Abs-Feuchte:Windchill:Wind:
Aussen-T/F 2701 12-06-2010 12:20:01 23.6 C 8.51 g/m*3 23.6 C 0 km/h
2702 12-06-2010 12:32:02 23.6 C 8.72 g/m*3 23.6 C 0 km/h
2703 12-06-2010 12:44:02 22.9 C 8.99 g/m*3 22.9 C 0 km/h
2704 12-06-2010 12:56:02 23.4 C 8.83 g/m*3 23.4 C 0 km/h
2705 12-06-2010 13:08:01 25.2 C 8.38 g/m*3 25.2 C 0 km/h
2706 12-06-2010 13:20:02 23.8 C 8.82 g/m*3 23.8 C 0 km/h
2707 12-06-2010 13:32:02 24.4 C 8.23 g/m*3 24.4 C 0 km/h
2708 12-06-2010 13:44:02 23.2 C 8.52 g/m*3 23.2 C 0 km/h
2709 12-06-2010 13:56:02 24.2 C 8.36 g/m*3 24.2 C 0 km/h
2710 12-06-2010 14:08:01 24.6 C 8.33 g/m*3 24.6 C 0 km/h
2711 12-06-2010 14:20:01 24 C 8.27 g/m*3 24 C 0 km/h
2712 12-06-2010 14:32:02 23.9 C 8.65 g/m*3 23.9 C 0 km/h
2713 12-06-2010 14:44:02 24 C 8.49 g/m*3 24 C 0 km/h
2714 12-06-2010 14:56:02 25.9 C 8.47 g/m*3 25.9 C 0 km/h
2715 12-06-2010 15:08:02 25.2 C 8.15 g/m*3 25.2 C 0 km/h
2716 12-06-2010 15:20:02 24.8 C 8.19 g/m*3 24.8 C 0 km/h
2717 12-06-2010 15:32:02 23.9 C 8.87 g/m*3 23.9 C 0 km/h
2718 12-06-2010 15:44:02 21.8 C 9.98 g/m*3 21.8 C 0 km/h
2719 12-06-2010 15:56:02 19.2 C 10.06 g/m*3 19.2 C 0 km/h
2720 12-06-2010 16:08:03 18.9 C 10.37 g/m*3 18.9 C 0 km/h
2721 12-06-2010 16:20:02 17.9 C 9.92 g/m*3 17.9 C 0 km/h
2722 12-06-2010 16:32:02 17.4 C 10.37 g/m*3 17.4 C 0 km/h
2723 12-06-2010 16:44:02 15.9 C 10.16 g/m*3 15.9 C 0 km/h
2724 12-06-2010 16:56:01 15.1 C 10.19 g/m*3 15.1 C 0 km/h
2725 12-06-2010 17:08:02 15.2 C 10.51 g/m*3 15.2 C 0 km/h
Sensor: Nr:Datum:Temp:Abs-Feuchte:Windchill:Wind:
Aussen-T/F 2726 12-06-2010 17:20:01 14.2 C 9.65 g/m*3 14.2 C 0 km/h
2727 12-06-2010 17:32:01 13.7 C 9.47 g/m*3 13.7 C 0 km/h
2728 12-06-2010 17:44:01 13.6 C 9.53 g/m*3 13.6 C 0 km/h
2729 12-06-2010 17:56:01 14.4 C 10.14 g/m*3 14.4 C 0 km/h
2730 12-06-2010 18:08:02 14.7 C 10.32 g/m*3 14.7 C 0 km/h
2731 12-06-2010 18:20:02 14.6 C 10.01 g/m*3 14.6 C 0 km/h
2732 12-06-2010 18:32:01 14.8 C 10.26 g/m*3 14.8 C 0 km/h
2733 12-06-2010 18:44:01 14.4 C 9.89 g/m*3 14.4 C 0 km/h
2734 12-06-2010 18:56:01 14.6 C 10.14 g/m*3 14.6 C 0 km/h
2735 12-06-2010 19:08:01 14.6 C 9.89 g/m*3 14.6 C 0 km/h
2736 12-06-2010 19:20:02 14.4 C 9.64 g/m*3 14.4 C 0 km/h
2737 12-06-2010 19:32:01 14.7 C 9.69 g/m*3 14.7 C 0 km/h
2738 12-06-2010 19:44:01 15 C 9.75 g/m*3 15 C 0 km/h
2739 12-06-2010 19:56:02 15.4 C 9.99 g/m*3 15.4 C 0 km/h
2740 12-06-2010 20:08:01 15.3 C 9.66 g/m*3 15.3 C 0 km/h
2741 12-06-2010 20:20:02 15.3 C 9.53 g/m*3 15.3 C 0 km/h
2742 12-06-2010 20:32:01 15.3 C 9.53 g/m*3 15.3 C 0 km/h
2743 12-06-2010 20:44:01 15.4 C 9.46 g/m*3 15.4 C 0 km/h
2744 12-06-2010 20:56:02 15.4 C 9.46 g/m*3 15.4 C 0 km/h
2745 12-06-2010 21:08:02 15.2 C 9.35 g/m*3 15.2 C 0 km/h
2746 12-06-2010 21:20:02 15.1 C 9.29 g/m*3 15.1 C 0 km/h
2747 12-06-2010 21:32:02 15 C 9.36 g/m*3 15 C 0 km/h
2748 12-06-2010 21:44:02 14.9 C 9.56 g/m*3 14.9 C 0 km/h
2749 12-06-2010 21:56:02 14.7 C 9.44 g/m*3 14.7 C 0 km/h
2750 12-06-2010 22:08:01 14.7 C 9.44 g/m*3 14.7 C 0 km/h
Sensor: Nr:Datum:Temp:Abs-Feuchte:Windchill:Wind:
Aussen-T/F 2751 12-06-2010 22:20:02 14.7 C 9.57 g/m*3 14.7 C 0 km/h
2752 12-06-2010 22:32:01 14.6 C 9.51 g/m*3 14.6 C 0 km/h
2753 12-06-2010 22:44:01 14.4 C 9.39 g/m*3 14.4 C 0 km/h
2754 12-06-2010 22:56:02 14.1 C 9.22 g/m*3 14.1 C 0 km/h
2755 12-06-2010 23:09:03 13.6 C 9.06 g/m*3 13.6 C 0 km/h
2756 12-06-2010 23:21:03 13.4 C 9.07 g/m*3 13.4 C 0 km/h
2757 12-06-2010 23:33:03 13.2 C 8.96 g/m*3 13.2 C 0 km/h
2758 12-06-2010 23:45:03 13.2 C 8.96 g/m*3 13.2 C 0 km/h
2759 12-06-2010 23:57:03 13 C 8.85 g/m*3 13 C 0 km/h
2760 13-06-2010 00:09:03 12.8 C 8.85 g/m*3 12.8 C 0 km/h
2761 13-06-2010 00:21:03 12.6 C 8.85 g/m*3 12.6 C 0 km/h
2762 13-06-2010 00:33:03 12.6 C 8.85 g/m*3 12.6 C 0 km/h
2763 13-06-2010 00:45:03 12.6 C 8.96 g/m*3 12.6 C 0 km/h
2764 13-06-2010 00:57:03 12.8 C 9.07 g/m*3 12.8 C 0 km/h
2765 13-06-2010 01:09:03 13.1 C 9.24 g/m*3 13.1 C 0 km/h
2766 13-06-2010 01:21:03 13.3 C 9.47 g/m*3 13.3 C 0 km/h
2767 13-06-2010 01:33:03 13.4 C 9.53 g/m*3 13.4 C 0 km/h
2768 13-06-2010 01:45:04 13.4 C 9.42 g/m*3 13.4 C 0 km/h
2769 13-06-2010 01:57:04 13.3 C 9.36 g/m*3 13.3 C 0 km/h
2770 13-06-2010 02:09:04 13.5 C 9.59 g/m*3 13.5 C 0 km/h
2771 13-06-2010 02:21:04 13.3 C 9.47 g/m*3 13.3 C 0 km/h
2772 13-06-2010 02:33:04 13.2 C 9.42 g/m*3 13.2 C 0 km/h
2773 13-06-2010 02:45:04 13 C 9.41 g/m*3 13 C 0 km/h
2774 13-06-2010 02:57:04 12.7 C 9.46 g/m*3 12.7 C 0 km/h
2775 13-06-2010 03:09:04 12.5 C 9.46 g/m*3 12.5 C 0 km/h
Sensor: Nr:Datum:Temp:Abs-Feuchte:Windchill:Wind:
Aussen-T/F 2776 13-06-2010 03:21:04 12.4 C 9.4 g/m*3 12.4 C 0 km/h
2777 13-06-2010 03:33:04 12.2 C 9.28 g/m*3 12.2 C 0 km/h
2778 13-06-2010 03:45:04 11.9 C 9.21 g/m*3 11.9 C 0 km/h
2779 13-06-2010 03:57:04 11.8 C 9.16 g/m*3 11.8 C 0 km/h
2780 13-06-2010 04:09:04 11.5 C 8.99 g/m*3 11.5 C 0 km/h
2781 13-06-2010 04:21:04 11.4 C 8.83 g/m*3 11.4 C 0 km/h
2782 13-06-2010 04:33:04 11.4 C 8.72 g/m*3 11.4 C 0 km/h
2783 13-06-2010 04:45:04 11.2 C 8.51 g/m*3 11.2 C 0 km/h
2784 13-06-2010 04:57:04 11.1 C 8.46 g/m*3 11.1 C 0 km/h
2785 13-06-2010 05:09:04 11 C 8.51 g/m*3 11 C 0 km/h
2786 13-06-2010 05:21:04 11 C 8.41 g/m*3 11 C 0 km/h
2787 13-06-2010 05:33:04 10.8 C 8.3 g/m*3 10.8 C 0 km/h
2788 13-06-2010 05:45:04 10.7 C 8.25 g/m*3 10.7 C 0 km/h
2789 13-06-2010 05:57:04 10.6 C 8.2 g/m*3 10.6 C 0 km/h
2790 13-06-2010 06:09:05 10.5 C 8.15 g/m*3 10.5 C 0 km/h
2791 13-06-2010 06:21:05 10.5 C 8.24 g/m*3 10.5 C 0 km/h
2792 13-06-2010 06:33:05 10.5 C 8.24 g/m*3 10.5 C 0 km/h
2793 13-06-2010 06:45:05 10.5 C 8.24 g/m*3 10.5 C 0 km/h
2794 13-06-2010 06:57:05 10.5 C 8.24 g/m*3 10.5 C 0 km/h
2795 13-06-2010 07:09:05 10.7 C 8.45 g/m*3 10.7 C 0 km/h
2796 13-06-2010 07:21:05 11 C 8.61 g/m*3 11 C 0 km/h
2797 13-06-2010 07:33:05 11.4 C 8.72 g/m*3 11.4 C 0 km/h
2798 13-06-2010 07:45:02 11.7 C 8.79 g/m*3 11.7 C 0 km/h
2799 13-06-2010 07:57:02 12.1 C 8.69 g/m*3 12.1 C 0 km/h
2800 13-06-2010 08:09:02 12.6 C 8.63 g/m*3 12.6 C 0 km/h
Sensor: Nr:Datum:Temp:Abs-Feuchte:Windchill:Wind:
Aussen-T/F 2801 13-06-2010 08:21:02 12.8 C 8.29 g/m*3 12.8 C 0 km/h
2802 13-06-2010 08:33:02 13.2 C 7.92 g/m*3 13.2 C 0 km/h
2803 13-06-2010 08:45:02 13.5 C 7.95 g/m*3 13.5 C 0 km/h
2804 13-06-2010 08:57:02 13.7 C 8.05 g/m*3 13.7 C 0 km/h
2805 13-06-2010 09:09:01 14.1 C 8.01 g/m*3 14.1 C 0 km/h
2806 13-06-2010 09:21:02 15 C 7.95 g/m*3 15 C 0 km/h
2807 13-06-2010 09:33:02 15.7 C 7.76 g/m*3 15.7 C 0 km/h
2808 13-06-2010 09:45:02 16.7 C 7.39 g/m*3 16.7 C 0 km/h
2809 13-06-2010 09:57:02 17.7 C 6.79 g/m*3 17.7 C 0 km/h
2810 13-06-2010 10:09:02 18.9 C 6.48 g/m*3 18.9 C 0 km/h
2811 13-06-2010 10:21:02 19.5 C 6.38 g/m*3 19.5 C 0 km/h
2812 13-06-2010 10:33:02 16.8 C 6.43 g/m*3 16.8 C 0 km/h
2813 13-06-2010 10:45:02 16.2 C 5.79 g/m*3 16.2 C 0 km/h
2814 13-06-2010 10:57:02 17.4 C 6.37 g/m*3 17.4 C 0 km/h
2815 13-06-2010 11:09:02 18.5 C 5.85 g/m*3 18.5 C 0 km/h
2816 13-06-2010 11:21:02 19 C 5.87 g/m*3 19 C 0 km/h
2817 13-06-2010 11:33:02 19.5 C 6.04 g/m*3 19.5 C 0 km/h
2818 13-06-2010 11:45:02 19.8 C 5.64 g/m*3 19.8 C 0 km/h
2819 13-06-2010 11:57:02 20.9 C 6.19 g/m*3 20.9 C 0 km/h
2820 13-06-2010 12:09:02 21.3 C 5.59 g/m*3 21.3 C 0 km/h
2821 13-06-2010 12:21:02 22.4 C 5.36 g/m*3 22.4 C 0 km/h
2822 13-06-2010 12:33:02 23.8 C 5.38 g/m*3 23.8 C 0 km/h
2823 13-06-2010 12:45:02 23.1 C 5.17 g/m*3 23.1 C 0 km/h
2824 13-06-2010 12:57:02 23.6 C 4.89 g/m*3 23.6 C 0 km/h
2825 13-06-2010 13:09:02 23.4 C 5.47 g/m*3 23.4 C 0 km/h
Sensor: Nr:Datum:Temp:Abs-Feuchte:Windchill:Wind:
Aussen-T/F 2826 13-06-2010 13:21:02 24.9 C 4.81 g/m*3 24.9 C 0 km/h
2827 13-06-2010 13:33:02 25.4 C 4.71 g/m*3 25.4 C 0 km/h
2828 13-06-2010 13:45:02 25.1 C 4.63 g/m*3 25.1 C 0 km/h
2829 13-06-2010 13:57:02 25.2 C 4.66 g/m*3 25.2 C 0 km/h
2830 13-06-2010 14:09:02 24.8 C 4.78 g/m*3 24.8 C 0 km/h
2831 13-06-2010 14:21:02 24.8 C 5.01 g/m*3 24.8 C 0 km/h
2832 13-06-2010 14:33:01 23.9 C 4.98 g/m*3 23.9 C 0 km/h
2833 13-06-2010 14:45:02 22.6 C 4.62 g/m*3 22.6 C 0 km/h
2834 13-06-2010 14:57:02 24.5 C 5.15 g/m*3 24.5 C 0 km/h
2835 13-06-2010 15:09:01 25.1 C 5.32 g/m*3 25.1 C 0 km/h
2836 13-06-2010 15:21:02 25.8 C 5.06 g/m*3 25.8 C 0 km/h
2837 13-06-2010 15:33:01 24.1 C 4.38 g/m*3 24.1 C 0 km/h
2838 13-06-2010 15:45:02 24.3 C 4.43 g/m*3 24.3 C 0 km/h
2839 13-06-2010 15:57:02 23.8 C 4.3 g/m*3 23.8 C 0 km/h
2840 13-06-2010 16:09:02 24.3 C 4.43 g/m*3 24.3 C 0 km/h
2841 13-06-2010 16:21:02 24.6 C 4.5 g/m*3 24.6 C 0 km/h
2842 13-06-2010 16:33:02 24.2 C 4.4 g/m*3 24.2 C 0 km/h
2843 13-06-2010 16:45:02 26 C 4.87 g/m*3 26 C 0 km/h
2844 13-06-2010 16:57:02 26 C 4.87 g/m*3 26 C 0 km/h
2845 13-06-2010 17:09:01 26.1 C 4.9 g/m*3 26.1 C 0 km/h
2846 13-06-2010 17:21:02 26.3 C 4.95 g/m*3 26.3 C 0 km/h
2847 13-06-2010 17:33:02 26 C 4.87 g/m*3 26 C 0 km/h
2848 13-06-2010 17:45:02 26.5 C 5.01 g/m*3 26.5 C 0 km/h
2849 13-06-2010 17:57:02 25.4 C 4.71 g/m*3 25.4 C 0 km/h
2850 13-06-2010 18:09:02 26.5 C 5.01 g/m*3 26.5 C 0 km/h
Sensor: Nr:Datum:Temp:Abs-Feuchte:Windchill:Wind:
Aussen-T/F 2851 13-06-2010 18:21:02 27.1 C 5.18 g/m*3 27.1 C 0 km/h
2852 13-06-2010 18:33:02 25.8 C 4.82 g/m*3 25.8 C 0 km/h
2853 13-06-2010 18:45:01 26.5 C 5.01 g/m*3 26.5 C 0 km/h
2854 13-06-2010 18:57:01 26.3 C 4.95 g/m*3 26.3 C 0 km/h
2855 13-06-2010 19:09:02 26.3 C 4.95 g/m*3 26.3 C 0 km/h
2856 13-06-2010 19:21:01 25.9 C 4.84 g/m*3 25.9 C 0 km/h
2857 13-06-2010 19:33:01 25.4 C 4.71 g/m*3 25.4 C 0 km/h
2858 13-06-2010 19:45:01 24.1 C 4.38 g/m*3 24.1 C 0 km/h
2859 13-06-2010 19:57:01 23.6 C 5.32 g/m*3 23.6 C 0 km/h
2860 13-06-2010 20:09:02 24.1 C 4.81 g/m*3 24.1 C 0 km/h
2861 13-06-2010 20:21:01 24.7 C 5.21 g/m*3 24.7 C 0 km/h
2862 13-06-2010 20:33:01 24.5 C 4.92 g/m*3 24.5 C 0 km/h
2863 13-06-2010 20:45:01 23.4 C 5.05 g/m*3 23.4 C 0 km/h
2864 13-06-2010 20:57:01 22.8 C 6.1 g/m*3 22.8 C 0 km/h
2865 13-06-2010 21:09:02 21.8 C 6.33 g/m*3 21.8 C 0 km/h
2866 13-06-2010 21:21:01 20.6 C 6.44 g/m*3 20.6 C 0 km/h
2867 13-06-2010 21:33:01 19.3 C 6.3 g/m*3 19.3 C 0 km/h
2868 13-06-2010 21:45:02 18.6 C 6.37 g/m*3 18.6 C 0 km/h
2869 13-06-2010 21:57:02 17.9 C 6.26 g/m*3 17.9 C 0 km/h
2870 13-06-2010 22:09:02 18.1 C 6.33 g/m*3 18.1 C 0 km/h
2871 13-06-2010 22:21:02 18.1 C 6.18 g/m*3 18.1 C 0 km/h
2872 13-06-2010 22:34:02 17.7 C 6.49 g/m*3 17.7 C 0 km/h
2873 13-06-2010 22:46:02 17.3 C 6.63 g/m*3 17.3 C 0 km/h
2874 13-06-2010 22:58:02 17 C 6.66 g/m*3 17 C 0 km/h
2875 13-06-2010 23:10:02 16.7 C 6.68 g/m*3 16.7 C 0 km/h
Sensor: Nr:Datum:Temp:Abs-Feuchte:Windchill:Wind:
Aussen-T/F 2876 13-06-2010 23:22:02 16.6 C 6.92 g/m*3 16.6 C 0 km/h
2877 13-06-2010 23:34:02 16.2 C 6.9 g/m*3 16.2 C 0 km/h
2878 13-06-2010 23:46:02 16 C 7.08 g/m*3 16 C 0 km/h
2879 13-06-2010 23:58:02 15.9 C 7.04 g/m*3 15.9 C 0 km/h
2880 14-06-2010 00:10:02 15.7 C 7.36 g/m*3 15.7 C 0 km/h
2881 14-06-2010 00:22:02 15.4 C 7.49 g/m*3 15.4 C 0 km/h
2882 14-06-2010 00:34:02 15.4 C 7.49 g/m*3 15.4 C 0 km/h
2883 14-06-2010 00:46:02 15.4 C 7.62 g/m*3 15.4 C 0 km/h
2884 14-06-2010 00:58:02 15.3 C 7.44 g/m*3 15.3 C 0 km/h
2885 14-06-2010 01:10:02 14.9 C 7.52 g/m*3 14.9 C 0 km/h
2886 14-06-2010 01:22:02 14.8 C 7.35 g/m*3 14.8 C 0 km/h
2887 14-06-2010 01:34:02 14.5 C 7.34 g/m*3 14.5 C 0 km/h
2888 14-06-2010 01:46:02 14.3 C 7.25 g/m*3 14.3 C 0 km/h
2889 14-06-2010 01:58:02 14.1 C 7.4 g/m*3 14.1 C 0 km/h
2890 14-06-2010 02:10:02 13.9 C 7.67 g/m*3 13.9 C 0 km/h
2891 14-06-2010 02:22:03 13.4 C 7.44 g/m*3 13.4 C 0 km/h
2892 14-06-2010 02:34:03 13.5 C 7.72 g/m*3 13.5 C 0 km/h
2893 14-06-2010 02:46:03 13.3 C 7.74 g/m*3 13.3 C 0 km/h
2894 14-06-2010 02:58:03 13.2 C 7.81 g/m*3 13.2 C 0 km/h
2895 14-06-2010 03:10:03 13 C 7.83 g/m*3 13 C 0 km/h
2896 14-06-2010 03:22:03 12.9 C 7.89 g/m*3 12.9 C 0 km/h
2897 14-06-2010 03:34:03 12.7 C 7.9 g/m*3 12.7 C 0 km/h
2898 14-06-2010 03:46:03 12.5 C 7.81 g/m*3 12.5 C 0 km/h
2899 14-06-2010 03:58:03 12.2 C 7.88 g/m*3 12.2 C 0 km/h
2900 14-06-2010 04:10:03 12.2 C 7.88 g/m*3 12.2 C 0 km/h
Sensor: Nr:Datum:Temp:Abs-Feuchte:Windchill:Wind:
Aussen-T/F 2901 14-06-2010 04:22:03 12.1 C 7.94 g/m*3 12.1 C 0 km/h
2902 14-06-2010 04:34:03 11.9 C 7.84 g/m*3 11.9 C 0 km/h
2903 14-06-2010 04:46:03 11.9 C 7.84 g/m*3 11.9 C 0 km/h
2904 14-06-2010 04:58:03 11.8 C 7.79 g/m*3 11.8 C 0 km/h
2905 14-06-2010 05:10:03 11.8 C 7.79 g/m*3 11.8 C 0 km/h
2906 14-06-2010 05:22:03 11.6 C 7.69 g/m*3 11.6 C 0 km/h
2907 14-06-2010 05:34:03 11.4 C 7.6 g/m*3 11.4 C 0 km/h
2908 14-06-2010 05:46:03 11.3 C 7.55 g/m*3 11.3 C 0 km/h
2909 14-06-2010 05:58:03 11.3 C 7.65 g/m*3 11.3 C 0 km/h
2910 14-06-2010 06:10:03 11.3 C 7.75 g/m*3 11.3 C 0 km/h
2911 14-06-2010 06:22:03 11.2 C 7.7 g/m*3 11.2 C 0 km/h
2912 14-06-2010 06:34:03 11.3 C 7.85 g/m*3 11.3 C 0 km/h
2913 14-06-2010 06:46:03 11.4 C 7.9 g/m*3 11.4 C 0 km/h
2914 14-06-2010 06:58:04 11.2 C 7.91 g/m*3 11.2 C 0 km/h
2915 14-06-2010 07:10:01 11.2 C 8.01 g/m*3 11.2 C 0 km/h
2916 14-06-2010 07:22:02 11.5 C 8.26 g/m*3 11.5 C 0 km/h
2917 14-06-2010 07:34:01 11.7 C 8.26 g/m*3 11.7 C 0 km/h
2918 14-06-2010 07:46:01 11.9 C 8.26 g/m*3 11.9 C 0 km/h
2919 14-06-2010 07:58:01 12.2 C 8.31 g/m*3 12.2 C 0 km/h
2920 14-06-2010 08:10:02 12.5 C 8.36 g/m*3 12.5 C 0 km/h
2921 14-06-2010 08:22:02 12.9 C 8.34 g/m*3 12.9 C 0 km/h
2922 14-06-2010 08:34:01 13.2 C 8.38 g/m*3 13.2 C 0 km/h
2923 14-06-2010 08:46:02 13.8 C 8.46 g/m*3 13.8 C 0 km/h
2924 14-06-2010 08:58:02 14.5 C 8.58 g/m*3 14.5 C 0 km/h
2925 14-06-2010 09:10:01 15 C 8.33 g/m*3 15 C 0 km/h
Sensor: Nr:Datum:Temp:Abs-Feuchte:Windchill:Wind:
Aussen-T/F 2926 14-06-2010 09:22:02 15.9 C 8.4 g/m*3 15.9 C 0 km/h
2927 14-06-2010 09:34:01 17 C 7.96 g/m*3 17 C 0 km/h
2928 14-06-2010 09:46:03 17.8 C 7.74 g/m*3 17.8 C 0 km/h
2929 14-06-2010 09:58:03 18.4 C 7.55 g/m*3 18.4 C 0 km/h
2930 14-06-2010 10:10:02 18.8 C 7.57 g/m*3 18.8 C 0 km/h
2931 14-06-2010 10:22:02 19.5 C 7.55 g/m*3 19.5 C 0 km/h
2932 14-06-2010 10:34:02 20.3 C 7.39 g/m*3 20.3 C 0 km/h
2933 14-06-2010 10:46:02 20.4 C 7.08 g/m*3 20.4 C 0 km/h
2934 14-06-2010 10:58:02 20.8 C 7.06 g/m*3 20.8 C 0 km/h
2935 14-06-2010 11:10:01 21.5 C 6.98 g/m*3 21.5 C 0 km/h
2936 14-06-2010 11:22:02 22.3 C 7.11 g/m*3 22.3 C 0 km/h
2937 14-06-2010 11:34:02 23.1 C 6.61 g/m*3 23.1 C 0 km/h
2938 14-06-2010 11:46:02 23.6 C 6.17 g/m*3 23.6 C 0 km/h
2939 14-06-2010 11:58:02 24.1 C 5.47 g/m*3 24.1 C 0 km/h
2940 14-06-2010 12:10:02 24.5 C 5.82 g/m*3 24.5 C 0 km/h
2941 14-06-2010 12:22:02 24.6 C 5.63 g/m*3 24.6 C 0 km/h
2942 14-06-2010 12:34:02 23.9 C 5.41 g/m*3 23.9 C 0 km/h
2943 14-06-2010 12:46:02 25.7 C 5.51 g/m*3 25.7 C 0 km/h
2944 14-06-2010 12:58:02 27.2 C 5.2 g/m*3 27.2 C 0 km/h
2945 14-06-2010 13:10:02 26.5 C 5.01 g/m*3 26.5 C 0 km/h
2946 14-06-2010 13:22:01 23.9 C 5.41 g/m*3 23.9 C 0 km/h
2947 14-06-2010 13:34:02 27.8 C 5.38 g/m*3 27.8 C 0 km/h
2948 14-06-2010 13:46:02 27.1 C 5.18 g/m*3 27.1 C 0 km/h
2949 14-06-2010 13:58:02 26.4 C 4.98 g/m*3 26.4 C 0 km/h
2950 14-06-2010 14:10:02 27.4 C 5.26 g/m*3 27.4 C 0 km/h
Sensor: Nr:Datum:Temp:Abs-Feuchte:Windchill:Wind:
Aussen-T/F 2951 14-06-2010 14:22:01 28 C 5.44 g/m*3 28 C 0 km/h
2952 14-06-2010 14:34:02 27.8 C 5.38 g/m*3 27.8 C 0 km/h
2953 14-06-2010 14:46:02 27 C 5.15 g/m*3 27 C 0 km/h
2954 14-06-2010 14:58:02 27 C 5.15 g/m*3 27 C 0 km/h
2955 14-06-2010 15:10:02 26.3 C 5.45 g/m*3 26.3 C 0 km/h
2956 14-06-2010 15:22:02 25.6 C 5.24 g/m*3 25.6 C 0 km/h
2957 14-06-2010 15:34:02 26.7 C 5.06 g/m*3 26.7 C 0 km/h
2958 14-06-2010 15:46:02 28 C 5.44 g/m*3 28 C 0 km/h
2959 14-06-2010 15:58:02 27.9 C 5.41 g/m*3 27.9 C 0 km/h
2960 14-06-2010 16:10:02 29.1 C 5.78 g/m*3 29.1 C 0 km/h
2961 14-06-2010 16:22:02 29.1 C 5.78 g/m*3 29.1 C 0 km/h
2962 14-06-2010 16:34:02 29.8 C 6 g/m*3 29.8 C 0 km/h
2963 14-06-2010 16:46:01 30.2 C 6.13 g/m*3 30.2 C 0 km/h
2964 14-06-2010 16:58:01 30.9 C 6.37 g/m*3 30.9 C 0 km/h
2965 14-06-2010 17:10:02 30 C 6.06 g/m*3 30 C 0 km/h
2966 14-06-2010 17:22:02 28.7 C 5.65 g/m*3 28.7 C 0 km/h
2967 14-06-2010 17:34:02 29.7 C 5.97 g/m*3 29.7 C 0 km/h
2968 14-06-2010 17:46:02 29 C 5.74 g/m*3 29 C 0 km/h
2969 14-06-2010 17:58:02 28.3 C 5.53 g/m*3 28.3 C 0 km/h
2970 14-06-2010 18:10:02 27.7 C 5.35 g/m*3 27.7 C 0 km/h
2971 14-06-2010 18:22:02 29.4 C 5.87 g/m*3 29.4 C 0 km/h
2972 14-06-2010 18:34:01 29.5 C 5.9 g/m*3 29.5 C 0 km/h
2973 14-06-2010 18:46:02 28.6 C 5.62 g/m*3 28.6 C 0 km/h
2974 14-06-2010 18:58:02 27.2 C 5.2 g/m*3 27.2 C 0 km/h
2975 14-06-2010 19:10:01 25.7 C 5.75 g/m*3 25.7 C 0 km/h
Sensor: Nr:Datum:Temp:Abs-Feuchte:Windchill:Wind:
Aussen-T/F 2976 14-06-2010 19:22:01 24.7 C 6.11 g/m*3 24.7 C 0 km/h
2977 14-06-2010 19:34:01 24.4 C 6.68 g/m*3 24.4 C 0 km/h
2978 14-06-2010 19:46:02 25.5 C 6.39 g/m*3 25.5 C 0 km/h
2979 14-06-2010 19:58:02 25.7 C 6.46 g/m*3 25.7 C 0 km/h
2980 14-06-2010 20:10:02 25.3 C 6.32 g/m*3 25.3 C 0 km/h
2981 14-06-2010 20:22:02 24.2 C 6.6 g/m*3 24.2 C 0 km/h
2982 14-06-2010 20:34:02 22.9 C 6.54 g/m*3 22.9 C 0 km/h
2983 14-06-2010 20:46:01 22.2 C 6.09 g/m*3 22.2 C 0 km/h
2984 14-06-2010 20:58:01 21.7 C 6.1 g/m*3 21.7 C 0 km/h
2985 14-06-2010 21:10:02 21.1 C 6.08 g/m*3 21.1 C 0 km/h
2986 14-06-2010 21:22:01 20.4 C 6.19 g/m*3 20.4 C 0 km/h
2987 14-06-2010 21:34:02 20 C 6.22 g/m*3 20 C 0 km/h
2988 14-06-2010 21:46:02 19.6 C 6.08 g/m*3 19.6 C 0 km/h
2989 14-06-2010 21:58:02 19.2 C 6.1 g/m*3 19.2 C 0 km/h
2990 14-06-2010 22:10:02 18.9 C 6.32 g/m*3 18.9 C 0 km/h
2991 14-06-2010 22:22:02 18.7 C 6.72 g/m*3 18.7 C 0 km/h
2992 14-06-2010 22:34:01 18.6 C 7.64 g/m*3 18.6 C 0 km/h
2993 14-06-2010 22:46:02 18.5 C 8.07 g/m*3 18.5 C 0 km/h
2994 14-06-2010 22:58:02 18.4 C 8.34 g/m*3 18.4 C 0 km/h
2995 14-06-2010 23:10:01 18.2 C 8.39 g/m*3 18.2 C 0 km/h
2996 14-06-2010 23:22:01 18.4 C 8.65 g/m*3 18.4 C 0 km/h
2997 14-06-2010 23:34:02 18.4 C 8.49 g/m*3 18.4 C 0 km/h
2998 14-06-2010 23:46:02 18.5 C 8.7 g/m*3 18.5 C 0 km/h
2999 14-06-2010 23:58:02 18.3 C 8.6 g/m*3 18.3 C 0 km/h
3000 15-06-2010 00:10:01 17.7 C 8.6 g/m*3 17.7 C 0 km/h
Sensor: Nr:Datum:Temp:Abs-Feuchte:Windchill:Wind:
Aussen-T/F 3001 15-06-2010 00:22:02 17.2 C 8.64 g/m*3 17.2 C 0 km/h
3002 15-06-2010 00:34:02 17.1 C 8.88 g/m*3 17.1 C 0 km/h
3003 15-06-2010 00:46:02 16.8 C 8.72 g/m*3 16.8 C 0 km/h
3004 15-06-2010 00:58:02 16.6 C 8.76 g/m*3 16.6 C 0 km/h
3005 15-06-2010 01:10:02 16.4 C 8.93 g/m*3 16.4 C 0 km/h
3006 15-06-2010 01:22:02 16.3 C 9.02 g/m*3 16.3 C 0 km/h
3007 15-06-2010 01:34:01 16 C 8.99 g/m*3 16 C 0 km/h
3008 15-06-2010 01:46:02 15.8 C 9.02 g/m*3 15.8 C 0 km/h
3009 15-06-2010 01:58:02 15.6 C 9.18 g/m*3 15.6 C 0 km/h
3010 15-06-2010 02:10:01 15.5 C 9.25 g/m*3 15.5 C 0 km/h
3011 15-06-2010 02:22:01 15.4 C 9.2 g/m*3 15.4 C 0 km/h
3012 15-06-2010 02:34:02 15.3 C 9.14 g/m*3 15.3 C 0 km/h
3013 15-06-2010 02:47:04 15.1 C 9.16 g/m*3 15.1 C 0 km/h
3014 15-06-2010 02:59:04 15 C 9.36 g/m*3 15 C 0 km/h
3015 15-06-2010 03:11:03 14.9 C 9.43 g/m*3 14.9 C 0 km/h
3016 15-06-2010 03:23:03 14.8 C 9.5 g/m*3 14.8 C 0 km/h
3017 15-06-2010 03:35:02 14.6 C 9.26 g/m*3 14.6 C 0 km/h
3018 15-06-2010 03:47:02 14.6 C 9.26 g/m*3 14.6 C 0 km/h
3019 15-06-2010 03:59:02 14.3 C 9.09 g/m*3 14.3 C 0 km/h
3020 15-06-2010 04:11:02 14.2 C 9.16 g/m*3 14.2 C 0 km/h
3021 15-06-2010 04:23:02 13.9 C 9.23 g/m*3 13.9 C 0 km/h
3022 15-06-2010 04:35:01 13.7 C 9.12 g/m*3 13.7 C 0 km/h
3023 15-06-2010 04:47:02 13.5 C 9.12 g/m*3 13.5 C 0 km/h
3024 15-06-2010 04:59:02 13.5 C 9.24 g/m*3 13.5 C 0 km/h
3025 15-06-2010 05:11:01 13.5 C 9.24 g/m*3 13.5 C 0 km/h
Sensor: Nr:Datum:Temp:Abs-Feuchte:Windchill:Wind:
Aussen-T/F 3026 15-06-2010 05:23:01 13.5 C 9.36 g/m*3 13.5 C 0 km/h
3027 15-06-2010 05:35:02 13.5 C 9.36 g/m*3 13.5 C 0 km/h
3028 15-06-2010 05:47:02 13.4 C 9.3 g/m*3 13.4 C 0 km/h
3029 15-06-2010 05:59:03 13.5 C 9.36 g/m*3 13.5 C 0 km/h
3030 15-06-2010 06:11:01 13.6 C 9.42 g/m*3 13.6 C 0 km/h
3031 15-06-2010 06:23:02 13.5 C 9.36 g/m*3 13.5 C 0 km/h
3032 15-06-2010 06:35:02 13.5 C 9.36 g/m*3 13.5 C 0 km/h
3033 15-06-2010 06:47:01 13.5 C 9.47 g/m*3 13.5 C 0 km/h
3034 15-06-2010 06:59:01 13.8 C 9.65 g/m*3 13.8 C 0 km/h
3035 15-06-2010 07:11:01 14 C 9.77 g/m*3 14 C 0 km/h
3036 15-06-2010 07:23:01 14.4 C 9.89 g/m*3 14.4 C 0 km/h
3037 15-06-2010 07:35:02 14.9 C 9.94 g/m*3 14.9 C 0 km/h
3038 15-06-2010 07:47:02 15.4 C 9.72 g/m*3 15.4 C 0 km/h
3039 15-06-2010 07:59:02 15.9 C 9.75 g/m*3 15.9 C 0 km/h
3040 15-06-2010 08:11:01 16.3 C 9.57 g/m*3 16.3 C 0 km/h
3041 15-06-2010 08:23:02 16.7 C 9.52 g/m*3 16.7 C 0 km/h
3042 15-06-2010 08:35:01 16.5 C 8.85 g/m*3 16.5 C 0 km/h
3043 15-06-2010 08:47:02 16.8 C 8.86 g/m*3 16.8 C 0 km/h
3044 15-06-2010 08:59:02 17.1 C 8.73 g/m*3 17.1 C 0 km/h
3045 15-06-2010 09:11:01 17.1 C 8.44 g/m*3 17.1 C 0 km/h
3046 15-06-2010 09:23:01 17.2 C 8.35 g/m*3 17.2 C 0 km/h
3047 15-06-2010 09:35:02 17.8 C 8.5 g/m*3 17.8 C 0 km/h
3048 15-06-2010 09:47:02 17.9 C 8.4 g/m*3 17.9 C 0 km/h
3049 15-06-2010 09:59:02 18.5 C 8.07 g/m*3 18.5 C 0 km/h
3050 15-06-2010 10:11:01 19 C 8.15 g/m*3 19 C 0 km/h
Sensor: Nr:Datum:Temp:Abs-Feuchte:Windchill:Wind:
Aussen-T/F 3051 15-06-2010 10:23:01 20 C 7.78 g/m*3 20 C 0 km/h
3052 15-06-2010 10:35:02 20 C 7.95 g/m*3 20 C 0 km/h
3053 15-06-2010 10:47:02 19.9 C 7.9 g/m*3 19.9 C 0 km/h
3054 15-06-2010 10:59:02 19.7 C 7.98 g/m*3 19.7 C 0 km/h
3055 15-06-2010 11:11:02 20.3 C 7.91 g/m*3 20.3 C 0 km/h
3056 15-06-2010 11:23:02 20.9 C 8.01 g/m*3 20.9 C 0 km/h
3057 15-06-2010 11:35:02 20.4 C 7.78 g/m*3 20.4 C 0 km/h
3058 15-06-2010 11:47:02 21.3 C 8.2 g/m*3 21.3 C 0 km/h
3059 15-06-2010 11:59:02 20.6 C 8.23 g/m*3 20.6 C 0 km/h
3060 15-06-2010 12:11:02 21.1 C 8.29 g/m*3 21.1 C 0 km/h
3061 15-06-2010 12:23:02 21.2 C 8.15 g/m*3 21.2 C 0 km/h
3062 15-06-2010 12:35:02 21.2 C 8.15 g/m*3 21.2 C 0 km/h
3063 15-06-2010 12:47:02 21.6 C 8.16 g/m*3 21.6 C 0 km/h
3064 15-06-2010 12:59:02 21.2 C 8.15 g/m*3 21.2 C 0 km/h
3065 15-06-2010 13:11:02 20.8 C 8.15 g/m*3 20.8 C 0 km/h
3066 15-06-2010 13:23:02 21.3 C 7.83 g/m*3 21.3 C 0 km/h
3067 15-06-2010 13:35:02 21 C 7.69 g/m*3 21 C 0 km/h
3068 15-06-2010 13:47:02 21.6 C 7.78 g/m*3 21.6 C 0 km/h
3069 15-06-2010 13:59:02 23.1 C 7.03 g/m*3 23.1 C 0 km/h
3070 15-06-2010 14:11:02 22.1 C 6.83 g/m*3 22.1 C 0 km/h
3071 15-06-2010 14:23:02 21.9 C 6.95 g/m*3 21.9 C 0 km/h
3072 15-06-2010 14:35:02 21.6 C 7.02 g/m*3 21.6 C 0 km/h
3073 15-06-2010 14:47:02 23 C 6.78 g/m*3 23 C 0 km/h
3074 15-06-2010 14:59:02 23.9 C 6.71 g/m*3 23.9 C 0 km/h
3075 15-06-2010 15:11:02 24.1 C 5.91 g/m*3 24.1 C 0 km/h
Sensor: Nr:Datum:Temp:Abs-Feuchte:Windchill:Wind:
Aussen-T/F 3076 15-06-2010 15:23:03 23.7 C 5.78 g/m*3 23.7 C 0 km/h
3077 15-06-2010 15:35:02 23.9 C 6.06 g/m*3 23.9 C 0 km/h
3078 15-06-2010 15:47:03 23.6 C 6.17 g/m*3 23.6 C 0 km/h
3079 15-06-2010 15:59:03 23.5 C 6.13 g/m*3 23.5 C 0 km/h
3080 15-06-2010 16:11:02 24.2 C 6.16 g/m*3 24.2 C 0 km/h
3081 15-06-2010 16:23:03 23.7 C 5.99 g/m*3 23.7 C 0 km/h
3082 15-06-2010 16:35:02 24.6 C 5.85 g/m*3 24.6 C 0 km/h
3083 15-06-2010 16:47:03 24.7 C 5.66 g/m*3 24.7 C 0 km/h
3084 15-06-2010 16:59:03 24.9 C 5.49 g/m*3 24.9 C 0 km/h
3085 15-06-2010 17:11:02 24.6 C 5.63 g/m*3 24.6 C 0 km/h
3086 15-06-2010 17:23:02 23.7 C 5.56 g/m*3 23.7 C 0 km/h
3087 15-06-2010 17:35:02 24.2 C 5.72 g/m*3 24.2 C 0 km/h
3088 15-06-2010 17:47:02 23.4 C 5.47 g/m*3 23.4 C 0 km/h
3089 15-06-2010 17:59:02 24.9 C 5.72 g/m*3 24.9 C 0 km/h
3090 15-06-2010 18:11:02 25.1 C 5.56 g/m*3 25.1 C 0 km/h
3091 15-06-2010 18:23:02 24.6 C 5.85 g/m*3 24.6 C 0 km/h
3092 15-06-2010 18:35:02 24.1 C 5.47 g/m*3 24.1 C 0 km/h
3093 15-06-2010 18:47:02 23.5 C 5.71 g/m*3 23.5 C 0 km/h
3094 15-06-2010 18:59:02 24.3 C 5.53 g/m*3 24.3 C 0 km/h
3095 15-06-2010 19:11:01 23.1 C 5.37 g/m*3 23.1 C 0 km/h
3096 15-06-2010 19:23:02 23.3 C 5.44 g/m*3 23.3 C 0 km/h
3097 15-06-2010 19:35:02 23.2 C 5.41 g/m*3 23.2 C 0 km/h
3098 15-06-2010 19:47:01 23.4 C 5.47 g/m*3 23.4 C 0 km/h
3099 15-06-2010 19:59:01 23.8 C 5.59 g/m*3 23.8 C 0 km/h
3100 15-06-2010 20:11:01 22.8 C 5.49 g/m*3 22.8 C 0 km/h
Sensor: Nr:Datum:Temp:Abs-Feuchte:Windchill:Wind:
Aussen-T/F 3101 15-06-2010 20:23:01 21.7 C 5.72 g/m*3 21.7 C 0 km/h
3102 15-06-2010 20:35:02 21.9 C 5.98 g/m*3 21.9 C 0 km/h
3103 15-06-2010 20:47:02 21.1 C 5.53 g/m*3 21.1 C 0 km/h
3104 15-06-2010 20:59:02 20.4 C 5.66 g/m*3 20.4 C 0 km/h
3105 15-06-2010 21:11:02 20 C 5.36 g/m*3 20 C 0 km/h
3106 15-06-2010 21:23:02 19.7 C 5.77 g/m*3 19.7 C 0 km/h
3107 15-06-2010 21:35:02 19.2 C 5.77 g/m*3 19.2 C 0 km/h
3108 15-06-2010 21:47:02 18.7 C 5.6 g/m*3 18.7 C 0 km/h
3109 15-06-2010 21:59:02 18.3 C 5.63 g/m*3 18.3 C 0 km/h
3110 15-06-2010 22:11:02 18 C 5.53 g/m*3 18 C 0 km/h
3111 15-06-2010 22:24:01 17.7 C 5.58 g/m*3 17.7 C 0 km/h
3112 15-06-2010 22:36:01 17.3 C 5.45 g/m*3 17.3 C 0 km/h
3113 15-06-2010 22:48:01 17.1 C 5.39 g/m*3 17.1 C 0 km/h
3114 15-06-2010 23:00:01 16.9 C 5.75 g/m*3 16.9 C 0 km/h
3115 15-06-2010 23:12:01 16.6 C 5.79 g/m*3 16.6 C 0 km/h
3116 15-06-2010 23:24:01 16.1 C 5.89 g/m*3 16.1 C 0 km/h
3117 15-06-2010 23:36:01 15.8 C 6.06 g/m*3 15.8 C 0 km/h
3118 15-06-2010 23:48:01 15.4 C 6.04 g/m*3 15.4 C 0 km/h
3119 16-06-2010 00:00:01 15.2 C 6.1 g/m*3 15.2 C 0 km/h
3120 16-06-2010 00:12:01 15 C 5.9 g/m*3 15 C 0 km/h
3121 16-06-2010 00:24:02 14.6 C 6.01 g/m*3 14.6 C 0 km/h
3122 16-06-2010 00:36:02 14.4 C 6.06 g/m*3 14.4 C 0 km/h
3123 16-06-2010 00:48:02 14.2 C 6.11 g/m*3 14.2 C 0 km/h
3124 16-06-2010 01:00:02 13.8 C 6.08 g/m*3 13.8 C 0 km/h
3125 16-06-2010 01:12:02 13.5 C 6.2 g/m*3 13.5 C 0 km/h
Sensor: Nr:Datum:Temp:Abs-Feuchte:Windchill:Wind:
Aussen-T/F 3126 16-06-2010 01:24:02 13.4 C 6.28 g/m*3 13.4 C 0 km/h
3127 16-06-2010 01:36:02 13.2 C 6.2 g/m*3 13.2 C 0 km/h
3128 16-06-2010 01:48:02 13.1 C 6.28 g/m*3 13.1 C 0 km/h
3129 16-06-2010 02:00:02 13 C 6.24 g/m*3 13 C 0 km/h
3130 16-06-2010 02:12:02 12.9 C 6.2 g/m*3 12.9 C 0 km/h
3131 16-06-2010 02:24:02 12.7 C 6.12 g/m*3 12.7 C 0 km/h
3132 16-06-2010 02:36:02 12.5 C 6.05 g/m*3 12.5 C 0 km/h
3133 16-06-2010 02:48:02 12.4 C 6.12 g/m*3 12.4 C 0 km/h
3134 16-06-2010 03:00:02 12.2 C 6.04 g/m*3 12.2 C 0 km/h
3135 16-06-2010 03:12:02 12 C 6.07 g/m*3 12 C 0 km/h
3136 16-06-2010 03:24:02 11.8 C 6.1 g/m*3 11.8 C 0 km/h
3137 16-06-2010 03:36:02 11.6 C 6.13 g/m*3 11.6 C 0 km/h
3138 16-06-2010 03:48:02 11.5 C 6.09 g/m*3 11.5 C 0 km/h
3139 16-06-2010 04:00:02 11.4 C 6.16 g/m*3 11.4 C 0 km/h
3140 16-06-2010 04:12:02 11.3 C 6.22 g/m*3 11.3 C 0 km/h
3141 16-06-2010 04:24:03 11.1 C 6.14 g/m*3 11.1 C 0 km/h
3142 16-06-2010 04:36:03 11.1 C 6.04 g/m*3 11.1 C 0 km/h
3143 16-06-2010 04:48:03 11.1 C 6.14 g/m*3 11.1 C 0 km/h
3144 16-06-2010 05:00:03 10.9 C 6.17 g/m*3 10.9 C 0 km/h
3145 16-06-2010 05:12:03 10.8 C 6.23 g/m*3 10.8 C 0 km/h
3146 16-06-2010 05:24:03 10.6 C 6.15 g/m*3 10.6 C 0 km/h
3147 16-06-2010 05:36:03 10.5 C 6.21 g/m*3 10.5 C 0 km/h
3148 16-06-2010 05:48:03 10.5 C 6.21 g/m*3 10.5 C 0 km/h
3149 16-06-2010 06:00:03 10.5 C 6.3 g/m*3 10.5 C 0 km/h
3150 16-06-2010 06:12:03 10.6 C 6.34 g/m*3 10.6 C 0 km/h
Sensor: Nr:Datum:Temp:Abs-Feuchte:Windchill:Wind:
Aussen-T/F 3151 16-06-2010 06:24:03 10.7 C 6.48 g/m*3 10.7 C 0 km/h
3152 16-06-2010 06:36:03 10.8 C 6.52 g/m*3 10.8 C 0 km/h
3153 16-06-2010 06:48:03 10.9 C 6.56 g/m*3 10.9 C 0 km/h
3154 16-06-2010 07:00:03 11.1 C 6.65 g/m*3 11.1 C 0 km/h
3155 16-06-2010 07:12:02 11.5 C 6.71 g/m*3 11.5 C 0 km/h
3156 16-06-2010 07:24:01 11.9 C 6.88 g/m*3 11.9 C 0 km/h
3157 16-06-2010 07:36:02 12.1 C 6.86 g/m*3 12.1 C 0 km/h
3158 16-06-2010 07:48:02 12.5 C 6.82 g/m*3 12.5 C 0 km/h
3159 16-06-2010 08:00:02 12.9 C 6.76 g/m*3 12.9 C 0 km/h
3160 16-06-2010 08:12:02 13.3 C 6.47 g/m*3 13.3 C 0 km/h
3161 16-06-2010 08:24:02 13.7 C 6.39 g/m*3 13.7 C 0 km/h
3162 16-06-2010 08:36:02 14.1 C 6.07 g/m*3 14.1 C 0 km/h
3163 16-06-2010 08:48:01 14.5 C 5.97 g/m*3 14.5 C 0 km/h
3164 16-06-2010 09:00:01 14.9 C 5.86 g/m*3 14.9 C 0 km/h
3165 16-06-2010 09:12:02 15.5 C 5.82 g/m*3 15.5 C 0 km/h
3166 16-06-2010 09:24:01 16 C 5.59 g/m*3 16 C 0 km/h
3167 16-06-2010 09:36:01 16.5 C 5.76 g/m*3 16.5 C 0 km/h
3168 16-06-2010 09:48:02 16.9 C 5.61 g/m*3 16.9 C 0 km/h
3169 16-06-2010 10:00:02 17.3 C 5.3 g/m*3 17.3 C 0 km/h
3170 16-06-2010 10:12:02 17.5 C 5.37 g/m*3 17.5 C 0 km/h
3171 16-06-2010 10:24:02 18.3 C 5.32 g/m*3 18.3 C 0 km/h
3172 16-06-2010 10:36:02 18.6 C 5.09 g/m*3 18.6 C 0 km/h
3173 16-06-2010 10:48:02 19.1 C 4.92 g/m*3 19.1 C 0 km/h
3174 16-06-2010 11:00:02 19.4 C 4.5 g/m*3 19.4 C 0 km/h
3175 16-06-2010 11:12:02 19.7 C 4.75 g/m*3 19.7 C 0 km/h
Sensor: Nr:Datum:Temp:Abs-Feuchte:Windchill:Wind:
Aussen-T/F 3176 16-06-2010 11:24:02 20.3 C 4.4 g/m*3 20.3 C 0 km/h
3177 16-06-2010 11:36:02 21.3 C 4.66 g/m*3 21.3 C 0 km/h
3178 16-06-2010 11:48:02 21.7 C 4.58 g/m*3 21.7 C 0 km/h
3179 16-06-2010 12:00:02 22.3 C 4.54 g/m*3 22.3 C 0 km/h
3180 16-06-2010 12:12:02 23 C 4.32 g/m*3 23 C 0 km/h
3181 16-06-2010 12:24:02 23.7 C 4.49 g/m*3 23.7 C 0 km/h
3182 16-06-2010 12:36:01 23.7 C 4.28 g/m*3 23.7 C 0 km/h
3183 16-06-2010 12:48:02 24.4 C 4.45 g/m*3 24.4 C 0 km/h
3184 16-06-2010 13:00:02 25.1 C 4.63 g/m*3 25.1 C 0 km/h
3185 16-06-2010 13:12:01 25.6 C 4.76 g/m*3 25.6 C 0 km/h
3186 16-06-2010 13:24:02 26.2 C 4.92 g/m*3 26.2 C 0 km/h
3187 16-06-2010 13:36:02 27.2 C 5.2 g/m*3 27.2 C 0 km/h
3188 16-06-2010 13:48:02 27.1 C 5.18 g/m*3 27.1 C 0 km/h
3189 16-06-2010 14:00:03 26.2 C 4.92 g/m*3 26.2 C 0 km/h
3190 16-06-2010 14:12:02 25.4 C 4.71 g/m*3 25.4 C 0 km/h
3191 16-06-2010 14:24:02 25.4 C 4.71 g/m*3 25.4 C 0 km/h
3192 16-06-2010 14:36:02 25.3 C 4.68 g/m*3 25.3 C 0 km/h
3193 16-06-2010 14:48:02 25.5 C 4.73 g/m*3 25.5 C 0 km/h
3194 16-06-2010 15:00:02 25.7 C 4.79 g/m*3 25.7 C 0 km/h
3195 16-06-2010 15:12:02 25.8 C 4.82 g/m*3 25.8 C 0 km/h
3196 16-06-2010 15:24:01 26.2 C 4.92 g/m*3 26.2 C 0 km/h
3197 16-06-2010 15:36:02 26.5 C 5.01 g/m*3 26.5 C 0 km/h
3198 16-06-2010 15:48:02 26.6 C 5.03 g/m*3 26.6 C 0 km/h
3199 16-06-2010 16:00:02 27.1 C 5.18 g/m*3 27.1 C 0 km/h
3200 16-06-2010 16:12:02 27.2 C 5.2 g/m*3 27.2 C 0 km/h
Sensor: Nr:Datum:Temp:Abs-Feuchte:Windchill:Wind:
Aussen-T/F 3201 16-06-2010 16:24:02 26.9 C 5.12 g/m*3 26.9 C 0 km/h
3202 16-06-2010 16:36:02 27.3 C 5.23 g/m*3 27.3 C 0 km/h
3203 16-06-2010 16:48:02 26.9 C 5.12 g/m*3 26.9 C 0 km/h
3204 16-06-2010 17:00:02 26.5 C 5.01 g/m*3 26.5 C 0 km/h
3205 16-06-2010 17:12:02 26.3 C 4.95 g/m*3 26.3 C 0 km/h
3206 16-06-2010 17:24:02 27.9 C 5.41 g/m*3 27.9 C 0 km/h
3207 16-06-2010 17:36:02 27.5 C 5.29 g/m*3 27.5 C 0 km/h
3208 16-06-2010 17:48:01 26.5 C 5.01 g/m*3 26.5 C 0 km/h
3209 16-06-2010 18:00:01 26.9 C 5.12 g/m*3 26.9 C 0 km/h
3210 16-06-2010 18:12:02 26.9 C 5.12 g/m*3 26.9 C 0 km/h
3211 16-06-2010 18:24:01 26.9 C 5.12 g/m*3 26.9 C 0 km/h
3212 16-06-2010 18:36:01 26.3 C 4.95 g/m*3 26.3 C 0 km/h
3213 16-06-2010 18:48:01 26.1 C 4.9 g/m*3 26.1 C 0 km/h
3214 16-06-2010 19:00:01 26.6 C 5.03 g/m*3 26.6 C 0 km/h
3215 16-06-2010 19:12:02 25.7 C 4.79 g/m*3 25.7 C 0 km/h
3216 16-06-2010 19:24:01 24.9 C 4.58 g/m*3 24.9 C 0 km/h
3217 16-06-2010 19:36:01 24.1 C 4.59 g/m*3 24.1 C 0 km/h
3218 16-06-2010 19:48:01 24.1 C 5.03 g/m*3 24.1 C 0 km/h
3219 16-06-2010 20:00:01 23.9 C 5.19 g/m*3 23.9 C 0 km/h
3220 16-06-2010 20:12:01 23.1 C 5.17 g/m*3 23.1 C 0 km/h
3221 16-06-2010 20:24:02 22.5 C 5.19 g/m*3 22.5 C 0 km/h
3222 16-06-2010 20:36:01 22.5 C 5.39 g/m*3 22.5 C 0 km/h
3223 16-06-2010 20:48:03 22.2 C 5.3 g/m*3 22.2 C 0 km/h
3224 16-06-2010 21:00:03 21.9 C 5.79 g/m*3 21.9 C 0 km/h
3225 16-06-2010 21:12:02 21.3 C 5.78 g/m*3 21.3 C 0 km/h
Sensor: Nr:Datum:Temp:Abs-Feuchte:Windchill:Wind:
Aussen-T/F 3226 16-06-2010 21:24:03 20.8 C 5.79 g/m*3 20.8 C 0 km/h
3227 16-06-2010 21:36:02 20.2 C 5.94 g/m*3 20.2 C 0 km/h
3228 16-06-2010 21:48:02 19.6 C 5.91 g/m*3 19.6 C 0 km/h
3229 16-06-2010 22:00:02 19.1 C 5.74 g/m*3 19.1 C 0 km/h
3230 16-06-2010 22:12:02 18.8 C 5.8 g/m*3 18.8 C